<?xml version="1.0" encoding="utf-8"?>
<gpx version="1.1" creator="com.bodunov.galileo/v6.1.1" xmlns:xsi="http://www.w3.org/2001/XMLSchema-instance" xmlns="http://www.topografix.com/GPX/1/1" xmlns:gom="https://gurumaps.app/gpx/v3" xsi:schemaLocation="http://www.topografix.com/GPX/1/1 http://www.topografix.com/GPX/1/1/gpx.xsd https://gurumaps.app/gpx/v3 https://gurumaps.app/gpx/v3/schema.xsd">
 <trk>
  <name>2026_08_13 Lisa1</name>
  <desc>2026_08_13 Lisa1</desc>
  <type>TrackStyle_2196F3C8</type>
  <extensions>
   <gom:time>2026-08-13T20:16:16.101Z</gom:time>
   <line xmlns="http://www.topografix.com/GPX/gpx_style/0/2">
    <color>2196F3</color>
   </line>
  </extensions>
  <trkseg>
   <trkpt lat="59.3506282915" lon="34.6994366624"><ele>177.458</ele><time>2026-08-13T20:16:15.333Z</time><hdop>2.437</hdop><vdop>11.562</vdop><extensions><gom:speed>0.224</gom:speed></extensions></trkpt>
   <trkpt lat="59.3505846637" lon="34.6992822677"><ele>177.475</ele><time>2026-08-13T20:18:31.372Z</time><hdop>3.0</hdop><vdop>8.875</vdop><extensions><gom:speed>0.415</gom:speed></extensions></trkpt>
   <trkpt lat="59.3505479929" lon="34.6991200779"><ele>176.962</ele><time>2026-08-13T20:18:40.967Z</time><hdop>3.0</hdop><vdop>9.5</vdop><extensions><gom:speed>0.882</gom:speed></extensions></trkpt>
   <trkpt lat="59.3505221766" lon="34.6989428844"><ele>172.432</ele><time>2026-08-13T20:18:51.375Z</time><hdop>3.0</hdop><vdop>9.0</vdop><extensions><gom:speed>0.94</gom:speed></extensions></trkpt>
   <trkpt lat="59.3504833684" lon="34.6987800241"><ele>170.322</ele><time>2026-08-13T20:19:02.560Z</time><hdop>3.0</hdop><vdop>9.375</vdop><extensions><gom:speed>0.906</gom:speed></extensions></trkpt>
   <trkpt lat="59.3504620784" lon="34.6985991426"><ele>169.324</ele><time>2026-08-13T20:19:10.497Z</time><hdop>3.0</hdop><vdop>10.0</vdop><extensions><gom:speed>1.076</gom:speed></extensions></trkpt>
   <trkpt lat="59.3504384833" lon="34.6984248828"><ele>169.762</ele><time>2026-08-13T20:19:21.597Z</time><hdop>3.0</hdop><vdop>8.875</vdop><extensions><gom:speed>0.607</gom:speed></extensions></trkpt>
   <trkpt lat="59.3504102782" lon="34.6982570771"><ele>172.074</ele><time>2026-08-13T20:19:42.600Z</time><hdop>3.0</hdop><vdop>7.875</vdop><extensions><gom:speed>0.296</gom:speed></extensions></trkpt>
   <trkpt lat="59.3503659799" lon="34.6980975695"><ele>173.747</ele><time>2026-08-13T20:19:49.661Z</time><hdop>3.0</hdop><vdop>7.5</vdop><extensions><gom:speed>1.0</gom:speed></extensions></trkpt>
   <trkpt lat="59.3503492999" lon="34.6979229745"><ele>176.802</ele><time>2026-08-13T20:19:58.335Z</time><hdop>3.0</hdop><vdop>7.687</vdop><extensions><gom:speed>0.983</gom:speed></extensions></trkpt>
   <trkpt lat="59.3503386968" lon="34.6977335435"><ele>178.454</ele><time>2026-08-13T20:20:09.580Z</time><hdop>3.0</hdop><vdop>7.562</vdop><extensions><gom:speed>0.785</gom:speed></extensions></trkpt>
   <trkpt lat="59.3503321589" lon="34.697548471"><ele>177.846</ele><time>2026-08-13T20:20:20.161Z</time><hdop>3.0</hdop><vdop>7.687</vdop><extensions><gom:speed>0.924</gom:speed></extensions></trkpt>
   <trkpt lat="59.3503113718" lon="34.6973705232"><ele>175.869</ele><time>2026-08-13T20:20:30.101Z</time><hdop>3.0</hdop><vdop>8.562</vdop><extensions><gom:speed>0.973</gom:speed></extensions></trkpt>
   <trkpt lat="59.350271893" lon="34.69721177"><ele>173.712</ele><time>2026-08-13T20:20:38.058Z</time><hdop>3.0</hdop><vdop>8.062</vdop><extensions><gom:speed>1.03</gom:speed></extensions></trkpt>
   <trkpt lat="59.3502339649" lon="34.6970503345"><ele>175.579</ele><time>2026-08-13T20:20:51.879Z</time><hdop>3.0</hdop><vdop>8.75</vdop><extensions><gom:speed>0.306</gom:speed></extensions></trkpt>
   <trkpt lat="59.3502043768" lon="34.6968810201"><ele>176.277</ele><time>2026-08-13T20:21:00.660Z</time><hdop>3.0</hdop><vdop>7.562</vdop><extensions><gom:speed>0.824</gom:speed></extensions></trkpt>
   <trkpt lat="59.3501576896" lon="34.6967222668"><ele>176.156</ele><time>2026-08-13T20:21:10.370Z</time><hdop>3.0</hdop><vdop>9.562</vdop><extensions><gom:speed>1.045</gom:speed></extensions></trkpt>
   <trkpt lat="59.350093568" lon="34.6965851389"><ele>174.624</ele><time>2026-08-13T20:21:15.920Z</time><hdop>3.0</hdop><vdop>10.375</vdop><extensions><gom:speed>1.057</gom:speed></extensions></trkpt>
   <trkpt lat="59.3500363615" lon="34.6964258827"><ele>174.304</ele><time>2026-08-13T20:21:57.818Z</time><hdop>3.0</hdop><vdop>10.562</vdop><extensions><gom:speed>0.056</gom:speed></extensions></trkpt>
   <trkpt lat="59.3500029596" lon="34.6962441631"><ele>174.673</ele><time>2026-08-13T20:22:04.678Z</time><hdop>3.0</hdop><vdop>10.25</vdop><extensions><gom:speed>1.126</gom:speed></extensions></trkpt>
   <trkpt lat="59.3499801609" lon="34.6960611861"><ele>175.502</ele><time>2026-08-13T20:22:10.859Z</time><hdop>3.0</hdop><vdop>10.187</vdop><extensions><gom:speed>1.211</gom:speed></extensions></trkpt>
   <trkpt lat="59.3499603796" lon="34.6958791312"><ele>176.794</ele><time>2026-08-13T20:22:18.740Z</time><hdop>3.0</hdop><vdop>11.0</vdop><extensions><gom:speed>1.171</gom:speed></extensions></trkpt>
   <trkpt lat="59.3499518719" lon="34.6957000938"><ele>176.55</ele><time>2026-08-13T20:22:27.097Z</time><hdop>3.0</hdop><vdop>10.75</vdop><extensions><gom:speed>1.253</gom:speed></extensions></trkpt>
   <trkpt lat="59.3499628941" lon="34.695515189"><ele>175.825</ele><time>2026-08-13T20:22:35.341Z</time><hdop>3.0</hdop><vdop>11.187</vdop><extensions><gom:speed>1.22</gom:speed></extensions></trkpt>
   <trkpt lat="59.3499616788" lon="34.6953327988"><ele>176.353</ele><time>2026-08-13T20:22:43.179Z</time><hdop>3.0</hdop><vdop>7.375</vdop><extensions><gom:speed>1.118</gom:speed></extensions></trkpt>
   <trkpt lat="59.3499784845" lon="34.6951535937"><ele>175.995</ele><time>2026-08-13T20:22:50.741Z</time><hdop>3.0</hdop><vdop>7.5</vdop><extensions><gom:speed>1.258</gom:speed></extensions></trkpt>
   <trkpt lat="59.3499357787" lon="34.6949955948"><ele>174.525</ele><time>2026-08-13T20:22:59.239Z</time><hdop>3.0</hdop><vdop>9.0</vdop><extensions><gom:speed>1.108</gom:speed></extensions></trkpt>
   <trkpt lat="59.3499413946" lon="34.6948006317"><ele>176.947</ele><time>2026-08-13T20:23:09.278Z</time><hdop>3.0</hdop><vdop>7.375</vdop><extensions><gom:speed>1.026</gom:speed></extensions></trkpt>
   <trkpt lat="59.3499247984" lon="34.6946211752"><ele>176.148</ele><time>2026-08-13T20:23:15.798Z</time><hdop>3.0</hdop><vdop>8.562</vdop><extensions><gom:speed>1.26</gom:speed></extensions></trkpt>
   <trkpt lat="59.3499181767" lon="34.6944434788"><ele>175.668</ele><time>2026-08-13T20:23:24.179Z</time><hdop>3.0</hdop><vdop>8.25</vdop><extensions><gom:speed>1.146</gom:speed></extensions></trkpt>
   <trkpt lat="59.3499127704" lon="34.6942568977"><ele>174.532</ele><time>2026-08-13T20:23:32.941Z</time><hdop>3.0</hdop><vdop>8.25</vdop><extensions><gom:speed>1.112</gom:speed></extensions></trkpt>
   <trkpt lat="59.3498928633" lon="34.6940814644"><ele>175.221</ele><time>2026-08-13T20:23:39.300Z</time><hdop>3.0</hdop><vdop>8.875</vdop><extensions><gom:speed>1.282</gom:speed></extensions></trkpt>
   <trkpt lat="59.3498767701" lon="34.6939065341"><ele>177.49</ele><time>2026-08-13T20:23:47.121Z</time><hdop>3.0</hdop><vdop>8.25</vdop><extensions><gom:speed>1.187</gom:speed></extensions></trkpt>
   <trkpt lat="59.3498616827" lon="34.6937258203"><ele>177.969</ele><time>2026-08-13T20:23:54.337Z</time><hdop>3.0</hdop><vdop>8.687</vdop><extensions><gom:speed>1.264</gom:speed></extensions></trkpt>
   <trkpt lat="59.3498329746" lon="34.6935543265"><ele>176.062</ele><time>2026-08-13T20:24:00.961Z</time><hdop>3.0</hdop><vdop>8.75</vdop><extensions><gom:speed>1.245</gom:speed></extensions></trkpt>
   <trkpt lat="59.3498086671" lon="34.6933839224"><ele>175.611</ele><time>2026-08-13T20:24:08.677Z</time><hdop>3.0</hdop><vdop>8.0</vdop><extensions><gom:speed>1.244</gom:speed></extensions></trkpt>
   <trkpt lat="59.3498021711" lon="34.693195162"><ele>176.582</ele><time>2026-08-13T20:24:16.978Z</time><hdop>3.0</hdop><vdop>7.875</vdop><extensions><gom:speed>1.239</gom:speed></extensions></trkpt>
   <trkpt lat="59.3497863713" lon="34.6930195611"><ele>175.851</ele><time>2026-08-13T20:24:25.759Z</time><hdop>3.0</hdop><vdop>8.25</vdop><extensions><gom:speed>1.151</gom:speed></extensions></trkpt>
   <trkpt lat="59.3497707809" lon="34.692843625"><ele>175.715</ele><time>2026-08-13T20:24:34.299Z</time><hdop>3.0</hdop><vdop>8.687</vdop><extensions><gom:speed>1.22</gom:speed></extensions></trkpt>
   <trkpt lat="59.3497440846" lon="34.6926710416"><ele>176.422</ele><time>2026-08-13T20:24:41.143Z</time><hdop>3.0</hdop><vdop>8.687</vdop><extensions><gom:speed>1.349</gom:speed></extensions></trkpt>
   <trkpt lat="59.3497298772" lon="34.6924942672"><ele>177.687</ele><time>2026-08-13T20:24:49.406Z</time><hdop>3.0</hdop><vdop>8.375</vdop><extensions><gom:speed>1.291</gom:speed></extensions></trkpt>
   <trkpt lat="59.3497344873" lon="34.6923097816"><ele>178.302</ele><time>2026-08-13T20:24:57.566Z</time><hdop>3.0</hdop><vdop>8.375</vdop><extensions><gom:speed>1.417</gom:speed></extensions></trkpt>
   <trkpt lat="59.3497305897" lon="34.6921268884"><ele>176.943</ele><time>2026-08-13T20:25:03.524Z</time><hdop>3.0</hdop><vdop>8.875</vdop><extensions><gom:speed>1.42</gom:speed></extensions></trkpt>
   <trkpt lat="59.3497332719" lon="34.691944582"><ele>176.183</ele><time>2026-08-13T20:25:11.727Z</time><hdop>3.0</hdop><vdop>8.187</vdop><extensions><gom:speed>1.387</gom:speed></extensions></trkpt>
   <trkpt lat="59.3497116885" lon="34.6917704899"><ele>175.552</ele><time>2026-08-13T20:25:20.365Z</time><hdop>3.0</hdop><vdop>7.562</vdop><extensions><gom:speed>1.307</gom:speed></extensions></trkpt>
   <trkpt lat="59.3497721639" lon="34.6916312665"><ele>177.01</ele><time>2026-08-13T20:25:29.985Z</time><hdop>3.0</hdop><vdop>7.875</vdop><extensions><gom:speed>1.268</gom:speed></extensions></trkpt>
   <trkpt lat="59.349711898" lon="34.6914910373"><ele>178.202</ele><time>2026-08-13T20:25:35.327Z</time><hdop>4.062</hdop><vdop>7.562</vdop><extensions><gom:speed>1.31</gom:speed></extensions></trkpt>
   <trkpt lat="59.3496784962" lon="34.6913163584"><ele>178.739</ele><time>2026-08-13T20:25:40.188Z</time><hdop>3.187</hdop><vdop>8.375</vdop><extensions><gom:speed>1.415</gom:speed></extensions></trkpt>
   <trkpt lat="59.3496657976" lon="34.6911304478"><ele>179.141</ele><time>2026-08-13T20:25:46.788Z</time><hdop>3.0</hdop><vdop>7.75</vdop><extensions><gom:speed>1.32</gom:speed></extensions></trkpt>
   <trkpt lat="59.3496631992" lon="34.6909542602"><ele>179.211</ele><time>2026-08-13T20:25:54.861Z</time><hdop>3.0</hdop><vdop>7.562</vdop><extensions><gom:speed>1.22</gom:speed></extensions></trkpt>
   <trkpt lat="59.3496430826" lon="34.6907751389"><ele>176.62</ele><time>2026-08-13T20:26:03.007Z</time><hdop>3.0</hdop><vdop>7.0</vdop><extensions><gom:speed>1.194</gom:speed></extensions></trkpt>
   <trkpt lat="59.3496182722" lon="34.6905971911"><ele>177.013</ele><time>2026-08-13T20:26:11.245Z</time><hdop>3.0</hdop><vdop>7.062</vdop><extensions><gom:speed>1.128</gom:speed></extensions></trkpt>
   <trkpt lat="59.3495714593" lon="34.6904347498"><ele>178.744</ele><time>2026-08-13T20:26:20.228Z</time><hdop>3.0</hdop><vdop>8.0</vdop><extensions><gom:speed>1.097</gom:speed></extensions></trkpt>
   <trkpt lat="59.3495338664" lon="34.6902738173"><ele>180.778</ele><time>2026-08-13T20:26:27.906Z</time><hdop>3.0</hdop><vdop>7.875</vdop><extensions><gom:speed>1.173</gom:speed></extensions></trkpt>
   <trkpt lat="59.3494758637" lon="34.6901137229"><ele>182.021</ele><time>2026-08-13T20:26:36.748Z</time><hdop>3.0</hdop><vdop>7.687</vdop><extensions><gom:speed>1.195</gom:speed></extensions></trkpt>
   <trkpt lat="59.3494386899" lon="34.6899462525"><ele>180.489</ele><time>2026-08-13T20:26:45.445Z</time><hdop>3.0</hdop><vdop>8.25</vdop><extensions><gom:speed>1.17</gom:speed></extensions></trkpt>
   <trkpt lat="59.3494096885" lon="34.6897697296"><ele>179.021</ele><time>2026-08-13T20:26:53.108Z</time><hdop>3.0</hdop><vdop>7.687</vdop><extensions><gom:speed>1.262</gom:speed></extensions></trkpt>
   <trkpt lat="59.3493859677" lon="34.6895975653"><ele>178.562</ele><time>2026-08-13T20:27:13.066Z</time><hdop>3.0</hdop><vdop>7.25</vdop><extensions><gom:speed>1.175</gom:speed></extensions></trkpt>
   <trkpt lat="59.3493551642" lon="34.6894205395"><ele>176.353</ele><time>2026-08-13T20:27:21.686Z</time><hdop>3.0</hdop><vdop>7.5</vdop><extensions><gom:speed>1.275</gom:speed></extensions></trkpt>
   <trkpt lat="59.349341376" lon="34.6892283425"><ele>177.258</ele><time>2026-08-13T20:27:32.167Z</time><hdop>3.0</hdop><vdop>8.062</vdop><extensions><gom:speed>1.156</gom:speed></extensions></trkpt>
   <trkpt lat="59.3493212594" lon="34.6890519872"><ele>183.323</ele><time>2026-08-13T20:27:52.846Z</time><hdop>3.0</hdop><vdop>8.25</vdop><extensions><gom:speed>0.178</gom:speed></extensions></trkpt>
   <trkpt lat="59.3492843791" lon="34.6888824213"><ele>185.057</ele><time>2026-08-13T20:28:00.929Z</time><hdop>3.0</hdop><vdop>8.562</vdop><extensions><gom:speed>1.105</gom:speed></extensions></trkpt>
   <trkpt lat="59.349263089" lon="34.6887022942"><ele>188.349</ele><time>2026-08-13T20:28:08.225Z</time><hdop>3.0</hdop><vdop>9.062</vdop><extensions><gom:speed>1.104</gom:speed></extensions></trkpt>
   <trkpt lat="59.3492645978" lon="34.6885184791"><ele>184.435</ele><time>2026-08-13T20:29:00.527Z</time><hdop>3.0</hdop><vdop>8.75</vdop><extensions><gom:speed>0.74</gom:speed></extensions></trkpt>
   <trkpt lat="59.3492419666" lon="34.6883454766"><ele>188.304</ele><time>2026-08-13T20:29:08.506Z</time><hdop>3.0</hdop><vdop>9.0</vdop><extensions><gom:speed>0.944</gom:speed></extensions></trkpt>
   <trkpt lat="59.349219587" lon="34.6881663554"><ele>190.779</ele><time>2026-08-13T20:29:17.352Z</time><hdop>3.0</hdop><vdop>9.062</vdop><extensions><gom:speed>0.887</gom:speed></extensions></trkpt>
   <trkpt lat="59.3492448584" lon="34.6879920956"><ele>188.273</ele><time>2026-08-13T20:29:35.382Z</time><hdop>3.0</hdop><vdop>8.75</vdop><extensions><gom:speed>0.701</gom:speed></extensions></trkpt>
   <trkpt lat="59.3491594887" lon="34.687928896"><ele>183.004</ele><time>2026-08-13T20:30:24.396Z</time><hdop>3.0</hdop><vdop>8.562</vdop><extensions><gom:speed>0.294</gom:speed></extensions></trkpt>
   <trkpt lat="59.349067665" lon="34.6880045846"><ele>184.725</ele><time>2026-08-13T20:31:11.307Z</time><hdop>3.062</hdop><vdop>8.0</vdop><extensions><gom:speed>0.12</gom:speed></extensions></trkpt>
   <trkpt lat="59.3489841812" lon="34.688076669"><ele>185.384</ele><time>2026-08-13T20:31:20.406Z</time><hdop>3.0</hdop><vdop>8.187</vdop><extensions><gom:speed>0.457</gom:speed></extensions></trkpt>
   <trkpt lat="59.3488935728" lon="34.6880869787"><ele>187.199</ele><time>2026-08-13T20:31:42.247Z</time><hdop>3.0</hdop><vdop>9.25</vdop><extensions><gom:speed>0.303</gom:speed></extensions></trkpt>
   <trkpt lat="59.3488220752" lon="34.6882015594"><ele>186.217</ele><time>2026-08-13T20:32:16.626Z</time><hdop>3.0</hdop><vdop>9.187</vdop><extensions><gom:speed>0.436</gom:speed></extensions></trkpt>
   <trkpt lat="59.3487335623" lon="34.6882524375"><ele>189.311</ele><time>2026-08-13T20:32:40.867Z</time><hdop>3.0</hdop><vdop>8.25</vdop><extensions><gom:speed>0.657</gom:speed></extensions></trkpt>
   <trkpt lat="59.3486436664" lon="34.6883078419"><ele>189.013</ele><time>2026-08-13T20:32:56.406Z</time><hdop>3.0</hdop><vdop>8.687</vdop><extensions><gom:speed>0.449</gom:speed></extensions></trkpt>
   <trkpt lat="59.3485899803" lon="34.6884549443"><ele>188.813</ele><time>2026-08-13T20:33:27.424Z</time><hdop>3.0</hdop><vdop>9.0</vdop><extensions><gom:speed>0.584</gom:speed></extensions></trkpt>
   <trkpt lat="59.3485297982" lon="34.6885865402"><ele>191.487</ele><time>2026-08-13T20:33:54.333Z</time><hdop>3.0</hdop><vdop>8.187</vdop><extensions><gom:speed>0.07</gom:speed></extensions></trkpt>
   <trkpt lat="59.3484167683" lon="34.6885564491"><ele>189.712</ele><time>2026-08-13T20:35:14.332Z</time><hdop>2.875</hdop><vdop>8.0</vdop><extensions><gom:speed>0.071</gom:speed></extensions></trkpt>
   <trkpt lat="59.348348791" lon="34.6884310559"><ele>188.322</ele><time>2026-08-13T20:35:23.705Z</time><hdop>3.0</hdop><vdop>7.875</vdop><extensions><gom:speed>0.38</gom:speed></extensions></trkpt>
   <trkpt lat="59.3483208793" lon="34.6882579696"><ele>189.439</ele><time>2026-08-13T20:35:39.408Z</time><hdop>3.0</hdop><vdop>7.562</vdop><extensions><gom:speed>0.749</gom:speed></extensions></trkpt>
   <trkpt lat="59.3482938896" lon="34.6880778425"><ele>192.194</ele><time>2026-08-13T20:35:54.348Z</time><hdop>3.0</hdop><vdop>8.5</vdop><extensions><gom:speed>0.667</gom:speed></extensions></trkpt>
   <trkpt lat="59.3482556681" lon="34.6879120484"><ele>189.457</ele><time>2026-08-13T20:36:25.804Z</time><hdop>3.0</hdop><vdop>7.75</vdop><extensions><gom:speed>0.181</gom:speed></extensions></trkpt>
   <trkpt lat="59.3482896986" lon="34.6877415605"><ele>190.45</ele><time>2026-08-13T20:37:05.169Z</time><hdop>3.125</hdop><vdop>8.562</vdop><extensions><gom:speed>0.195</gom:speed></extensions></trkpt>
   <trkpt lat="59.3482634633" lon="34.6875663787"><ele>190.712</ele><time>2026-08-13T20:37:25.024Z</time><hdop>3.0</hdop><vdop>7.875</vdop><extensions><gom:speed>0.401</gom:speed></extensions></trkpt>
   <trkpt lat="59.3482278821" lon="34.6873891853"><ele>188.668</ele><time>2026-08-13T20:37:47.359Z</time><hdop>3.125</hdop><vdop>8.0</vdop><extensions><gom:speed>0.601</gom:speed></extensions></trkpt>
   <trkpt lat="59.348169586" lon="34.6872290909"><ele>194.035</ele><time>2026-08-13T20:38:22.380Z</time><hdop>3.562</hdop><vdop>7.875</vdop><extensions><gom:speed>0.338</gom:speed></extensions></trkpt>
   <trkpt lat="59.3482044966" lon="34.6870209683"><ele>188.705</ele><time>2026-08-13T20:40:09.411Z</time><hdop>3.75</hdop><vdop>9.062</vdop><extensions><gom:speed>0.624</gom:speed></extensions></trkpt>
   <trkpt lat="59.3482177819" lon="34.6868429367"><ele>190.578</ele><time>2026-08-13T20:40:22.363Z</time><hdop>3.0</hdop><vdop>9.875</vdop><extensions><gom:speed>0.375</gom:speed></extensions></trkpt>
   <trkpt lat="59.3482747788" lon="34.6866979297"><ele>191.997</ele><time>2026-08-13T20:40:48.370Z</time><hdop>3.0</hdop><vdop>8.5</vdop><extensions><gom:speed>0.198</gom:speed></extensions></trkpt>
   <trkpt lat="59.3483556642" lon="34.6865942456"><ele>192.152</ele><time>2026-08-13T20:41:12.168Z</time><hdop>3.0</hdop><vdop>9.687</vdop><extensions><gom:speed>0.117</gom:speed></extensions></trkpt>
   <trkpt lat="59.3484438837" lon="34.6865465526"><ele>190.269</ele><time>2026-08-13T20:41:23.390Z</time><hdop>3.0</hdop><vdop>8.187</vdop><extensions><gom:speed>0.387</gom:speed></extensions></trkpt>
   <trkpt lat="59.3485291696" lon="34.6864364982"><ele>189.154</ele><time>2026-08-13T20:42:01.333Z</time><hdop>3.0</hdop><vdop>10.062</vdop><extensions><gom:speed>0.309</gom:speed></extensions></trkpt>
   <trkpt lat="59.3485733841" lon="34.686248995"><ele>185.984</ele><time>2026-08-13T20:42:32.396Z</time><hdop>4.062</hdop><vdop>9.25</vdop><extensions><gom:speed>0.25</gom:speed></extensions></trkpt>
   <trkpt lat="59.3485671815" lon="34.6859608252"><ele>187.336</ele><time>2026-08-13T20:43:15.349Z</time><hdop>3.062</hdop><vdop>9.75</vdop><extensions><gom:speed>0.128</gom:speed></extensions></trkpt>
   <trkpt lat="59.3486294591" lon="34.6857976295"><ele>188.714</ele><time>2026-08-13T20:43:49.188Z</time><hdop>3.062</hdop><vdop>8.75</vdop><extensions><gom:speed>0.165</gom:speed></extensions></trkpt>
   <trkpt lat="59.3486760625" lon="34.6856313326"><ele>188.166</ele><time>2026-08-13T20:44:05.389Z</time><hdop>3.0</hdop><vdop>9.5</vdop><extensions><gom:speed>0.472</gom:speed></extensions></trkpt>
   <trkpt lat="59.3486778646" lon="34.6854506187"><ele>187.108</ele><time>2026-08-13T20:45:32.287Z</time><hdop>3.0</hdop><vdop>8.0</vdop><extensions><gom:speed>0.561</gom:speed></extensions></trkpt>
   <trkpt lat="59.3487277788" lon="34.6853028458"><ele>191.723</ele><time>2026-08-13T20:47:19.411Z</time><hdop>3.0</hdop><vdop>9.375</vdop><extensions><gom:speed>0.104</gom:speed></extensions></trkpt>
   <trkpt lat="59.3486553592" lon="34.6851602696"><ele>189.895</ele><time>2026-08-13T20:47:50.394Z</time><hdop>3.5</hdop><vdop>8.062</vdop><extensions><gom:speed>0.082</gom:speed></extensions></trkpt>
   <trkpt lat="59.3487426986" lon="34.6850894425"><ele>189.37</ele><time>2026-08-13T20:48:21.381Z</time><hdop>3.0</hdop><vdop>8.187</vdop><extensions><gom:speed>0.542</gom:speed></extensions></trkpt>
   <trkpt lat="59.3487177624" lon="34.6848156896"><ele>189.282</ele><time>2026-08-13T20:49:02.333Z</time><hdop>2.812</hdop><vdop>8.75</vdop><extensions><gom:speed>0.063</gom:speed></extensions></trkpt>
   <trkpt lat="59.3486670938" lon="34.684669593"><ele>193.251</ele><time>2026-08-13T20:49:29.783Z</time><hdop>3.0</hdop><vdop>9.0</vdop><extensions><gom:speed>0.336</gom:speed></extensions></trkpt>
   <trkpt lat="59.34859107" lon="34.6845628914"><ele>192.207</ele><time>2026-08-13T20:49:59.042Z</time><hdop>3.0</hdop><vdop>8.187</vdop><extensions><gom:speed>0.417</gom:speed></extensions></trkpt>
   <trkpt lat="59.3485649603" lon="34.68439123"><ele>186.496</ele><time>2026-08-13T20:50:23.342Z</time><hdop>3.0</hdop><vdop>8.0</vdop><extensions><gom:speed>0.539</gom:speed></extensions></trkpt>
   <trkpt lat="59.3486244718" lon="34.6845234964"><ele>189.274</ele><time>2026-08-13T20:52:06.340Z</time><hdop>3.0</hdop><vdop>8.75</vdop><extensions><gom:speed>0.376</gom:speed></extensions></trkpt>
   <trkpt lat="59.3485389764" lon="34.6845782302"><ele>188.935</ele><time>2026-08-13T20:52:26.220Z</time><hdop>3.0</hdop><vdop>8.687</vdop><extensions><gom:speed>0.472</gom:speed></extensions></trkpt>
   <trkpt lat="59.3484566661" lon="34.6846532483"><ele>191.059</ele><time>2026-08-13T20:53:25.920Z</time><hdop>3.0</hdop><vdop>8.187</vdop><extensions><gom:speed>0.222</gom:speed></extensions></trkpt>
   <trkpt lat="59.3483680694" lon="34.6846842613"><ele>188.855</ele><time>2026-08-13T20:53:40.117Z</time><hdop>3.0</hdop><vdop>8.062</vdop><extensions><gom:speed>0.606</gom:speed></extensions></trkpt>
   <trkpt lat="59.3484500863" lon="34.6847920526"><ele>184.138</ele><time>2026-08-13T20:54:15.042Z</time><hdop>3.0</hdop><vdop>8.062</vdop><extensions><gom:speed>0.685</gom:speed></extensions></trkpt>
   <trkpt lat="59.3485153814" lon="34.684925241"><ele>186.017</ele><time>2026-08-13T20:55:06.400Z</time><hdop>3.0</hdop><vdop>8.062</vdop><extensions><gom:speed>0.54</gom:speed></extensions></trkpt>
   <trkpt lat="59.3485663853" lon="34.6850811444"><ele>186.48</ele><time>2026-08-13T20:56:08.398Z</time><hdop>3.0</hdop><vdop>8.062</vdop><extensions><gom:speed>0.472</gom:speed></extensions></trkpt>
   <trkpt lat="59.3485035629" lon="34.6849481236"><ele>185.058</ele><time>2026-08-13T20:57:21.301Z</time><hdop>3.0</hdop><vdop>8.187</vdop><extensions><gom:speed>0.187</gom:speed></extensions></trkpt>
   <trkpt lat="59.3484169778" lon="34.6850319427"><ele>187.843</ele><time>2026-08-13T20:58:09.334Z</time><hdop>3.0</hdop><vdop>7.875</vdop><extensions><gom:speed>0.499</gom:speed></extensions></trkpt>
   <trkpt lat="59.3483961907" lon="34.685205029"><ele>184.429</ele><time>2026-08-13T20:58:44.348Z</time><hdop>3.0</hdop><vdop>9.0</vdop><extensions><gom:speed>0.151</gom:speed></extensions></trkpt>
   <trkpt lat="59.3483661835" lon="34.6853751816"><ele>182.742</ele><time>2026-08-13T21:00:26.962Z</time><hdop>3.0</hdop><vdop>7.75</vdop><extensions><gom:speed>0.596</gom:speed></extensions></trkpt>
   <trkpt lat="59.3483189934" lon="34.6852206193"><ele>190.881</ele><time>2026-08-13T21:01:38.951Z</time><hdop>3.0</hdop><vdop>8.062</vdop><extensions><gom:speed>0.5</gom:speed></extensions></trkpt>
   <trkpt lat="59.3482830769" lon="34.685057256"><ele>187.619</ele><time>2026-08-13T21:01:53.090Z</time><hdop>3.0</hdop><vdop>7.687</vdop><extensions><gom:speed>0.673</gom:speed></extensions></trkpt>
   <trkpt lat="59.3482280916" lon="34.6849089801"><ele>184.832</ele><time>2026-08-13T21:02:08.380Z</time><hdop>3.0</hdop><vdop>8.562</vdop><extensions><gom:speed>0.639</gom:speed></extensions></trkpt>
   <trkpt lat="59.3483167722" lon="34.6849445194"><ele>184.438</ele><time>2026-08-13T21:02:53.352Z</time><hdop>3.0</hdop><vdop>9.062</vdop><extensions><gom:speed>0.534</gom:speed></extensions></trkpt>
   <trkpt lat="59.3483865934" lon="34.6850593515"><ele>185.863</ele><time>2026-08-13T21:03:17.392Z</time><hdop>3.0</hdop><vdop>8.0</vdop><extensions><gom:speed>0.553</gom:speed></extensions></trkpt>
   <trkpt lat="59.3484200791" lon="34.6848867681"><ele>187.253</ele><time>2026-08-13T21:04:02.950Z</time><hdop>3.0</hdop><vdop>8.5</vdop><extensions><gom:speed>0.483</gom:speed></extensions></trkpt>
   <trkpt lat="59.3483781696" lon="34.6847219799"><ele>187.954</ele><time>2026-08-13T21:04:33.349Z</time><hdop>3.0</hdop><vdop>8.875</vdop><extensions><gom:speed>0.705</gom:speed></extensions></trkpt>
   <trkpt lat="59.3484120744" lon="34.6845586166"><ele>187.94</ele><time>2026-08-13T21:04:53.349Z</time><hdop>3.0</hdop><vdop>9.5</vdop><extensions><gom:speed>0.371</gom:speed></extensions></trkpt>
   <trkpt lat="59.3484623658" lon="34.6843869552"><ele>188.48</ele><time>2026-08-13T21:05:12.335Z</time><hdop>3.0</hdop><vdop>8.187</vdop><extensions><gom:speed>0.548</gom:speed></extensions></trkpt>
   <trkpt lat="59.348516471" lon="34.6842393499"><ele>188.404</ele><time>2026-08-13T21:05:28.012Z</time><hdop>3.0</hdop><vdop>8.75</vdop><extensions><gom:speed>0.801</gom:speed></extensions></trkpt>
   <trkpt lat="59.3485332767" lon="34.6840607315"><ele>186.807</ele><time>2026-08-13T21:05:45.369Z</time><hdop>3.0</hdop><vdop>8.687</vdop><extensions><gom:speed>0.575</gom:speed></extensions></trkpt>
   <trkpt lat="59.3485662595" lon="34.6838939317"><ele>188.05</ele><time>2026-08-13T21:08:15.335Z</time><hdop>3.0</hdop><vdop>9.0</vdop><extensions><gom:speed>0.528</gom:speed></extensions></trkpt>
   <trkpt lat="59.3485328995" lon="34.6837247849"><ele>186.958</ele><time>2026-08-13T21:08:51.923Z</time><hdop>3.0</hdop><vdop>10.187</vdop><extensions><gom:speed>0.632</gom:speed></extensions></trkpt>
   <trkpt lat="59.3485961829" lon="34.6835858967"><ele>188.282</ele><time>2026-08-13T21:09:03.862Z</time><hdop>3.0</hdop><vdop>9.25</vdop><extensions><gom:speed>0.489</gom:speed></extensions></trkpt>
   <trkpt lat="59.3486160899" lon="34.6834135648"><ele>191.295</ele><time>2026-08-13T21:09:25.054Z</time><hdop>3.0</hdop><vdop>10.5</vdop><extensions><gom:speed>0.781</gom:speed></extensions></trkpt>
   <trkpt lat="59.3485460591" lon="34.6832446695"><ele>186.179</ele><time>2026-08-13T21:09:54.380Z</time><hdop>3.187</hdop><vdop>15.875</vdop><extensions><gom:speed>0.241</gom:speed></extensions></trkpt>
   <trkpt lat="59.3486485698" lon="34.6830275782"><ele>188.209</ele><time>2026-08-13T21:10:47.335Z</time><hdop>3.0</hdop><vdop>12.562</vdop><extensions><gom:speed>0.204</gom:speed></extensions></trkpt>
   <trkpt lat="59.3486600949" lon="34.682849798"><ele>187.495</ele><time>2026-08-13T21:11:00.390Z</time><hdop>3.0</hdop><vdop>7.875</vdop><extensions><gom:speed>0.598</gom:speed></extensions></trkpt>
   <trkpt lat="59.3486903955" lon="34.6826675754"><ele>187.573</ele><time>2026-08-13T21:11:23.914Z</time><hdop>3.0</hdop><vdop>8.687</vdop><extensions><gom:speed>0.412</gom:speed></extensions></trkpt>
   <trkpt lat="59.3487227916" lon="34.682501027"><ele>185.905</ele><time>2026-08-13T21:11:41.634Z</time><hdop>3.0</hdop><vdop>8.687</vdop><extensions><gom:speed>0.473</gom:speed></extensions></trkpt>
   <trkpt lat="59.3486990708" lon="34.6823296171"><ele>187.615</ele><time>2026-08-13T21:11:54.983Z</time><hdop>3.0</hdop><vdop>8.062</vdop><extensions><gom:speed>0.701</gom:speed></extensions></trkpt>
   <trkpt lat="59.3487453808" lon="34.6821654994"><ele>189.832</ele><time>2026-08-13T21:12:12.199Z</time><hdop>3.0</hdop><vdop>9.0</vdop><extensions><gom:speed>0.609</gom:speed></extensions></trkpt>
   <trkpt lat="59.3487815906" lon="34.6819954306"><ele>185.825</ele><time>2026-08-13T21:12:37.384Z</time><hdop>3.0</hdop><vdop>7.75</vdop><extensions><gom:speed>0.518</gom:speed></extensions></trkpt>
   <trkpt lat="59.3487945826" lon="34.6818056643"><ele>185.901</ele><time>2026-08-13T21:13:00.581Z</time><hdop>3.0</hdop><vdop>7.5</vdop><extensions><gom:speed>0.674</gom:speed></extensions></trkpt>
   <trkpt lat="59.3488331812" lon="34.6816369366"><ele>182.742</ele><time>2026-08-13T21:13:31.142Z</time><hdop>3.0</hdop><vdop>8.562</vdop><extensions><gom:speed>0.507</gom:speed></extensions></trkpt>
   <trkpt lat="59.3488630627" lon="34.6814664487"><ele>183.854</ele><time>2026-08-13T21:16:14.314Z</time><hdop>3.0</hdop><vdop>9.687</vdop><extensions><gom:speed>0.292</gom:speed></extensions></trkpt>
   <trkpt lat="59.3488502803" lon="34.6812858187"><ele>183.055</ele><time>2026-08-13T21:16:24.369Z</time><hdop>3.0</hdop><vdop>9.187</vdop><extensions><gom:speed>0.528</gom:speed></extensions></trkpt>
   <trkpt lat="59.3489120968" lon="34.6811560668"><ele>181.583</ele><time>2026-08-13T21:16:49.400Z</time><hdop>3.0</hdop><vdop>8.0</vdop><extensions><gom:speed>0.311</gom:speed></extensions></trkpt>
   <trkpt lat="59.3489369911" lon="34.6809782867"><ele>182.925</ele><time>2026-08-13T21:17:23.211Z</time><hdop>3.0</hdop><vdop>8.187</vdop><extensions><gom:speed>0.481</gom:speed></extensions></trkpt>
   <trkpt lat="59.3490040882" lon="34.6808546536"><ele>183.566</ele><time>2026-08-13T21:18:18.415Z</time><hdop>3.0</hdop><vdop>9.687</vdop><extensions><gom:speed>0.434</gom:speed></extensions></trkpt>
   <trkpt lat="59.3490229894" lon="34.6806794718"><ele>183.272</ele><time>2026-08-13T21:18:36.343Z</time><hdop>3.0</hdop><vdop>7.75</vdop><extensions><gom:speed>0.444</gom:speed></extensions></trkpt>
   <trkpt lat="59.3490261745" lon="34.6805030327"><ele>184.375</ele><time>2026-08-13T21:19:59.092Z</time><hdop>3.0</hdop><vdop>6.875</vdop><extensions><gom:speed>0.037</gom:speed></extensions></trkpt>
   <trkpt lat="59.3490392922" lon="34.6803217322"><ele>184.402</ele><time>2026-08-13T21:21:49.334Z</time><hdop>3.0</hdop><vdop>8.0</vdop><extensions><gom:speed>0.743</gom:speed></extensions></trkpt>
   <trkpt lat="59.3490575648" lon="34.6801434491"><ele>188.282</ele><time>2026-08-13T21:22:16.350Z</time><hdop>3.0</hdop><vdop>7.0</vdop><extensions><gom:speed>0.775</gom:speed></extensions></trkpt>
   <trkpt lat="59.349102869" lon="34.6799892221"><ele>186.081</ele><time>2026-08-13T21:22:35.254Z</time><hdop>3.0</hdop><vdop>8.375</vdop><extensions><gom:speed>0.766</gom:speed></extensions></trkpt>
   <trkpt lat="59.3491006897" lon="34.6798105199"><ele>186.556</ele><time>2026-08-13T21:22:49.408Z</time><hdop>3.0</hdop><vdop>7.187</vdop><extensions><gom:speed>0.352</gom:speed></extensions></trkpt>
   <trkpt lat="59.3491107899" lon="34.679632153"><ele>186.866</ele><time>2026-08-13T21:23:42.365Z</time><hdop>3.0</hdop><vdop>7.562</vdop><extensions><gom:speed>0.666</gom:speed></extensions></trkpt>
   <trkpt lat="59.3491026594" lon="34.679452445"><ele>186.482</ele><time>2026-08-13T21:23:56.353Z</time><hdop>3.0</hdop><vdop>7.062</vdop><extensions><gom:speed>0.466</gom:speed></extensions></trkpt>
   <trkpt lat="59.349081076" lon="34.6792808674"><ele>185.781</ele><time>2026-08-13T21:24:19.360Z</time><hdop>3.0</hdop><vdop>7.687</vdop><extensions><gom:speed>0.148</gom:speed></extensions></trkpt>
   <trkpt lat="59.3490476741" lon="34.679102752"><ele>187.744</ele><time>2026-08-13T21:25:01.335Z</time><hdop>3.0</hdop><vdop>7.5</vdop><extensions><gom:speed>0.095</gom:speed></extensions></trkpt>
   <trkpt lat="59.3489822953" lon="34.6789622713"><ele>185.951</ele><time>2026-08-13T21:25:49.412Z</time><hdop>3.0</hdop><vdop>8.0</vdop><extensions><gom:speed>0.104</gom:speed></extensions></trkpt>
   <trkpt lat="59.3489249631" lon="34.6788032666"><ele>187.107</ele><time>2026-08-13T21:26:37.335Z</time><hdop>2.062</hdop><vdop>10.0</vdop><extensions><gom:speed>1.061</gom:speed></extensions></trkpt>
   <trkpt lat="59.3489899647" lon="34.6789732516"><ele>173.142</ele><time>2026-08-13T21:27:33.337Z</time><hdop>1.625</hdop><vdop>8.562</vdop><extensions><gom:speed>0.0</gom:speed></extensions></trkpt>
   <trkpt lat="59.3490340954" lon="34.6788085472"><ele>178.752</ele><time>2026-08-13T21:28:32.214Z</time><hdop>2.25</hdop><vdop>9.562</vdop><extensions><gom:speed>0.651</gom:speed></extensions></trkpt>
   <trkpt lat="59.3491226922" lon="34.678760938"><ele>180.341</ele><time>2026-08-13T21:28:53.359Z</time><hdop>3.0</hdop><vdop>7.562</vdop><extensions><gom:speed>0.556</gom:speed></extensions></trkpt>
   <trkpt lat="59.3492009791" lon="34.6786608581"><ele>185.152</ele><time>2026-08-13T21:29:32.336Z</time><hdop>3.0</hdop><vdop>7.562</vdop><extensions><gom:speed>0.581</gom:speed></extensions></trkpt>
   <trkpt lat="59.3492483788" lon="34.6785093971"><ele>185.799</ele><time>2026-08-13T21:31:34.397Z</time><hdop>3.0</hdop><vdop>8.562</vdop><extensions><gom:speed>0.093</gom:speed></extensions></trkpt>
   <trkpt lat="59.3492318665" lon="34.6782526594"><ele>188.757</ele><time>2026-08-13T21:32:40.406Z</time><hdop>3.062</hdop><vdop>9.187</vdop><extensions><gom:speed>0.088</gom:speed></extensions></trkpt>
   <trkpt lat="59.3492619994" lon="34.6780780643"><ele>189.053</ele><time>2026-08-13T21:32:54.396Z</time><hdop>3.0</hdop><vdop>9.187</vdop><extensions><gom:speed>0.609</gom:speed></extensions></trkpt>
   <trkpt lat="59.3492799786" lon="34.6779006194"><ele>188.917</ele><time>2026-08-13T21:33:06.916Z</time><hdop>3.0</hdop><vdop>7.75</vdop><extensions><gom:speed>0.682</gom:speed></extensions></trkpt>
   <trkpt lat="59.3492648912" lon="34.6777225878"><ele>186.966</ele><time>2026-08-13T21:33:24.593Z</time><hdop>3.0</hdop><vdop>8.75</vdop><extensions><gom:speed>0.494</gom:speed></extensions></trkpt>
   <trkpt lat="59.3492423857" lon="34.6775457297"><ele>185.578</ele><time>2026-08-13T21:33:37.753Z</time><hdop>3.0</hdop><vdop>8.062</vdop><extensions><gom:speed>0.547</gom:speed></extensions></trkpt>
   <trkpt lat="59.3492296872" lon="34.6773643453"><ele>186.774</ele><time>2026-08-13T21:33:50.414Z</time><hdop>3.0</hdop><vdop>7.75</vdop><extensions><gom:speed>0.724</gom:speed></extensions></trkpt>
   <trkpt lat="59.3492034937" lon="34.6771521993"><ele>189.255</ele><time>2026-08-13T21:34:27.345Z</time><hdop>3.062</hdop><vdop>8.375</vdop><extensions><gom:speed>0.357</gom:speed></extensions></trkpt>
   <trkpt lat="59.3492363927" lon="34.6769836392"><ele>187.147</ele><time>2026-08-13T21:34:44.853Z</time><hdop>3.0</hdop><vdop>7.875</vdop><extensions><gom:speed>0.526</gom:speed></extensions></trkpt>
   <trkpt lat="59.3492534918" lon="34.6768099662"><ele>188.995</ele><time>2026-08-13T21:35:01.833Z</time><hdop>3.0</hdop><vdop>7.5</vdop><extensions><gom:speed>0.538</gom:speed></extensions></trkpt>
   <trkpt lat="59.3492069722" lon="34.6766024303"><ele>190.625</ele><time>2026-08-13T21:35:50.130Z</time><hdop>3.0</hdop><vdop>8.687</vdop><extensions><gom:speed>0.496</gom:speed></extensions></trkpt>
   <trkpt lat="59.3492159827" lon="34.676324654"><ele>192.026</ele><time>2026-08-13T21:36:41.336Z</time><hdop>2.875</hdop><vdop>9.562</vdop><extensions><gom:speed>0.206</gom:speed></extensions></trkpt>
   <trkpt lat="59.3492335847" lon="34.6761401683"><ele>191.883</ele><time>2026-08-13T21:36:51.381Z</time><hdop>3.0</hdop><vdop>9.062</vdop><extensions><gom:speed>0.525</gom:speed></extensions></trkpt>
   <trkpt lat="59.3492122947" lon="34.6759612985"><ele>189.219</ele><time>2026-08-13T21:37:03.791Z</time><hdop>3.0</hdop><vdop>8.25</vdop><extensions><gom:speed>0.657</gom:speed></extensions></trkpt>
   <trkpt lat="59.3491994704" lon="34.6757506613"><ele>191.17</ele><time>2026-08-13T21:37:51.377Z</time><hdop>3.0</hdop><vdop>9.062</vdop><extensions><gom:speed>0.187</gom:speed></extensions></trkpt>
   <trkpt lat="59.3492539947" lon="34.6756079175"><ele>190.355</ele><time>2026-08-13T21:38:25.365Z</time><hdop>3.0</hdop><vdop>8.75</vdop><extensions><gom:speed>0.311</gom:speed></extensions></trkpt>
   <trkpt lat="59.3493052919" lon="34.6754532714"><ele>192.856</ele><time>2026-08-13T21:39:27.336Z</time><hdop>3.0</hdop><vdop>9.25</vdop><extensions><gom:speed>0.45</gom:speed></extensions></trkpt>
   <trkpt lat="59.3493581817" lon="34.6753083483"><ele>190.847</ele><time>2026-08-13T21:39:44.705Z</time><hdop>3.0</hdop><vdop>8.0</vdop><extensions><gom:speed>0.364</gom:speed></extensions></trkpt>
   <trkpt lat="59.3493959841" lon="34.6751474995"><ele>188.886</ele><time>2026-08-13T21:40:18.025Z</time><hdop>3.0</hdop><vdop>9.375</vdop><extensions><gom:speed>0.637</gom:speed></extensions></trkpt>
   <trkpt lat="59.3494454793" lon="34.674995368"><ele>187.111</ele><time>2026-08-13T21:41:51.365Z</time><hdop>3.0</hdop><vdop>8.25</vdop><extensions><gom:speed>0.702</gom:speed></extensions></trkpt>
   <trkpt lat="59.3494401987" lon="34.674806859"><ele>189.351</ele><time>2026-08-13T21:42:19.344Z</time><hdop>3.0</hdop><vdop>7.562</vdop><extensions><gom:speed>0.2</gom:speed></extensions></trkpt>
   <trkpt lat="59.3495028953" lon="34.6746806275"><ele>190.035</ele><time>2026-08-13T21:42:40.785Z</time><hdop>3.0</hdop><vdop>8.187</vdop><extensions><gom:speed>0.57</gom:speed></extensions></trkpt>
   <trkpt lat="59.349570663" lon="34.6745546475"><ele>187.88</ele><time>2026-08-13T21:42:51.924Z</time><hdop>3.0</hdop><vdop>8.25</vdop><extensions><gom:speed>0.693</gom:speed></extensions></trkpt>
   <trkpt lat="59.3496405681" lon="34.674443252"><ele>185.201</ele><time>2026-08-13T21:43:04.421Z</time><hdop>3.0</hdop><vdop>8.062</vdop><extensions><gom:speed>0.642</gom:speed></extensions></trkpt>
   <trkpt lat="59.3497134906" lon="34.674338143"><ele>185.112</ele><time>2026-08-13T21:43:24.048Z</time><hdop>3.0</hdop><vdop>8.187</vdop><extensions><gom:speed>0.491</gom:speed></extensions></trkpt>
   <trkpt lat="59.3497171786" lon="34.674157932"><ele>187.95</ele><time>2026-08-13T21:43:56.327Z</time><hdop>3.0</hdop><vdop>9.062</vdop><extensions><gom:speed>0.426</gom:speed></extensions></trkpt>
   <trkpt lat="59.3497329785" lon="34.6739783917"><ele>188.244</ele><time>2026-08-13T21:44:19.228Z</time><hdop>3.0</hdop><vdop>7.187</vdop><extensions><gom:speed>0.433</gom:speed></extensions></trkpt>
   <trkpt lat="59.3497574956" lon="34.6737986837"><ele>185.449</ele><time>2026-08-13T21:44:46.388Z</time><hdop>3.0</hdop><vdop>8.562</vdop><extensions><gom:speed>0.843</gom:speed></extensions></trkpt>
   <trkpt lat="59.3497020912" lon="34.6736585383"><ele>187.735</ele><time>2026-08-13T21:45:10.927Z</time><hdop>3.0</hdop><vdop>7.687</vdop><extensions><gom:speed>0.762</gom:speed></extensions></trkpt>
   <trkpt lat="59.3496816813" lon="34.6734856196"><ele>184.382</ele><time>2026-08-13T21:45:37.372Z</time><hdop>3.0</hdop><vdop>9.5</vdop><extensions><gom:speed>0.045</gom:speed></extensions></trkpt>
   <trkpt lat="59.3496561584" lon="34.6733059954"><ele>185.154</ele><time>2026-08-13T21:45:59.340Z</time><hdop>3.0</hdop><vdop>9.562</vdop><extensions><gom:speed>0.459</gom:speed></extensions></trkpt>
   <trkpt lat="59.3497076652" lon="34.6731493376"><ele>191.46</ele><time>2026-08-13T21:46:42.345Z</time><hdop>3.0</hdop><vdop>7.687</vdop><extensions><gom:speed>0.277</gom:speed></extensions></trkpt>
   <trkpt lat="59.3497825994" lon="34.6730441447"><ele>191.726</ele><time>2026-08-13T21:46:56.337Z</time><hdop>3.0</hdop><vdop>9.062</vdop><extensions><gom:speed>0.142</gom:speed></extensions></trkpt>
   <trkpt lat="59.3497735889" lon="34.6728606649"><ele>191.824</ele><time>2026-08-13T21:47:13.048Z</time><hdop>3.0</hdop><vdop>8.687</vdop><extensions><gom:speed>0.162</gom:speed></extensions></trkpt>
   <trkpt lat="59.3497595911" lon="34.672680454"><ele>191.448</ele><time>2026-08-13T21:47:25.351Z</time><hdop>3.0</hdop><vdop>8.375</vdop><extensions><gom:speed>0.579</gom:speed></extensions></trkpt>
   <trkpt lat="59.3498154984" lon="34.6725261431"><ele>191.463</ele><time>2026-08-13T21:48:07.337Z</time><hdop>3.0</hdop><vdop>9.5</vdop><extensions><gom:speed>0.366</gom:speed></extensions></trkpt>
   <trkpt lat="59.3498829727" lon="34.6724038512"><ele>189.863</ele><time>2026-08-13T21:50:04.337Z</time><hdop>3.0</hdop><vdop>7.687</vdop><extensions><gom:speed>0.469</gom:speed></extensions></trkpt>
   <trkpt lat="59.3499488964" lon="34.6722608559"><ele>190.437</ele><time>2026-08-13T21:50:21.336Z</time><hdop>3.0</hdop><vdop>8.0</vdop><extensions><gom:speed>0.447</gom:speed></extensions></trkpt>
   <trkpt lat="59.3500211903" lon="34.6721478678"><ele>193.535</ele><time>2026-08-13T21:50:39.358Z</time><hdop>3.0</hdop><vdop>8.562</vdop><extensions><gom:speed>0.141</gom:speed></extensions></trkpt>
   <trkpt lat="59.3500888741" lon="34.6720247377"><ele>196.117</ele><time>2026-08-13T21:51:06.406Z</time><hdop>3.0</hdop><vdop>8.5</vdop><extensions><gom:speed>0.787</gom:speed></extensions></trkpt>
   <trkpt lat="59.350105596" lon="34.6718446944"><ele>191.827</ele><time>2026-08-13T21:51:52.421Z</time><hdop>3.0</hdop><vdop>9.687</vdop><extensions><gom:speed>0.087</gom:speed></extensions></trkpt>
   <trkpt lat="59.3501232819" lon="34.671669345"><ele>191.845</ele><time>2026-08-13T21:52:09.958Z</time><hdop>3.0</hdop><vdop>9.0</vdop><extensions><gom:speed>0.229</gom:speed></extensions></trkpt>
   <trkpt lat="59.3501317895" lon="34.6714926545"><ele>194.988</ele><time>2026-08-13T21:52:50.353Z</time><hdop>3.0</hdop><vdop>7.75</vdop><extensions><gom:speed>0.253</gom:speed></extensions></trkpt>
   <trkpt lat="59.3500990582" lon="34.6713173889"><ele>192.325</ele><time>2026-08-13T21:53:10.354Z</time><hdop>3.0</hdop><vdop>7.687</vdop><extensions><gom:speed>0.493</gom:speed></extensions></trkpt>
   <trkpt lat="59.3500257584" lon="34.6711984497"><ele>194.681</ele><time>2026-08-13T21:53:41.195Z</time><hdop>3.0</hdop><vdop>8.75</vdop><extensions><gom:speed>0.673</gom:speed></extensions></trkpt>
   <trkpt lat="59.3500917659" lon="34.6710703742"><ele>192.91</ele><time>2026-08-13T21:53:56.956Z</time><hdop>3.0</hdop><vdop>8.5</vdop><extensions><gom:speed>0.591</gom:speed></extensions></trkpt>
   <trkpt lat="59.3500804922" lon="34.6708869781"><ele>189.951</ele><time>2026-08-13T21:54:30.996Z</time><hdop>3.0</hdop><vdop>7.687</vdop><extensions><gom:speed>0.472</gom:speed></extensions></trkpt>
   <trkpt lat="59.3500146943" lon="34.6707510237"><ele>189.243</ele><time>2026-08-13T21:54:44.939Z</time><hdop>3.0</hdop><vdop>7.25</vdop><extensions><gom:speed>0.707</gom:speed></extensions></trkpt>
   <trkpt lat="59.349931462" lon="34.6706566434"><ele>187.062</ele><time>2026-08-13T21:54:57.776Z</time><hdop>3.0</hdop><vdop>7.062</vdop><extensions><gom:speed>0.54</gom:speed></extensions></trkpt>
   <trkpt lat="59.3498606768" lon="34.6705442421"><ele>181.876</ele><time>2026-08-13T21:55:15.128Z</time><hdop>3.0</hdop><vdop>8.375</vdop><extensions><gom:speed>0.207</gom:speed></extensions></trkpt>
   <trkpt lat="59.3497727926" lon="34.6704958785"><ele>182.504</ele><time>2026-08-13T21:55:44.259Z</time><hdop>3.0</hdop><vdop>7.562</vdop><extensions><gom:speed>0.543</gom:speed></extensions></trkpt>
   <trkpt lat="59.3497139935" lon="34.6703468483"><ele>186.972</ele><time>2026-08-13T21:56:08.278Z</time><hdop>3.0</hdop><vdop>8.0</vdop><extensions><gom:speed>0.591</gom:speed></extensions></trkpt>
   <trkpt lat="59.3496223793" lon="34.6703005802"><ele>189.044</ele><time>2026-08-13T21:56:29.296Z</time><hdop>3.0</hdop><vdop>8.687</vdop><extensions><gom:speed>0.085</gom:speed></extensions></trkpt>
   <trkpt lat="59.3496204934" lon="34.6701161783"><ele>189.11</ele><time>2026-08-13T21:57:19.382Z</time><hdop>3.0</hdop><vdop>8.687</vdop><extensions><gom:speed>0.644</gom:speed></extensions></trkpt>
   <trkpt lat="59.349532693" lon="34.6700788789"><ele>188.976</ele><time>2026-08-13T21:58:05.393Z</time><hdop>3.0</hdop><vdop>9.062</vdop><extensions><gom:speed>0.086</gom:speed></extensions></trkpt>
   <trkpt lat="59.3494420846" lon="34.6700951398"><ele>182.657</ele><time>2026-08-13T21:58:59.384Z</time><hdop>3.0</hdop><vdop>10.187</vdop><extensions><gom:speed>0.605</gom:speed></extensions></trkpt>
   <trkpt lat="59.3493662703" lon="34.6701980695"><ele>182.556</ele><time>2026-08-13T21:59:21.354Z</time><hdop>3.0</hdop><vdop>8.0</vdop><extensions><gom:speed>0.294</gom:speed></extensions></trkpt>
   <trkpt lat="59.3492868936" lon="34.6702831458"><ele>192.356</ele><time>2026-08-13T22:00:36.382Z</time><hdop>3.0</hdop><vdop>8.562</vdop><extensions><gom:speed>0.112</gom:speed></extensions></trkpt>
   <trkpt lat="59.3492219758" lon="34.6704068627"><ele>191.204</ele><time>2026-08-13T22:01:09.097Z</time><hdop>3.0</hdop><vdop>8.5</vdop><extensions><gom:speed>0.511</gom:speed></extensions></trkpt>
   <trkpt lat="59.3491318703" lon="34.6704204414"><ele>193.414</ele><time>2026-08-13T22:01:30.375Z</time><hdop>3.0</hdop><vdop>8.75</vdop><extensions><gom:speed>0.274</gom:speed></extensions></trkpt>
   <trkpt lat="59.3490399628" lon="34.6704573218"><ele>196.732</ele><time>2026-08-13T22:02:25.405Z</time><hdop>3.0</hdop><vdop>9.187</vdop><extensions><gom:speed>0.261</gom:speed></extensions></trkpt>
   <trkpt lat="59.3489644837" lon="34.6705636881"><ele>196.151</ele><time>2026-08-13T22:02:43.336Z</time><hdop>3.0</hdop><vdop>8.562</vdop><extensions><gom:speed>0.137</gom:speed></extensions></trkpt>
   <trkpt lat="59.3489481809" lon="34.6707600761"><ele>191.643</ele><time>2026-08-13T22:03:37.336Z</time><hdop>3.5</hdop><vdop>9.0</vdop><extensions><gom:speed>0.674</gom:speed></extensions></trkpt>
   <trkpt lat="59.3489899647" lon="34.6709284686"><ele>189.865</ele><time>2026-08-13T22:03:59.897Z</time><hdop>3.0</hdop><vdop>9.25</vdop><extensions><gom:speed>0.338</gom:speed></extensions></trkpt>
   <trkpt lat="59.349025965" lon="34.6711345796"><ele>186.51</ele><time>2026-08-13T22:04:54.336Z</time><hdop>4.062</hdop><vdop>9.187</vdop><extensions><gom:speed>0.025</gom:speed></extensions></trkpt>
   <trkpt lat="59.3490408848" lon="34.671309929"><ele>192.721</ele><time>2026-08-13T22:06:43.236Z</time><hdop>3.0</hdop><vdop>9.687</vdop><extensions><gom:speed>0.529</gom:speed></extensions></trkpt>
   <trkpt lat="59.3490285634" lon="34.6714858651"><ele>191.923</ele><time>2026-08-13T22:07:00.416Z</time><hdop>3.0</hdop><vdop>9.375</vdop><extensions><gom:speed>0.628</gom:speed></extensions></trkpt>
   <trkpt lat="59.3489877854" lon="34.6716452889"><ele>188.108</ele><time>2026-08-13T22:07:19.216Z</time><hdop>3.0</hdop><vdop>9.687</vdop><extensions><gom:speed>0.42</gom:speed></extensions></trkpt>
   <trkpt lat="59.3489593708" lon="34.6718200516"><ele>186.266</ele><time>2026-08-13T22:07:32.157Z</time><hdop>3.0</hdop><vdop>10.375</vdop><extensions><gom:speed>0.639</gom:speed></extensions></trkpt>
   <trkpt lat="59.3489670821" lon="34.6719956525"><ele>186.909</ele><time>2026-08-13T22:07:45.695Z</time><hdop>3.0</hdop><vdop>9.687</vdop><extensions><gom:speed>0.556</gom:speed></extensions></trkpt>
   <trkpt lat="59.3489707702" lon="34.6721758634"><ele>186.188</ele><time>2026-08-13T22:08:00.317Z</time><hdop>3.0</hdop><vdop>9.375</vdop><extensions><gom:speed>0.545</gom:speed></extensions></trkpt>
   <trkpt lat="59.3489610891" lon="34.6723553199"><ele>186.4</ele><time>2026-08-13T22:08:36.425Z</time><hdop>3.0</hdop><vdop>9.0</vdop><extensions><gom:speed>0.377</gom:speed></extensions></trkpt>
   <trkpt lat="59.3489580716" lon="34.6725360338"><ele>186.357</ele><time>2026-08-13T22:08:52.385Z</time><hdop>3.0</hdop><vdop>10.687</vdop><extensions><gom:speed>0.495</gom:speed></extensions></trkpt>
   <trkpt lat="59.348901368" lon="34.6726840582"><ele>186.576</ele><time>2026-08-13T22:09:10.418Z</time><hdop>3.0</hdop><vdop>10.187</vdop><extensions><gom:speed>0.601</gom:speed></extensions></trkpt>
   <trkpt lat="59.3488878731" lon="34.6728641853"><ele>186.785</ele><time>2026-08-13T22:09:26.015Z</time><hdop>3.0</hdop><vdop>10.875</vdop><extensions><gom:speed>0.537</gom:speed></extensions></trkpt>
   <trkpt lat="59.3488492745" lon="34.6730368525"><ele>188.039</ele><time>2026-08-13T22:09:40.157Z</time><hdop>3.0</hdop><vdop>11.375</vdop><extensions><gom:speed>0.706</gom:speed></extensions></trkpt>
   <trkpt lat="59.3488315887" lon="34.6732115314"><ele>192.61</ele><time>2026-08-13T22:09:54.360Z</time><hdop>3.0</hdop><vdop>10.062</vdop><extensions><gom:speed>0.662</gom:speed></extensions></trkpt>
   <trkpt lat="59.3487894696" lon="34.6733673509"><ele>195.156</ele><time>2026-08-13T22:10:04.115Z</time><hdop>3.0</hdop><vdop>10.187</vdop><extensions><gom:speed>0.588</gom:speed></extensions></trkpt>
   <trkpt lat="59.3487866617" lon="34.6735727914"><ele>187.288</ele><time>2026-08-13T22:10:55.336Z</time><hdop>3.0</hdop><vdop>19.75</vdop><extensions><gom:speed>0.065</gom:speed></extensions></trkpt>
   <trkpt lat="59.348693874" lon="34.6737560198"><ele>193.593</ele><time>2026-08-13T22:11:46.388Z</time><hdop>3.062</hdop><vdop>12.687</vdop><extensions><gom:speed>0.237</gom:speed></extensions></trkpt>
   <trkpt lat="59.3486080852" lon="34.673843443"><ele>193.911</ele><time>2026-08-13T22:12:07.336Z</time><hdop>4.812</hdop><vdop>10.0</vdop><extensions><gom:speed>0.869</gom:speed></extensions></trkpt>
   <trkpt lat="59.348564667" lon="34.674022229"><ele>191.8</ele><time>2026-08-13T22:12:30.574Z</time><hdop>3.0</hdop><vdop>10.875</vdop><extensions><gom:speed>0.305</gom:speed></extensions></trkpt>
   <trkpt lat="59.3485576681" lon="34.6742018532"><ele>191.232</ele><time>2026-08-13T22:12:45.196Z</time><hdop>3.0</hdop><vdop>11.562</vdop><extensions><gom:speed>0.266</gom:speed></extensions></trkpt>
   <trkpt lat="59.3485406947" lon="34.6743844949"><ele>191.371</ele><time>2026-08-13T22:13:08.337Z</time><hdop>3.0</hdop><vdop>12.0</vdop><extensions><gom:speed>0.25</gom:speed></extensions></trkpt>
   <trkpt lat="59.3485130763" lon="34.6745835651"><ele>188.023</ele><time>2026-08-13T22:13:38.218Z</time><hdop>3.0</hdop><vdop>11.5</vdop><extensions><gom:speed>0.259</gom:speed></extensions></trkpt>
   <trkpt lat="59.3484240605" lon="34.6746474352"><ele>185.698</ele><time>2026-08-13T22:13:48.397Z</time><hdop>3.0</hdop><vdop>12.25</vdop><extensions><gom:speed>0.577</gom:speed></extensions></trkpt>
   <trkpt lat="59.348421085" lon="34.6748340164"><ele>183.66</ele><time>2026-08-13T22:17:41.371Z</time><hdop>3.0</hdop><vdop>8.875</vdop><extensions><gom:speed>0.596</gom:speed></extensions></trkpt>
   <trkpt lat="59.3483669798" lon="34.6749816217"><ele>184.148</ele><time>2026-08-13T22:17:57.088Z</time><hdop>3.0</hdop><vdop>10.062</vdop><extensions><gom:speed>0.419</gom:speed></extensions></trkpt>
   <trkpt lat="59.3483090608" lon="34.675120426"><ele>183.393</ele><time>2026-08-13T22:18:30.374Z</time><hdop>3.0</hdop><vdop>8.375</vdop><extensions><gom:speed>0.266</gom:speed></extensions></trkpt>
   <trkpt lat="59.3483170655" lon="34.6754009683"><ele>190.043</ele><time>2026-08-13T22:19:42.350Z</time><hdop>3.062</hdop><vdop>10.0</vdop><extensions><gom:speed>0.175</gom:speed></extensions></trkpt>
   <trkpt lat="59.348379385" lon="34.675536336"><ele>191.742</ele><time>2026-08-13T22:19:51.419Z</time><hdop>3.0</hdop><vdop>10.0</vdop><extensions><gom:speed>0.547</gom:speed></extensions></trkpt>
   <trkpt lat="59.3483788821" lon="34.6757171337"><ele>190.436</ele><time>2026-08-13T22:20:10.068Z</time><hdop>3.0</hdop><vdop>9.0</vdop><extensions><gom:speed>0.58</gom:speed></extensions></trkpt>
   <trkpt lat="59.3483804746" lon="34.6758954168"><ele>186.939</ele><time>2026-08-13T22:20:30.107Z</time><hdop>3.0</hdop><vdop>9.187</vdop><extensions><gom:speed>0.09</gom:speed></extensions></trkpt>
   <trkpt lat="59.3483712965" lon="34.6760775555"><ele>186.544</ele><time>2026-08-13T22:20:40.335Z</time><hdop>3.0</hdop><vdop>8.25</vdop><extensions><gom:speed>0.792</gom:speed></extensions></trkpt>
   <trkpt lat="59.3483260761" lon="34.6762343809"><ele>185.764</ele><time>2026-08-13T22:21:02.408Z</time><hdop>3.0</hdop><vdop>8.75</vdop><extensions><gom:speed>0.449</gom:speed></extensions></trkpt>
   <trkpt lat="59.3482780897" lon="34.676383495"><ele>184.86</ele><time>2026-08-13T22:21:12.358Z</time><hdop>3.0</hdop><vdop>9.0</vdop><extensions><gom:speed>0.686</gom:speed></extensions></trkpt>
   <trkpt lat="59.3482523992" lon="34.6765539829"><ele>188.193</ele><time>2026-08-13T22:21:42.411Z</time><hdop>3.0</hdop><vdop>9.562</vdop><extensions><gom:speed>0.468</gom:speed></extensions></trkpt>
   <trkpt lat="59.3482868907" lon="34.6767248899"><ele>189.314</ele><time>2026-08-13T22:22:05.831Z</time><hdop>3.0</hdop><vdop>14.062</vdop><extensions><gom:speed>0.886</gom:speed></extensions></trkpt>
   <trkpt lat="59.3482647625" lon="34.6769002393"><ele>189.745</ele><time>2026-08-13T22:22:17.334Z</time><hdop>3.0</hdop><vdop>10.187</vdop><extensions><gom:speed>0.712</gom:speed></extensions></trkpt>
   <trkpt lat="59.3483000922" lon="34.6770626806"><ele>189.782</ele><time>2026-08-13T22:22:42.909Z</time><hdop>3.0</hdop><vdop>8.062</vdop><extensions><gom:speed>0.658</gom:speed></extensions></trkpt>
   <trkpt lat="59.3483313986" lon="34.6772285585"><ele>188.18</ele><time>2026-08-13T22:22:55.368Z</time><hdop>3.0</hdop><vdop>8.875</vdop><extensions><gom:speed>0.743</gom:speed></extensions></trkpt>
   <trkpt lat="59.3483117849" lon="34.6774006389"><ele>189.423</ele><time>2026-08-13T22:23:07.389Z</time><hdop>3.0</hdop><vdop>9.375</vdop><extensions><gom:speed>0.61</gom:speed></extensions></trkpt>
   <trkpt lat="59.3483074683" lon="34.6775784191"><ele>193.017</ele><time>2026-08-13T22:23:24.050Z</time><hdop>3.0</hdop><vdop>11.375</vdop><extensions><gom:speed>0.375</gom:speed></extensions></trkpt>
   <trkpt lat="59.348250597" lon="34.6777279522"><ele>193.27</ele><time>2026-08-13T22:23:48.987Z</time><hdop>3.0</hdop><vdop>10.375</vdop><extensions><gom:speed>0.727</gom:speed></extensions></trkpt>
   <trkpt lat="59.3482291813" lon="34.6779062353"><ele>193.164</ele><time>2026-08-13T22:23:57.890Z</time><hdop>3.0</hdop><vdop>8.25</vdop><extensions><gom:speed>0.599</gom:speed></extensions></trkpt>
   <trkpt lat="59.3481916723" lon="34.6780724485"><ele>190.859</ele><time>2026-08-13T22:24:11.027Z</time><hdop>3.0</hdop><vdop>8.187</vdop><extensions><gom:speed>0.503</gom:speed></extensions></trkpt>
   <trkpt lat="59.3481663589" lon="34.6782419305"><ele>189.573</ele><time>2026-08-13T22:24:39.413Z</time><hdop>3.0</hdop><vdop>8.375</vdop><extensions><gom:speed>0.265</gom:speed></extensions></trkpt>
   <trkpt lat="59.34820567" lon="34.6784048747"><ele>185.419</ele><time>2026-08-13T22:24:51.688Z</time><hdop>3.0</hdop><vdop>9.25</vdop><extensions><gom:speed>0.227</gom:speed></extensions></trkpt>
   <trkpt lat="59.3481862659" lon="34.6785905339"><ele>185.067</ele><time>2026-08-13T22:25:08.330Z</time><hdop>3.0</hdop><vdop>10.875</vdop><extensions><gom:speed>0.58</gom:speed></extensions></trkpt>
   <trkpt lat="59.3481711785" lon="34.6787738461"><ele>188.966</ele><time>2026-08-13T22:25:52.170Z</time><hdop>3.0</hdop><vdop>11.562</vdop><extensions><gom:speed>0.427</gom:speed></extensions></trkpt>
   <trkpt lat="59.3482133814" lon="34.6789404784"><ele>188.834</ele><time>2026-08-13T22:26:18.379Z</time><hdop>3.062</hdop><vdop>11.187</vdop><extensions><gom:speed>0.217</gom:speed></extensions></trkpt>
   <trkpt lat="59.348251561" lon="34.6791005727"><ele>188.374</ele><time>2026-08-13T22:26:33.390Z</time><hdop>3.0</hdop><vdop>11.0</vdop><extensions><gom:speed>0.307</gom:speed></extensions></trkpt>
   <trkpt lat="59.3482710908" lon="34.6792768441"><ele>188.771</ele><time>2026-08-13T22:27:01.384Z</time><hdop>3.125</hdop><vdop>10.5</vdop><extensions><gom:speed>0.112</gom:speed></extensions></trkpt>
   <trkpt lat="59.3482886928" lon="34.6794527803"><ele>185.626</ele><time>2026-08-13T22:27:18.210Z</time><hdop>3.0</hdop><vdop>10.187</vdop><extensions><gom:speed>0.615</gom:speed></extensions></trkpt>
   <trkpt lat="59.3483253636" lon="34.6796234358"><ele>186.305</ele><time>2026-08-13T22:27:38.351Z</time><hdop>3.0</hdop><vdop>10.062</vdop><extensions><gom:speed>0.556</gom:speed></extensions></trkpt>
   <trkpt lat="59.3484024771" lon="34.6797147986"><ele>186.323</ele><time>2026-08-13T22:27:53.010Z</time><hdop>3.0</hdop><vdop>10.562</vdop><extensions><gom:speed>0.558</gom:speed></extensions></trkpt>
   <trkpt lat="59.3484719631" lon="34.679841952"><ele>184.014</ele><time>2026-08-13T22:28:41.385Z</time><hdop>3.0</hdop><vdop>8.875</vdop><extensions><gom:speed>0.163</gom:speed></extensions></trkpt>
   <trkpt lat="59.3483853781" lon="34.6799040619"><ele>192.999</ele><time>2026-08-13T22:29:54.810Z</time><hdop>3.0</hdop><vdop>10.187</vdop><extensions><gom:speed>0.324</gom:speed></extensions></trkpt>
   <trkpt lat="59.348311282" lon="34.6800213248"><ele>192.42</ele><time>2026-08-13T22:30:10.401Z</time><hdop>3.0</hdop><vdop>10.875</vdop><extensions><gom:speed>0.36</gom:speed></extensions></trkpt>
   <trkpt lat="59.3482465737" lon="34.6801539265"><ele>187.401</ele><time>2026-08-13T22:31:46.362Z</time><hdop>3.0</hdop><vdop>12.062</vdop><extensions><gom:speed>0.759</gom:speed></extensions></trkpt>
   <trkpt lat="59.3481886967" lon="34.6802973408"><ele>192.845</ele><time>2026-08-13T22:32:06.363Z</time><hdop>3.0</hdop><vdop>10.875</vdop><extensions><gom:speed>0.494</gom:speed></extensions></trkpt>
   <trkpt lat="59.3481349687" lon="34.6804393303"><ele>192.541</ele><time>2026-08-13T22:32:18.384Z</time><hdop>3.0</hdop><vdop>9.875</vdop><extensions><gom:speed>0.617</gom:speed></extensions></trkpt>
   <trkpt lat="59.3480663628" lon="34.6805731893"><ele>190.748</ele><time>2026-08-13T22:32:36.389Z</time><hdop>3.0</hdop><vdop>9.75</vdop><extensions><gom:speed>0.397</gom:speed></extensions></trkpt>
   <trkpt lat="59.3480061808" lon="34.6807119936"><ele>190.375</ele><time>2026-08-13T22:32:55.380Z</time><hdop>3.0</hdop><vdop>11.0</vdop><extensions><gom:speed>0.522</gom:speed></extensions></trkpt>
   <trkpt lat="59.3479400894" lon="34.6808397338"><ele>191.751</ele><time>2026-08-13T22:33:18.151Z</time><hdop>3.0</hdop><vdop>10.5</vdop><extensions><gom:speed>0.448</gom:speed></extensions></trkpt>
   <trkpt lat="59.347891181" lon="34.6809936255"><ele>191.636</ele><time>2026-08-13T22:33:40.747Z</time><hdop>3.0</hdop><vdop>8.375</vdop><extensions><gom:speed>0.454</gom:speed></extensions></trkpt>
   <trkpt lat="59.347854594" lon="34.6811616827"><ele>192.194</ele><time>2026-08-13T22:33:58.031Z</time><hdop>3.0</hdop><vdop>11.187</vdop><extensions><gom:speed>0.582</gom:speed></extensions></trkpt>
   <trkpt lat="59.3478956654" lon="34.6813314162"><ele>191.02</ele><time>2026-08-13T22:34:24.390Z</time><hdop>3.0</hdop><vdop>10.187</vdop><extensions><gom:speed>0.561</gom:speed></extensions></trkpt>
   <trkpt lat="59.3478655743" lon="34.6814979647"><ele>189.19</ele><time>2026-08-13T22:34:37.354Z</time><hdop>3.0</hdop><vdop>9.875</vdop><extensions><gom:speed>0.505</gom:speed></extensions></trkpt>
   <trkpt lat="59.3478858585" lon="34.6816704642"><ele>191.844</ele><time>2026-08-13T22:35:00.788Z</time><hdop>3.0</hdop><vdop>10.062</vdop><extensions><gom:speed>0.223</gom:speed></extensions></trkpt>
   <trkpt lat="59.3478583659" lon="34.6818476577"><ele>190.336</ele><time>2026-08-13T22:35:15.169Z</time><hdop>3.0</hdop><vdop>9.875</vdop><extensions><gom:speed>0.495</gom:speed></extensions></trkpt>
   <trkpt lat="59.3478295741" lon="34.6820206601"><ele>188.238</ele><time>2026-08-13T22:35:29.008Z</time><hdop>3.0</hdop><vdop>9.75</vdop><extensions><gom:speed>0.512</gom:speed></extensions></trkpt>
   <trkpt lat="59.3478080745" lon="34.6822276931"><ele>189.135</ele><time>2026-08-13T22:36:07.335Z</time><hdop>2.812</hdop><vdop>10.375</vdop><extensions><gom:speed>0.143</gom:speed></extensions></trkpt>
   <trkpt lat="59.3477326793" lon="34.6823252585"><ele>187.323</ele><time>2026-08-13T22:40:06.391Z</time><hdop>3.0</hdop><vdop>11.062</vdop><extensions><gom:speed>0.153</gom:speed></extensions></trkpt>
   <trkpt lat="59.3476760595" lon="34.6824745402"><ele>188.989</ele><time>2026-08-13T22:40:27.891Z</time><hdop>3.0</hdop><vdop>10.75</vdop><extensions><gom:speed>0.504</gom:speed></extensions></trkpt>
   <trkpt lat="59.3476656659" lon="34.6826510631"><ele>189.799</ele><time>2026-08-13T22:40:54.375Z</time><hdop>3.0</hdop><vdop>10.25</vdop><extensions><gom:speed>0.158</gom:speed></extensions></trkpt>
   <trkpt lat="59.3476625646" lon="34.6828332856"><ele>192.388</ele><time>2026-08-13T22:41:27.334Z</time><hdop>3.0</hdop><vdop>11.0</vdop><extensions><gom:speed>0.095</gom:speed></extensions></trkpt>
   <trkpt lat="59.3476251813" lon="34.6829963975"><ele>191.061</ele><time>2026-08-13T22:41:36.348Z</time><hdop>3.0</hdop><vdop>12.0</vdop><extensions><gom:speed>0.558</gom:speed></extensions></trkpt>
   <trkpt lat="59.3476207808" lon="34.6831812184"><ele>185.984</ele><time>2026-08-13T22:41:51.374Z</time><hdop>3.0</hdop><vdop>10.375</vdop><extensions><gom:speed>0.561</gom:speed></extensions></trkpt>
   <trkpt lat="59.3475308849" lon="34.6831825596"><ele>189.593</ele><time>2026-08-13T22:42:37.110Z</time><hdop>3.0</hdop><vdop>10.187</vdop><extensions><gom:speed>0.596</gom:speed></extensions></trkpt>
   <trkpt lat="59.3474745585" lon="34.683045264"><ele>192.98</ele><time>2026-08-13T22:42:52.189Z</time><hdop>3.0</hdop><vdop>11.062</vdop><extensions><gom:speed>0.445</gom:speed></extensions></trkpt>
   <trkpt lat="59.347421082" lon="34.6828979939"><ele>190.72</ele><time>2026-08-13T22:43:15.335Z</time><hdop>3.0</hdop><vdop>10.5</vdop><extensions><gom:speed>0.626</gom:speed></extensions></trkpt>
   <trkpt lat="59.3473337845" lon="34.6828518935"><ele>188.821</ele><time>2026-08-13T22:43:32.314Z</time><hdop>3.0</hdop><vdop>9.687</vdop><extensions><gom:speed>0.527</gom:speed></extensions></trkpt>
   <trkpt lat="59.3472649691" lon="34.6827367261"><ele>189.537</ele><time>2026-08-13T22:43:53.930Z</time><hdop>3.25</hdop><vdop>9.875</vdop><extensions><gom:speed>0.609</gom:speed></extensions></trkpt>
   <trkpt lat="59.3472039907" lon="34.6826014422"><ele>188.357</ele><time>2026-08-13T22:44:02.367Z</time><hdop>3.0</hdop><vdop>10.25</vdop><extensions><gom:speed>0.681</gom:speed></extensions></trkpt>
   <trkpt lat="59.3471860953" lon="34.6824131847"><ele>186.059</ele><time>2026-08-13T22:44:28.071Z</time><hdop>3.0</hdop><vdop>11.0</vdop><extensions><gom:speed>0.496</gom:speed></extensions></trkpt>
   <trkpt lat="59.3472144681" lon="34.6822320517"><ele>186.074</ele><time>2026-08-13T22:44:37.290Z</time><hdop>3.0</hdop><vdop>11.187</vdop><extensions><gom:speed>0.78</gom:speed></extensions></trkpt>
   <trkpt lat="59.3472763684" lon="34.6820946723"><ele>186.433</ele><time>2026-08-13T22:44:48.349Z</time><hdop>3.0</hdop><vdop>12.062</vdop><extensions><gom:speed>0.675</gom:speed></extensions></trkpt>
   <trkpt lat="59.3473430884" lon="34.6819756493"><ele>187.798</ele><time>2026-08-13T22:45:03.405Z</time><hdop>3.0</hdop><vdop>17.25</vdop><extensions><gom:speed>0.345</gom:speed></extensions></trkpt>
   <trkpt lat="59.347365971" lon="34.6817938458"><ele>190.85</ele><time>2026-08-13T22:45:17.031Z</time><hdop>3.0</hdop><vdop>12.0</vdop><extensions><gom:speed>0.65</gom:speed></extensions></trkpt>
   <trkpt lat="59.3474410728" lon="34.6816860546"><ele>191.106</ele><time>2026-08-13T22:45:36.409Z</time><hdop>3.0</hdop><vdop>11.187</vdop><extensions><gom:speed>0.633</gom:speed></extensions></trkpt>
   <trkpt lat="59.3474852874" lon="34.6815193385"><ele>192.133</ele><time>2026-08-13T22:45:57.909Z</time><hdop>3.0</hdop><vdop>11.875</vdop><extensions><gom:speed>0.525</gom:speed></extensions></trkpt>
   <trkpt lat="59.3475637839" lon="34.6814157382"><ele>189.794</ele><time>2026-08-13T22:46:07.311Z</time><hdop>3.0</hdop><vdop>11.375</vdop><extensions><gom:speed>0.868</gom:speed></extensions></trkpt>
   <trkpt lat="59.347608669" lon="34.6812580746"><ele>188.871</ele><time>2026-08-13T22:46:20.400Z</time><hdop>3.0</hdop><vdop>12.062</vdop><extensions><gom:speed>0.59</gom:speed></extensions></trkpt>
   <trkpt lat="59.3476462618" lon="34.6810858265"><ele>188.557</ele><time>2026-08-13T22:46:33.411Z</time><hdop>3.0</hdop><vdop>11.75</vdop><extensions><gom:speed>0.656</gom:speed></extensions></trkpt>
   <trkpt lat="59.3476877942" lon="34.6809176855"><ele>187.651</ele><time>2026-08-13T22:46:47.344Z</time><hdop>3.0</hdop><vdop>12.0</vdop><extensions><gom:speed>0.633</gom:speed></extensions></trkpt>
   <trkpt lat="59.3477821744" lon="34.6808693219"><ele>189.095</ele><time>2026-08-13T22:47:00.071Z</time><hdop>3.0</hdop><vdop>13.75</vdop><extensions><gom:speed>0.601</gom:speed></extensions></trkpt>
   <trkpt lat="59.347863395" lon="34.6807845809"><ele>190.033</ele><time>2026-08-13T22:47:18.192Z</time><hdop>3.0</hdop><vdop>12.0</vdop><extensions><gom:speed>0.649</gom:speed></extensions></trkpt>
   <trkpt lat="59.3479489743" lon="34.6807125803"><ele>190.185</ele><time>2026-08-13T22:47:36.359Z</time><hdop>3.0</hdop><vdop>11.875</vdop><extensions><gom:speed>0.532</gom:speed></extensions></trkpt>
   <trkpt lat="59.3480870661" lon="34.6807505503"><ele>191.615</ele><time>2026-08-13T22:48:15.336Z</time><hdop>3.0</hdop><vdop>10.875</vdop><extensions><gom:speed>0.063</gom:speed></extensions></trkpt>
   <trkpt lat="59.3480628843" lon="34.6805709262"><ele>190.275</ele><time>2026-08-13T22:48:43.405Z</time><hdop>3.0</hdop><vdop>10.75</vdop><extensions><gom:speed>0.539</gom:speed></extensions></trkpt>
   <trkpt lat="59.3479915962" lon="34.6804416772"><ele>190.68</ele><time>2026-08-13T22:49:04.149Z</time><hdop>3.0</hdop><vdop>9.875</vdop><extensions><gom:speed>0.502</gom:speed></extensions></trkpt>
   <trkpt lat="59.3479057656" lon="34.6803783938"><ele>190.126</ele><time>2026-08-13T22:49:19.363Z</time><hdop>3.0</hdop><vdop>9.875</vdop><extensions><gom:speed>0.659</gom:speed></extensions></trkpt>
   <trkpt lat="59.3478722798" lon="34.6802118454"><ele>188.922</ele><time>2026-08-13T22:49:29.890Z</time><hdop>3.0</hdop><vdop>9.875</vdop><extensions><gom:speed>0.771</gom:speed></extensions></trkpt>
   <trkpt lat="59.347863395" lon="34.6800359931"><ele>189.827</ele><time>2026-08-13T22:49:48.377Z</time><hdop>3.0</hdop><vdop>8.75</vdop><extensions><gom:speed>0.1</gom:speed></extensions></trkpt>
   <trkpt lat="59.347871274" lon="34.6798545249"><ele>187.959</ele><time>2026-08-13T22:50:04.930Z</time><hdop>3.0</hdop><vdop>9.875</vdop><extensions><gom:speed>0.595</gom:speed></extensions></trkpt>
   <trkpt lat="59.3478523728" lon="34.6796768285"><ele>185.176</ele><time>2026-08-13T22:50:19.361Z</time><hdop>3.0</hdop><vdop>11.25</vdop><extensions><gom:speed>0.511</gom:speed></extensions></trkpt>
   <trkpt lat="59.3478674603" lon="34.6794902474"><ele>186.532</ele><time>2026-08-13T22:50:39.361Z</time><hdop>3.0</hdop><vdop>9.062</vdop><extensions><gom:speed>0.547</gom:speed></extensions></trkpt>
   <trkpt lat="59.3478872835" lon="34.6793114614"><ele>187.591</ele><time>2026-08-13T22:50:49.409Z</time><hdop>3.0</hdop><vdop>9.375</vdop><extensions><gom:speed>0.837</gom:speed></extensions></trkpt>
   <trkpt lat="59.3478222818" lon="34.6791885827"><ele>189.024</ele><time>2026-08-13T22:51:03.402Z</time><hdop>3.0</hdop><vdop>9.562</vdop><extensions><gom:speed>0.503</gom:speed></extensions></trkpt>
   <trkpt lat="59.347828694" lon="34.679003175"><ele>189.561</ele><time>2026-08-13T22:51:34.386Z</time><hdop>3.0</hdop><vdop>12.562</vdop><extensions><gom:speed>0.327</gom:speed></extensions></trkpt>
   <trkpt lat="59.3477700625" lon="34.6788545638"><ele>190.928</ele><time>2026-08-13T22:51:49.411Z</time><hdop>3.0</hdop><vdop>11.687</vdop><extensions><gom:speed>0.711</gom:speed></extensions></trkpt>
   <trkpt lat="59.3477168794" lon="34.6787114848"><ele>190.601</ele><time>2026-08-13T22:52:10.344Z</time><hdop>3.0</hdop><vdop>10.75</vdop><extensions><gom:speed>0.142</gom:speed></extensions></trkpt>
   <trkpt lat="59.3476874589" lon="34.6785334531"><ele>190.074</ele><time>2026-08-13T22:52:27.338Z</time><hdop>3.0</hdop><vdop>11.375</vdop><extensions><gom:speed>0.58</gom:speed></extensions></trkpt>
   <trkpt lat="59.3477036779" lon="34.6783578523"><ele>189.642</ele><time>2026-08-13T22:52:41.335Z</time><hdop>3.0</hdop><vdop>11.687</vdop><extensions><gom:speed>0.554</gom:speed></extensions></trkpt>
   <trkpt lat="59.3476715752" lon="34.678188454"><ele>188.592</ele><time>2026-08-13T22:52:54.191Z</time><hdop>3.0</hdop><vdop>11.187</vdop><extensions><gom:speed>0.672</gom:speed></extensions></trkpt>
   <trkpt lat="59.3477149934" lon="34.6780312933"><ele>188.695</ele><time>2026-08-13T22:53:11.170Z</time><hdop>3.0</hdop><vdop>10.562</vdop><extensions><gom:speed>0.49</gom:speed></extensions></trkpt>
   <trkpt lat="59.3477668774" lon="34.6778731268"><ele>189.655</ele><time>2026-08-13T22:53:31.311Z</time><hdop>3.0</hdop><vdop>11.875</vdop><extensions><gom:speed>0.726</gom:speed></extensions></trkpt>
   <trkpt lat="59.3477603814" lon="34.677686378"><ele>190.55</ele><time>2026-08-13T22:53:54.410Z</time><hdop>3.0</hdop><vdop>12.25</vdop><extensions><gom:speed>0.494</gom:speed></extensions></trkpt>
   <trkpt lat="59.3477161669" lon="34.6775266189"><ele>189.483</ele><time>2026-08-13T22:54:07.330Z</time><hdop>3.0</hdop><vdop>12.687</vdop><extensions><gom:speed>0.527</gom:speed></extensions></trkpt>
   <trkpt lat="59.3476917756" lon="34.6773448993"><ele>191.763</ele><time>2026-08-13T22:56:09.412Z</time><hdop>3.0</hdop><vdop>10.5</vdop><extensions><gom:speed>0.81</gom:speed></extensions></trkpt>
   <trkpt lat="59.3476228763" lon="34.6772227749"><ele>188.688</ele><time>2026-08-13T22:56:28.414Z</time><hdop>3.0</hdop><vdop>9.187</vdop><extensions><gom:speed>0.692</gom:speed></extensions></trkpt>
   <trkpt lat="59.3476244689" lon="34.6770413906"><ele>191.184</ele><time>2026-08-13T22:56:47.373Z</time><hdop>3.0</hdop><vdop>9.25</vdop><extensions><gom:speed>0.616</gom:speed></extensions></trkpt>
   <trkpt lat="59.3476603853" lon="34.6768750936"><ele>189.71</ele><time>2026-08-13T22:56:53.817Z</time><hdop>3.0</hdop><vdop>10.062</vdop><extensions><gom:speed>0.761</gom:speed></extensions></trkpt>
   <trkpt lat="59.3477217828" lon="34.6767403964"><ele>185.22</ele><time>2026-08-13T22:57:07.335Z</time><hdop>3.0</hdop><vdop>9.375</vdop><extensions><gom:speed>0.533</gom:speed></extensions></trkpt>
   <trkpt lat="59.3477567772" lon="34.676566891"><ele>183.877</ele><time>2026-08-13T22:57:24.216Z</time><hdop>3.0</hdop><vdop>9.562</vdop><extensions><gom:speed>0.701</gom:speed></extensions></trkpt>
   <trkpt lat="59.3477610939" lon="34.6763830759"><ele>183.64</ele><time>2026-08-13T22:57:40.816Z</time><hdop>3.0</hdop><vdop>9.187</vdop><extensions><gom:speed>0.591</gom:speed></extensions></trkpt>
   <trkpt lat="59.3478230781" lon="34.6762500551"><ele>184.568</ele><time>2026-08-13T22:57:53.275Z</time><hdop>3.0</hdop><vdop>10.062</vdop><extensions><gom:speed>0.472</gom:speed></extensions></trkpt>
   <trkpt lat="59.3478410992" lon="34.6760729455"><ele>182.142</ele><time>2026-08-13T22:58:07.174Z</time><hdop>3.0</hdop><vdop>10.562</vdop><extensions><gom:speed>0.557</gom:speed></extensions></trkpt>
   <trkpt lat="59.3479067714" lon="34.6759328839"><ele>183.604</ele><time>2026-08-13T22:58:27.156Z</time><hdop>3.0</hdop><vdop>11.375</vdop><extensions><gom:speed>0.445</gom:speed></extensions></trkpt>
   <trkpt lat="59.3479562665" lon="34.6757856976"><ele>186.581</ele><time>2026-08-13T22:58:46.396Z</time><hdop>3.0</hdop><vdop>10.0</vdop><extensions><gom:speed>0.178</gom:speed></extensions></trkpt>
   <trkpt lat="59.3480414686" lon="34.6757126913"><ele>187.557</ele><time>2026-08-13T22:59:02.774Z</time><hdop>3.0</hdop><vdop>12.0</vdop><extensions><gom:speed>0.613</gom:speed></extensions></trkpt>
   <trkpt lat="59.3480740742" lon="34.6755430415"><ele>187.841</ele><time>2026-08-13T22:59:19.415Z</time><hdop>3.0</hdop><vdop>11.187</vdop><extensions><gom:speed>0.667</gom:speed></extensions></trkpt>
   <trkpt lat="59.34809176" lon="34.6753623277"><ele>189.77</ele><time>2026-08-13T22:59:41.335Z</time><hdop>3.0</hdop><vdop>11.062</vdop><extensions><gom:speed>0.546</gom:speed></extensions></trkpt>
   <trkpt lat="59.3480618785" lon="34.6751932647"><ele>191.95</ele><time>2026-08-13T23:00:16.343Z</time><hdop>3.125</hdop><vdop>10.0</vdop><extensions><gom:speed>0.131</gom:speed></extensions></trkpt>
   <trkpt lat="59.3479752934" lon="34.6751305681"><ele>195.017</ele><time>2026-08-13T23:00:31.367Z</time><hdop>3.0</hdop><vdop>11.25</vdop><extensions><gom:speed>0.576</gom:speed></extensions></trkpt>
   <trkpt lat="59.3478992696" lon="34.6752406225"><ele>194.324</ele><time>2026-08-13T23:01:13.435Z</time><hdop>3.0</hdop><vdop>11.062</vdop><extensions><gom:speed>0.432</gom:speed></extensions></trkpt>
   <trkpt lat="59.3478087869" lon="34.6752416283"><ele>197.071</ele><time>2026-08-13T23:01:29.397Z</time><hdop>3.0</hdop><vdop>12.375</vdop><extensions><gom:speed>0.38</gom:speed></extensions></trkpt>
   <trkpt lat="59.3477365768" lon="34.6753486652"><ele>194.099</ele><time>2026-08-13T23:02:52.402Z</time><hdop>3.0</hdop><vdop>13.375</vdop><extensions><gom:speed>0.049</gom:speed></extensions></trkpt>
   <trkpt lat="59.3477702721" lon="34.6751830388"><ele>190.589</ele><time>2026-08-13T23:04:58.897Z</time><hdop>3.0</hdop><vdop>12.75</vdop><extensions><gom:speed>0.382</gom:speed></extensions></trkpt>
   <trkpt lat="59.3476619779" lon="34.675089832"><ele>188.223</ele><time>2026-08-13T23:05:19.896Z</time><hdop>3.75</hdop><vdop>13.375</vdop><extensions><gom:speed>0.497</gom:speed></extensions></trkpt>
   <trkpt lat="59.3475791647" lon="34.6750161551"><ele>192.277</ele><time>2026-08-13T23:05:36.340Z</time><hdop>3.0</hdop><vdop>12.562</vdop><extensions><gom:speed>0.044</gom:speed></extensions></trkpt>
   <trkpt lat="59.3476631933" lon="34.6750876527"><ele>193.056</ele><time>2026-08-13T23:06:11.159Z</time><hdop>3.0</hdop><vdop>11.062</vdop><extensions><gom:speed>0.583</gom:speed></extensions></trkpt>
   <trkpt lat="59.3477416898" lon="34.6751955278"><ele>191.386</ele><time>2026-08-13T23:06:28.314Z</time><hdop>3.0</hdop><vdop>11.375</vdop><extensions><gom:speed>0.581</gom:speed></extensions></trkpt>
   <trkpt lat="59.3478327592" lon="34.6751916722"><ele>188.117</ele><time>2026-08-13T23:06:45.196Z</time><hdop>3.0</hdop><vdop>12.25</vdop><extensions><gom:speed>0.297</gom:speed></extensions></trkpt>
   <trkpt lat="59.3478455835" lon="34.6750161551"><ele>187.763</ele><time>2026-08-13T23:07:11.955Z</time><hdop>3.0</hdop><vdop>10.75</vdop><extensions><gom:speed>0.326</gom:speed></extensions></trkpt>
   <trkpt lat="59.3479172907" lon="34.6749062684"><ele>187.772</ele><time>2026-08-13T23:07:25.412Z</time><hdop>3.0</hdop><vdop>11.562</vdop><extensions><gom:speed>0.404</gom:speed></extensions></trkpt>
   <trkpt lat="59.347974581" lon="34.6747602556"><ele>192.925</ele><time>2026-08-13T23:07:48.362Z</time><hdop>3.0</hdop><vdop>12.562</vdop><extensions><gom:speed>0.444</gom:speed></extensions></trkpt>
   <trkpt lat="59.3479716892" lon="34.6745781168"><ele>191.088</ele><time>2026-08-13T23:08:05.973Z</time><hdop>3.0</hdop><vdop>11.25</vdop><extensions><gom:speed>0.473</gom:speed></extensions></trkpt>
   <trkpt lat="59.3479895846" lon="34.6744014263"><ele>188.652</ele><time>2026-08-13T23:08:23.387Z</time><hdop>3.0</hdop><vdop>13.562</vdop><extensions><gom:speed>0.675</gom:speed></extensions></trkpt>
   <trkpt lat="59.3480540833" lon="34.6742509712"><ele>189.043</ele><time>2026-08-13T23:08:52.134Z</time><hdop>3.0</hdop><vdop>13.5</vdop><extensions><gom:speed>0.186</gom:speed></extensions></trkpt>
   <trkpt lat="59.3481191688" lon="34.6741243206"><ele>190.527</ele><time>2026-08-13T23:09:07.395Z</time><hdop>3.0</hdop><vdop>13.25</vdop><extensions><gom:speed>0.343</gom:speed></extensions></trkpt>
   <trkpt lat="59.3481600725" lon="34.6739567664"><ele>190.547</ele><time>2026-08-13T23:09:33.335Z</time><hdop>3.0</hdop><vdop>12.187</vdop><extensions><gom:speed>0.517</gom:speed></extensions></trkpt>
   <trkpt lat="59.3482167761" lon="34.6738130167"><ele>189.87</ele><time>2026-08-13T23:09:52.401Z</time><hdop>3.0</hdop><vdop>11.75</vdop><extensions><gom:speed>0.157</gom:speed></extensions></trkpt>
   <trkpt lat="59.3481482959" lon="34.6736845222"><ele>184.536</ele><time>2026-08-13T23:11:15.406Z</time><hdop>3.062</hdop><vdop>15.187</vdop><extensions><gom:speed>0.218</gom:speed></extensions></trkpt>
   <trkpt lat="59.3482278821" lon="34.6737821713"><ele>182.156</ele><time>2026-08-13T23:13:02.350Z</time><hdop>3.062</hdop><vdop>12.562</vdop><extensions><gom:speed>0.479</gom:speed></extensions></trkpt>
   <trkpt lat="59.3482598591" lon="34.6735053171"><ele>187.315</ele><time>2026-08-13T23:15:08.874Z</time><hdop>3.0</hdop><vdop>9.687</vdop><extensions><gom:speed>0.136</gom:speed></extensions></trkpt>
   <trkpt lat="59.348245987" lon="34.6733312249"><ele>187.467</ele><time>2026-08-13T23:15:38.855Z</time><hdop>3.0</hdop><vdop>10.5</vdop><extensions><gom:speed>0.569</gom:speed></extensions></trkpt>
   <trkpt lat="59.3482498846" lon="34.6731504273"><ele>186.782</ele><time>2026-08-13T23:15:54.913Z</time><hdop>3.0</hdop><vdop>11.875</vdop><extensions><gom:speed>0.685</gom:speed></extensions></trkpt>
   <trkpt lat="59.3482466995" lon="34.6729692944"><ele>187.195</ele><time>2026-08-13T23:16:18.336Z</time><hdop>3.0</hdop><vdop>11.0</vdop><extensions><gom:speed>0.529</gom:speed></extensions></trkpt>
   <trkpt lat="59.3482559615" lon="34.6727830485"><ele>188.377</ele><time>2026-08-13T23:16:35.417Z</time><hdop>3.0</hdop><vdop>9.562</vdop><extensions><gom:speed>0.766</gom:speed></extensions></trkpt>
   <trkpt lat="59.34828907" lon="34.6726191823"><ele>187.0</ele><time>2026-08-13T23:17:15.111Z</time><hdop>3.0</hdop><vdop>9.062</vdop><extensions><gom:speed>0.049</gom:speed></extensions></trkpt>
   <trkpt lat="59.3483779601" lon="34.6725619339"><ele>186.493</ele><time>2026-08-13T23:17:47.312Z</time><hdop>3.0</hdop><vdop>9.562</vdop><extensions><gom:speed>0.546</gom:speed></extensions></trkpt>
   <trkpt lat="59.3484646709" lon="34.6725140732"><ele>188.742</ele><time>2026-08-13T23:18:11.170Z</time><hdop>3.0</hdop><vdop>10.0</vdop><extensions><gom:speed>0.215</gom:speed></extensions></trkpt>
   <trkpt lat="59.3484921635" lon="34.6723364607"><ele>187.791</ele><time>2026-08-13T23:18:25.192Z</time><hdop>3.0</hdop><vdop>10.5</vdop><extensions><gom:speed>0.701</gom:speed></extensions></trkpt>
   <trkpt lat="59.3484282934" lon="34.6722042781"><ele>190.087</ele><time>2026-08-13T23:18:56.294Z</time><hdop>3.0</hdop><vdop>10.875</vdop><extensions><gom:speed>0.605</gom:speed></extensions></trkpt>
   <trkpt lat="59.34840298" lon="34.6720330358"><ele>192.514</ele><time>2026-08-13T23:19:15.333Z</time><hdop>3.0</hdop><vdop>10.0</vdop><extensions><gom:speed>0.604</gom:speed></extensions></trkpt>
   <trkpt lat="59.3483576759" lon="34.6718808204"><ele>192.883</ele><time>2026-08-13T23:19:39.873Z</time><hdop>3.0</hdop><vdop>9.062</vdop><extensions><gom:speed>0.239</gom:speed></extensions></trkpt>
   <trkpt lat="59.3483645909" lon="34.6716981787"><ele>190.139</ele><time>2026-08-13T23:20:03.311Z</time><hdop>3.0</hdop><vdop>10.375</vdop><extensions><gom:speed>0.775</gom:speed></extensions></trkpt>
   <trkpt lat="59.348396065" lon="34.6715324685"><ele>188.32</ele><time>2026-08-13T23:20:22.233Z</time><hdop>3.0</hdop><vdop>10.0</vdop><extensions><gom:speed>0.096</gom:speed></extensions></trkpt>
   <trkpt lat="59.348394179" lon="34.6713559456"><ele>186.942</ele><time>2026-08-13T23:20:38.836Z</time><hdop>3.0</hdop><vdop>9.687</vdop><extensions><gom:speed>0.463</gom:speed></extensions></trkpt>
   <trkpt lat="59.3484246892" lon="34.6711865474"><ele>187.921</ele><time>2026-08-13T23:21:02.463Z</time><hdop>3.0</hdop><vdop>10.375</vdop><extensions><gom:speed>0.559</gom:speed></extensions></trkpt>
   <trkpt lat="59.3484629945" lon="34.6710266207"><ele>189.191</ele><time>2026-08-13T23:21:16.349Z</time><hdop>3.0</hdop><vdop>9.187</vdop><extensions><gom:speed>0.789</gom:speed></extensions></trkpt>
   <trkpt lat="59.3484637908" lon="34.6708474994"><ele>191.39</ele><time>2026-08-13T23:21:34.072Z</time><hdop>3.0</hdop><vdop>9.5</vdop><extensions><gom:speed>0.483</gom:speed></extensions></trkpt>
   <trkpt lat="59.3484911996" lon="34.6706768438"><ele>191.087</ele><time>2026-08-13T23:21:51.392Z</time><hdop>3.0</hdop><vdop>9.375</vdop><extensions><gom:speed>0.501</gom:speed></extensions></trkpt>
   <trkpt lat="59.348534995" lon="34.6705182582"><ele>194.633</ele><time>2026-08-13T23:22:10.336Z</time><hdop>3.0</hdop><vdop>11.687</vdop><extensions><gom:speed>0.744</gom:speed></extensions></trkpt>
   <trkpt lat="59.3485704924" lon="34.6703556493"><ele>191.119</ele><time>2026-08-13T23:22:29.296Z</time><hdop>3.0</hdop><vdop>10.25</vdop><extensions><gom:speed>0.481</gom:speed></extensions></trkpt>
   <trkpt lat="59.3486165929" lon="34.6701795455"><ele>188.109</ele><time>2026-08-13T23:22:39.111Z</time><hdop>3.0</hdop><vdop>9.75</vdop><extensions><gom:speed>1.12</gom:speed></extensions></trkpt>
   <trkpt lat="59.3486858693" lon="34.6700575888"><ele>185.974</ele><time>2026-08-13T23:22:57.914Z</time><hdop>3.0</hdop><vdop>10.062</vdop><extensions><gom:speed>0.429</gom:speed></extensions></trkpt>
   <trkpt lat="59.3486934968" lon="34.669876875"><ele>187.361</ele><time>2026-08-13T23:23:09.031Z</time><hdop>3.0</hdop><vdop>10.062</vdop><extensions><gom:speed>0.377</gom:speed></extensions></trkpt>
   <trkpt lat="59.3486302973" lon="34.6697501406"><ele>188.768</ele><time>2026-08-13T23:23:18.875Z</time><hdop>3.0</hdop><vdop>11.25</vdop><extensions><gom:speed>0.929</gom:speed></extensions></trkpt>
   <trkpt lat="59.3487011663" lon="34.6696297765"><ele>189.87</ele><time>2026-08-13T23:23:36.345Z</time><hdop>3.062</hdop><vdop>10.375</vdop><extensions><gom:speed>0.781</gom:speed></extensions></trkpt>
   <trkpt lat="59.3486327699" lon="34.6695050538"><ele>190.54</ele><time>2026-08-13T23:23:50.311Z</time><hdop>3.0</hdop><vdop>9.25</vdop><extensions><gom:speed>0.537</gom:speed></extensions></trkpt>
   <trkpt lat="59.3485650861" lon="34.6693859469"><ele>189.502</ele><time>2026-08-13T23:24:10.656Z</time><hdop>3.0</hdop><vdop>10.562</vdop><extensions><gom:speed>0.19</gom:speed></extensions></trkpt>
   <trkpt lat="59.3484720888" lon="34.6693221606"><ele>190.206</ele><time>2026-08-13T23:24:44.428Z</time><hdop>3.062</hdop><vdop>9.375</vdop><extensions><gom:speed>0.101</gom:speed></extensions></trkpt>
   <trkpt lat="59.3483916645" lon="34.6692414429"><ele>190.164</ele><time>2026-08-13T23:25:10.894Z</time><hdop>3.0</hdop><vdop>9.187</vdop><extensions><gom:speed>0.414</gom:speed></extensions></trkpt>
   <trkpt lat="59.3483393614" lon="34.6690967713"><ele>191.936</ele><time>2026-08-13T23:25:28.811Z</time><hdop>3.0</hdop><vdop>9.0</vdop><extensions><gom:speed>0.632</gom:speed></extensions></trkpt>
   <trkpt lat="59.3482510581" lon="34.6690400258"><ele>191.48</ele><time>2026-08-13T23:25:51.369Z</time><hdop>3.0</hdop><vdop>8.875</vdop><extensions><gom:speed>0.458</gom:speed></extensions></trkpt>
   <trkpt lat="59.3481581866" lon="34.6690097671"><ele>191.732</ele><time>2026-08-13T23:26:07.336Z</time><hdop>3.0</hdop><vdop>9.687</vdop><extensions><gom:speed>0.241</gom:speed></extensions></trkpt>
   <trkpt lat="59.3480795643" lon="34.6688962761"><ele>192.289</ele><time>2026-08-13T23:26:27.134Z</time><hdop>3.0</hdop><vdop>9.562</vdop><extensions><gom:speed>0.871</gom:speed></extensions></trkpt>
   <trkpt lat="59.348000984" lon="34.6687975373"><ele>189.186</ele><time>2026-08-13T23:26:54.915Z</time><hdop>3.0</hdop><vdop>9.062</vdop><extensions><gom:speed>0.743</gom:speed></extensions></trkpt>
   <trkpt lat="59.3479105851" lon="34.6687393669"><ele>187.839</ele><time>2026-08-13T23:27:30.335Z</time><hdop>3.0</hdop><vdop>8.375</vdop><extensions><gom:speed>0.314</gom:speed></extensions></trkpt>
   <trkpt lat="59.3478414764" lon="34.6688596472"><ele>185.686</ele><time>2026-08-13T23:28:52.419Z</time><hdop>3.0</hdop><vdop>7.75</vdop><extensions><gom:speed>0.344</gom:speed></extensions></trkpt>
   <trkpt lat="59.3477499879" lon="34.66888429"><ele>186.588</ele><time>2026-08-13T23:29:55.712Z</time><hdop>3.0</hdop><vdop>8.187</vdop><extensions><gom:speed>0.314</gom:speed></extensions></trkpt>
   <trkpt lat="59.3476332699" lon="34.6688916661"><ele>184.085</ele><time>2026-08-13T23:31:52.335Z</time><hdop>1.75</hdop><vdop>8.687</vdop><extensions><gom:speed>0.192</gom:speed></extensions></trkpt>
   <trkpt lat="59.3475432901" lon="34.6688932587"><ele>186.218</ele><time>2026-08-13T23:32:32.336Z</time><hdop>1.625</hdop><vdop>8.5</vdop><extensions><gom:speed>0.613</gom:speed></extensions></trkpt>
   <trkpt lat="59.3475466848" lon="34.6692449633"><ele>189.037</ele><time>2026-08-13T23:33:55.336Z</time><hdop>1.562</hdop><vdop>8.5</vdop><extensions><gom:speed>0.259</gom:speed></extensions></trkpt>
   <trkpt lat="59.3475732974" lon="34.6694166247"><ele>187.859</ele><time>2026-08-13T23:34:17.336Z</time><hdop>1.5</hdop><vdop>8.187</vdop><extensions><gom:speed>0.431</gom:speed></extensions></trkpt>
   <trkpt lat="59.347613279" lon="34.6695999369"><ele>185.106</ele><time>2026-08-13T23:34:54.335Z</time><hdop>1.437</hdop><vdop>8.062</vdop><extensions><gom:speed>0.223</gom:speed></extensions></trkpt>
   <trkpt lat="59.3476082918" lon="34.6698649727"><ele>187.292</ele><time>2026-08-13T23:36:58.337Z</time><hdop>1.625</hdop><vdop>9.375</vdop><extensions><gom:speed>0.29</gom:speed></extensions></trkpt>
   <trkpt lat="59.3475532646" lon="34.6700366341"><ele>186.919</ele><time>2026-08-13T23:37:59.337Z</time><hdop>1.625</hdop><vdop>8.687</vdop><extensions><gom:speed>0.383</gom:speed></extensions></trkpt>
   <trkpt lat="59.3474725888" lon="34.670142749"><ele>186.428</ele><time>2026-08-13T23:38:56.252Z</time><hdop>3.0</hdop><vdop>9.0</vdop><extensions><gom:speed>0.168</gom:speed></extensions></trkpt>
   <trkpt lat="59.3475220839" lon="34.6703106385"><ele>188.125</ele><time>2026-08-13T23:39:41.911Z</time><hdop>3.0</hdop><vdop>9.0</vdop><extensions><gom:speed>0.307</gom:speed></extensions></trkpt>
   <trkpt lat="59.3475875885" lon="34.6704413962"><ele>185.233</ele><time>2026-08-13T23:39:53.391Z</time><hdop>3.0</hdop><vdop>8.187</vdop><extensions><gom:speed>0.558</gom:speed></extensions></trkpt>
   <trkpt lat="59.3476042685" lon="34.6706228644"><ele>187.861</ele><time>2026-08-13T23:40:28.910Z</time><hdop>3.0</hdop><vdop>8.5</vdop><extensions><gom:speed>0.689</gom:speed></extensions></trkpt>
   <trkpt lat="59.3475601797" lon="34.6707788516"><ele>192.492</ele><time>2026-08-13T23:41:14.211Z</time><hdop>3.0</hdop><vdop>9.375</vdop><extensions><gom:speed>0.287</gom:speed></extensions></trkpt>
   <trkpt lat="59.3474983631" lon="34.6709615771"><ele>188.313</ele><time>2026-08-13T23:42:30.421Z</time><hdop>3.125</hdop><vdop>8.562</vdop><extensions><gom:speed>0.053</gom:speed></extensions></trkpt>
   <trkpt lat="59.3474347864" lon="34.671188559"><ele>183.445</ele><time>2026-08-13T23:43:09.011Z</time><hdop>5.312</hdop><vdop>8.25</vdop><extensions><gom:speed>0.462</gom:speed></extensions></trkpt>
   <trkpt lat="59.3473974869" lon="34.6713533472"><ele>184.715</ele><time>2026-08-13T23:43:18.412Z</time><hdop>3.0</hdop><vdop>8.187</vdop><extensions><gom:speed>0.642</gom:speed></extensions></trkpt>
   <trkpt lat="59.3473894822" lon="34.6715411857"><ele>188.284</ele><time>2026-08-13T23:43:32.312Z</time><hdop>3.0</hdop><vdop>8.25</vdop><extensions><gom:speed>0.619</gom:speed></extensions></trkpt>
   <trkpt lat="59.3473643784" lon="34.6717140205"><ele>189.969</ele><time>2026-08-13T23:43:43.912Z</time><hdop>3.0</hdop><vdop>9.0</vdop><extensions><gom:speed>0.648</gom:speed></extensions></trkpt>
   <trkpt lat="59.3472963593" lon="34.671830529"><ele>191.531</ele><time>2026-08-13T23:44:06.411Z</time><hdop>3.0</hdop><vdop>9.0</vdop><extensions><gom:speed>0.396</gom:speed></extensions></trkpt>
   <trkpt lat="59.3472389852" lon="34.6719692495"><ele>191.286</ele><time>2026-08-13T23:44:19.336Z</time><hdop>3.0</hdop><vdop>9.062</vdop><extensions><gom:speed>0.468</gom:speed></extensions></trkpt>
   <trkpt lat="59.3472051642" lon="34.6721432578"><ele>188.677</ele><time>2026-08-13T23:44:38.290Z</time><hdop>3.0</hdop><vdop>9.375</vdop><extensions><gom:speed>0.498</gom:speed></extensions></trkpt>
   <trkpt lat="59.3472037812" lon="34.6723214571"><ele>189.267</ele><time>2026-08-13T23:45:06.371Z</time><hdop>3.0</hdop><vdop>8.875</vdop><extensions><gom:speed>0.263</gom:speed></extensions></trkpt>
   <trkpt lat="59.3472434695" lon="34.6724841498"><ele>193.305</ele><time>2026-08-13T23:45:35.649Z</time><hdop>3.0</hdop><vdop>9.5</vdop><extensions><gom:speed>0.294</gom:speed></extensions></trkpt>
   <trkpt lat="59.3472712974" lon="34.6726623491"><ele>190.884</ele><time>2026-08-13T23:45:56.953Z</time><hdop>3.062</hdop><vdop>9.375</vdop><extensions><gom:speed>0.368</gom:speed></extensions></trkpt>
   <trkpt lat="59.3472979938" lon="34.6728901692"><ele>188.828</ele><time>2026-08-13T23:46:33.729Z</time><hdop>3.0</hdop><vdop>8.25</vdop><extensions><gom:speed>0.143</gom:speed></extensions></trkpt>
   <trkpt lat="59.3472990834" lon="34.6730713859"><ele>187.453</ele><time>2026-08-13T23:46:43.148Z</time><hdop>3.0</hdop><vdop>8.5</vdop><extensions><gom:speed>0.734</gom:speed></extensions></trkpt>
   <trkpt lat="59.3472737701" lon="34.6732510939"><ele>190.763</ele><time>2026-08-13T23:47:05.310Z</time><hdop>3.0</hdop><vdop>8.5</vdop><extensions><gom:speed>0.666</gom:speed></extensions></trkpt>
   <trkpt lat="59.3472092713" lon="34.6733808458"><ele>195.339</ele><time>2026-08-13T23:47:22.011Z</time><hdop>3.0</hdop><vdop>8.062</vdop><extensions><gom:speed>0.621</gom:speed></extensions></trkpt>
   <trkpt lat="59.3471801861" lon="34.6735555247"><ele>194.616</ele><time>2026-08-13T23:47:42.811Z</time><hdop>3.0</hdop><vdop>8.0</vdop><extensions><gom:speed>0.605</gom:speed></extensions></trkpt>
   <trkpt lat="59.347112167" lon="34.6736793254"><ele>191.623</ele><time>2026-08-13T23:47:55.872Z</time><hdop>3.0</hdop><vdop>8.25</vdop><extensions><gom:speed>0.427</gom:speed></extensions></trkpt>
   <trkpt lat="59.3471332894" lon="34.6738515735"><ele>188.86</ele><time>2026-08-13T23:48:04.892Z</time><hdop>3.0</hdop><vdop>8.375</vdop><extensions><gom:speed>0.686</gom:speed></extensions></trkpt>
   <trkpt lat="59.3470829979" lon="34.6740016934"><ele>187.85</ele><time>2026-08-13T23:48:18.851Z</time><hdop>3.0</hdop><vdop>8.0</vdop><extensions><gom:speed>0.317</gom:speed></extensions></trkpt>
   <trkpt lat="59.3470630909" lon="34.6741858438"><ele>187.327</ele><time>2026-08-13T23:49:46.892Z</time><hdop>3.0</hdop><vdop>9.0</vdop><extensions><gom:speed>0.527</gom:speed></extensions></trkpt>
   <trkpt lat="59.347029689" lon="34.6743510511"><ele>183.452</ele><time>2026-08-13T23:50:07.390Z</time><hdop>3.0</hdop><vdop>9.25</vdop><extensions><gom:speed>0.256</gom:speed></extensions></trkpt>
   <trkpt lat="59.3470135958" lon="34.6745259814"><ele>184.208</ele><time>2026-08-13T23:50:20.413Z</time><hdop>3.0</hdop><vdop>9.562</vdop><extensions><gom:speed>0.392</gom:speed></extensions></trkpt>
   <trkpt lat="59.3469726921" lon="34.6746856567"><ele>187.674</ele><time>2026-08-13T23:50:48.390Z</time><hdop>3.0</hdop><vdop>8.375</vdop><extensions><gom:speed>0.147</gom:speed></extensions></trkpt>
   <trkpt lat="59.3469329619" lon="34.6748553902"><ele>190.428</ele><time>2026-08-13T23:50:59.333Z</time><hdop>3.0</hdop><vdop>9.0</vdop><extensions><gom:speed>0.557</gom:speed></extensions></trkpt>
   <trkpt lat="59.346890298" lon="34.6750143949"><ele>190.219</ele><time>2026-08-13T23:51:11.337Z</time><hdop>3.0</hdop><vdop>8.375</vdop><extensions><gom:speed>0.599</gom:speed></extensions></trkpt>
   <trkpt lat="59.3468821675" lon="34.6751900796"><ele>191.717</ele><time>2026-08-13T23:51:25.337Z</time><hdop>3.0</hdop><vdop>9.187</vdop><extensions><gom:speed>0.736</gom:speed></extensions></trkpt>
   <trkpt lat="59.346832379" lon="34.6753483299"><ele>195.026</ele><time>2026-08-13T23:51:43.129Z</time><hdop>3.0</hdop><vdop>10.562</vdop><extensions><gom:speed>0.617</gom:speed></extensions></trkpt>
   <trkpt lat="59.3467687604" lon="34.6754729688"><ele>196.9</ele><time>2026-08-13T23:51:54.337Z</time><hdop>3.0</hdop><vdop>10.062</vdop><extensions><gom:speed>0.605</gom:speed></extensions></trkpt>
   <trkpt lat="59.3467126855" lon="34.6756305486"><ele>195.944</ele><time>2026-08-13T23:52:07.311Z</time><hdop>3.0</hdop><vdop>10.062</vdop><extensions><gom:speed>0.555</gom:speed></extensions></trkpt>
   <trkpt lat="59.3466454626" lon="34.6757515833"><ele>191.26</ele><time>2026-08-13T23:52:25.272Z</time><hdop>3.0</hdop><vdop>8.562</vdop><extensions><gom:speed>0.131</gom:speed></extensions></trkpt>
   <trkpt lat="59.3466999869" lon="34.6759301178"><ele>184.394</ele><time>2026-08-13T23:53:06.370Z</time><hdop>3.875</hdop><vdop>9.687</vdop><extensions><gom:speed>0.415</gom:speed></extensions></trkpt>
   <trkpt lat="59.3467616777" lon="34.6760747895"><ele>185.182</ele><time>2026-08-13T23:53:34.337Z</time><hdop>3.0</hdop><vdop>9.0</vdop><extensions><gom:speed>0.477</gom:speed></extensions></trkpt>
   <trkpt lat="59.3468407609" lon="34.6761789765"><ele>186.964</ele><time>2026-08-13T23:53:45.417Z</time><hdop>3.0</hdop><vdop>9.0</vdop><extensions><gom:speed>0.505</gom:speed></extensions></trkpt>
   <trkpt lat="59.3468812874" lon="34.6763373945"><ele>187.14</ele><time>2026-08-13T23:53:57.852Z</time><hdop>3.0</hdop><vdop>10.375</vdop><extensions><gom:speed>0.701</gom:speed></extensions></trkpt>
   <trkpt lat="59.3469005658" lon="34.676516432"><ele>186.338</ele><time>2026-08-13T23:54:14.408Z</time><hdop>3.0</hdop><vdop>9.187</vdop><extensions><gom:speed>0.563</gom:speed></extensions></trkpt>
   <trkpt lat="59.3468866938" lon="34.6767080423"><ele>185.747</ele><time>2026-08-13T23:54:27.386Z</time><hdop>3.0</hdop><vdop>10.75</vdop><extensions><gom:speed>0.665</gom:speed></extensions></trkpt>
   <trkpt lat="59.3468443652" lon="34.6768747583"><ele>186.088</ele><time>2026-08-13T23:54:40.210Z</time><hdop>3.0</hdop><vdop>9.25</vdop><extensions><gom:speed>0.769</gom:speed></extensions></trkpt>
   <trkpt lat="59.3467805789" lon="34.6770006545"><ele>187.113</ele><time>2026-08-13T23:54:50.050Z</time><hdop>3.0</hdop><vdop>9.875</vdop><extensions><gom:speed>0.753</gom:speed></extensions></trkpt>
   <trkpt lat="59.3467591631" lon="34.6771911752"><ele>190.023</ele><time>2026-08-13T23:55:08.336Z</time><hdop>3.0</hdop><vdop>9.875</vdop><extensions><gom:speed>0.484</gom:speed></extensions></trkpt>
   <trkpt lat="59.3467562714" lon="34.6773752418"><ele>190.22</ele><time>2026-08-13T23:55:18.269Z</time><hdop>3.0</hdop><vdop>9.0</vdop><extensions><gom:speed>0.733</gom:speed></extensions></trkpt>
   <trkpt lat="59.3466916888" lon="34.6775166445"><ele>186.965</ele><time>2026-08-13T23:56:53.338Z</time><hdop>1.562</hdop><vdop>8.0</vdop><extensions><gom:speed>0.242</gom:speed></extensions></trkpt>
   <trkpt lat="59.346646678" lon="34.6776716259"><ele>183.042</ele><time>2026-08-13T23:57:18.337Z</time><hdop>1.75</hdop><vdop>8.187</vdop><extensions><gom:speed>0.0</gom:speed></extensions></trkpt>
   <trkpt lat="59.3466332669" lon="34.6778499928"><ele>183.059</ele><time>2026-08-13T23:57:48.337Z</time><hdop>1.875</hdop><vdop>10.062</vdop><extensions><gom:speed>0.459</gom:speed></extensions></trkpt>
   <trkpt lat="59.3466182633" lon="34.6780366577"><ele>186.663</ele><time>2026-08-13T23:58:24.338Z</time><hdop>1.5</hdop><vdop>8.0</vdop><extensions><gom:speed>0.284</gom:speed></extensions></trkpt>
   <trkpt lat="59.3465582908" lon="34.6781916391"><ele>186.03</ele><time>2026-08-13T23:59:28.337Z</time><hdop>2.0</hdop><vdop>8.5</vdop><extensions><gom:speed>0.595</gom:speed></extensions></trkpt>
   <trkpt lat="59.3465932852" lon="34.6783649769"><ele>187.292</ele><time>2026-08-13T23:59:41.337Z</time><hdop>2.125</hdop><vdop>9.562</vdop><extensions><gom:speed>0.694</gom:speed></extensions></trkpt>
   <trkpt lat="59.3465699836" lon="34.6785382308"><ele>184.262</ele><time>2026-08-13T23:59:56.338Z</time><hdop>1.937</hdop><vdop>9.75</vdop><extensions><gom:speed>0.0</gom:speed></extensions></trkpt>
   <trkpt lat="59.3465416946" lon="34.6787249796"><ele>183.473</ele><time>2026-08-14T00:00:16.337Z</time><hdop>2.125</hdop><vdop>7.687</vdop><extensions><gom:speed>0.431</gom:speed></extensions></trkpt>
   <trkpt lat="59.3464999947" lon="34.6789099682"><ele>181.768</ele><time>2026-08-14T00:00:29.337Z</time><hdop>2.125</hdop><vdop>8.375</vdop><extensions><gom:speed>0.496</gom:speed></extensions></trkpt>
   <trkpt lat="59.3464999947" lon="34.6790932804"><ele>183.563</ele><time>2026-08-14T00:00:53.337Z</time><hdop>1.937</hdop><vdop>8.25</vdop><extensions><gom:speed>0.289</gom:speed></extensions></trkpt>
   <trkpt lat="59.3464899783" lon="34.6792766765"><ele>182.755</ele><time>2026-08-14T00:01:09.337Z</time><hdop>2.062</hdop><vdop>7.75</vdop><extensions><gom:speed>0.631</gom:speed></extensions></trkpt>
   <trkpt lat="59.3465332708" lon="34.6794349268"><ele>181.901</ele><time>2026-08-14T00:01:21.337Z</time><hdop>2.5</hdop><vdop>9.875</vdop><extensions><gom:speed>0.89</gom:speed></extensions></trkpt>
   <trkpt lat="59.3465282836" lon="34.6796166465"><ele>183.42</ele><time>2026-08-14T00:01:33.338Z</time><hdop>2.25</hdop><vdop>8.375</vdop><extensions><gom:speed>0.465</gom:speed></extensions></trkpt>
   <trkpt lat="59.3465182672" lon="34.6797949296"><ele>185.294</ele><time>2026-08-14T00:01:47.338Z</time><hdop>2.187</hdop><vdop>7.75</vdop><extensions><gom:speed>0.0</gom:speed></extensions></trkpt>
   <trkpt lat="59.3464899783" lon="34.6801249251"><ele>186.96</ele><time>2026-08-14T00:02:19.338Z</time><hdop>2.0</hdop><vdop>7.25</vdop><extensions><gom:speed>0.0</gom:speed></extensions></trkpt>
   <trkpt lat="59.3464499966" lon="34.6802882884"><ele>187.881</ele><time>2026-08-14T00:02:28.337Z</time><hdop>2.0</hdop><vdop>8.375</vdop><extensions><gom:speed>0.522</gom:speed></extensions></trkpt>
   <trkpt lat="59.3463982803" lon="34.6804516517"><ele>186.922</ele><time>2026-08-14T00:02:42.338Z</time><hdop>2.0</hdop><vdop>7.687</vdop><extensions><gom:speed>0.601</gom:speed></extensions></trkpt>
   <trkpt lat="59.346318275" lon="34.6805516478"><ele>186.735</ele><time>2026-08-14T00:02:56.337Z</time><hdop>2.062</hdop><vdop>8.187</vdop><extensions><gom:speed>0.459</gom:speed></extensions></trkpt>
   <trkpt lat="59.3463132878" lon="34.6807282545"><ele>188.696</ele><time>2026-08-14T00:03:09.338Z</time><hdop>2.062</hdop><vdop>8.5</vdop><extensions><gom:speed>0.438</gom:speed></extensions></trkpt>
   <trkpt lat="59.3463132878" lon="34.6809382212"><ele>184.56</ele><time>2026-08-14T00:03:48.337Z</time><hdop>2.062</hdop><vdop>9.75</vdop><extensions><gom:speed>0.279</gom:speed></extensions></trkpt>
   <trkpt lat="59.3462866752" lon="34.6811182644"><ele>185.68</ele><time>2026-08-14T00:04:09.338Z</time><hdop>2.437</hdop><vdop>9.5</vdop><extensions><gom:speed>0.569</gom:speed></extensions></trkpt>
   <trkpt lat="59.3462666844" lon="34.6812932786"><ele>188.233</ele><time>2026-08-14T00:04:31.337Z</time><hdop>2.187</hdop><vdop>9.75</vdop><extensions><gom:speed>0.528</gom:speed></extensions></trkpt>
   <trkpt lat="59.346267774" lon="34.6814712264"><ele>187.734</ele><time>2026-08-14T00:04:49.012Z</time><hdop>3.0</hdop><vdop>9.0</vdop><extensions><gom:speed>0.69</gom:speed></extensions></trkpt>
   <trkpt lat="59.3462811851" lon="34.6816468273"><ele>188.171</ele><time>2026-08-14T00:05:04.250Z</time><hdop>3.0</hdop><vdop>9.75</vdop><extensions><gom:speed>0.49</gom:speed></extensions></trkpt>
   <trkpt lat="59.3463280818" lon="34.6817993779"><ele>187.414</ele><time>2026-08-14T00:05:22.372Z</time><hdop>3.0</hdop><vdop>10.062</vdop><extensions><gom:speed>0.596</gom:speed></extensions></trkpt>
   <trkpt lat="59.3463567898" lon="34.6819704525"><ele>186.918</ele><time>2026-08-14T00:05:33.432Z</time><hdop>3.0</hdop><vdop>9.0</vdop><extensions><gom:speed>0.455</gom:speed></extensions></trkpt>
   <trkpt lat="59.34636228" lon="34.68218285"><ele>186.456</ele><time>2026-08-14T00:05:55.534Z</time><hdop>3.625</hdop><vdop>9.375</vdop><extensions><gom:speed>0.525</gom:speed></extensions></trkpt>
   <trkpt lat="59.346323388" lon="34.6823424414"><ele>188.716</ele><time>2026-08-14T00:07:12.566Z</time><hdop>3.0</hdop><vdop>8.062</vdop><extensions><gom:speed>0.25</gom:speed></extensions></trkpt>
   <trkpt lat="59.3463463963" lon="34.6825176232"><ele>189.602</ele><time>2026-08-14T00:07:43.347Z</time><hdop>3.0</hdop><vdop>7.75</vdop><extensions><gom:speed>0.519</gom:speed></extensions></trkpt>
   <trkpt lat="59.346302978" lon="34.6826726884"><ele>190.739</ele><time>2026-08-14T00:07:59.337Z</time><hdop>3.0</hdop><vdop>8.875</vdop><extensions><gom:speed>0.463</gom:speed></extensions></trkpt>
   <trkpt lat="59.3462929617" lon="34.6828554977"><ele>190.198</ele><time>2026-08-14T00:08:08.631Z</time><hdop>3.0</hdop><vdop>8.875</vdop><extensions><gom:speed>0.796</gom:speed></extensions></trkpt>
   <trkpt lat="59.3462657624" lon="34.6830252312"><ele>192.014</ele><time>2026-08-14T00:08:20.992Z</time><hdop>3.0</hdop><vdop>9.0</vdop><extensions><gom:speed>0.66</gom:speed></extensions></trkpt>
   <trkpt lat="59.3462391917" lon="34.6831979823"><ele>198.337</ele><time>2026-08-14T00:08:36.410Z</time><hdop>3.0</hdop><vdop>9.375</vdop><extensions><gom:speed>0.642</gom:speed></extensions></trkpt>
   <trkpt lat="59.3461988748" lon="34.6833614294"><ele>198.914</ele><time>2026-08-14T00:08:53.953Z</time><hdop>3.0</hdop><vdop>8.375</vdop><extensions><gom:speed>0.454</gom:speed></extensions></trkpt>
   <trkpt lat="59.3461221804" lon="34.6834701426"><ele>197.723</ele><time>2026-08-14T00:09:04.392Z</time><hdop>3.0</hdop><vdop>9.187</vdop><extensions><gom:speed>0.775</gom:speed></extensions></trkpt>
   <trkpt lat="59.3461293888" lon="34.6836574782"><ele>197.722</ele><time>2026-08-14T00:09:28.091Z</time><hdop>3.0</hdop><vdop>8.375</vdop><extensions><gom:speed>0.245</gom:speed></extensions></trkpt>
   <trkpt lat="59.3461486672" lon="34.6838416286"><ele>196.35</ele><time>2026-08-14T00:09:35.731Z</time><hdop>3.0</hdop><vdop>8.75</vdop><extensions><gom:speed>0.79</gom:speed></extensions></trkpt>
   <trkpt lat="59.3461324901" lon="34.6840175647"><ele>196.412</ele><time>2026-08-14T00:09:43.094Z</time><hdop>3.0</hdop><vdop>9.062</vdop><extensions><gom:speed>0.887</gom:speed></extensions></trkpt>
   <trkpt lat="59.3461004712" lon="34.6841941714"><ele>197.925</ele><time>2026-08-14T00:09:53.311Z</time><hdop>3.0</hdop><vdop>12.562</vdop><extensions><gom:speed>0.772</gom:speed></extensions></trkpt>
   <trkpt lat="59.3461131698" lon="34.6843712811"><ele>194.427</ele><time>2026-08-14T00:10:11.951Z</time><hdop>3.0</hdop><vdop>8.875</vdop><extensions><gom:speed>0.814</gom:speed></extensions></trkpt>
   <trkpt lat="59.3461442667" lon="34.6845450379"><ele>197.369</ele><time>2026-08-14T00:10:22.012Z</time><hdop>3.0</hdop><vdop>8.75</vdop><extensions><gom:speed>0.95</gom:speed></extensions></trkpt>
   <trkpt lat="59.3461164807" lon="34.6847168669"><ele>197.348</ele><time>2026-08-14T00:10:30.812Z</time><hdop>3.0</hdop><vdop>8.875</vdop><extensions><gom:speed>0.996</gom:speed></extensions></trkpt>
   <trkpt lat="59.3460914607" lon="34.68489054"><ele>192.768</ele><time>2026-08-14T00:10:49.992Z</time><hdop>3.0</hdop><vdop>7.562</vdop><extensions><gom:speed>0.269</gom:speed></extensions></trkpt>
   <trkpt lat="59.3460657702" lon="34.6850613631"><ele>196.413</ele><time>2026-08-14T00:10:58.251Z</time><hdop>3.0</hdop><vdop>9.062</vdop><extensions><gom:speed>0.947</gom:speed></extensions></trkpt>
   <trkpt lat="59.3460263752" lon="34.6852259837"><ele>197.077</ele><time>2026-08-14T00:11:09.372Z</time><hdop>3.0</hdop><vdop>8.562</vdop><extensions><gom:speed>1.06</gom:speed></extensions></trkpt>
   <trkpt lat="59.3460017743" lon="34.6854110561"><ele>194.369</ele><time>2026-08-14T00:11:42.373Z</time><hdop>3.0</hdop><vdop>8.875</vdop><extensions><gom:speed>0.676</gom:speed></extensions></trkpt>
   <trkpt lat="59.3459775925" lon="34.6856185921"><ele>193.213</ele><time>2026-08-14T00:11:52.379Z</time><hdop>4.812</hdop><vdop>7.687</vdop><extensions><gom:speed>0.212</gom:speed></extensions></trkpt>
   <trkpt lat="59.3460187896" lon="34.6857787702"><ele>194.091</ele><time>2026-08-14T00:12:10.230Z</time><hdop>3.0</hdop><vdop>7.562</vdop><extensions><gom:speed>0.7</gom:speed></extensions></trkpt>
   <trkpt lat="59.3459693783" lon="34.6859435585"><ele>188.795</ele><time>2026-08-14T00:12:29.375Z</time><hdop>3.062</hdop><vdop>7.687</vdop><extensions><gom:speed>0.361</gom:speed></extensions></trkpt>
   <trkpt lat="59.3459554643" lon="34.6861184888"><ele>186.757</ele><time>2026-08-14T00:12:42.272Z</time><hdop>3.0</hdop><vdop>7.375</vdop><extensions><gom:speed>0.366</gom:speed></extensions></trkpt>
   <trkpt lat="59.3458760877" lon="34.6862103544"><ele>186.573</ele><time>2026-08-14T00:13:02.352Z</time><hdop>3.0</hdop><vdop>7.687</vdop><extensions><gom:speed>0.474</gom:speed></extensions></trkpt>
   <trkpt lat="59.3457859822" lon="34.6861945965"><ele>186.974</ele><time>2026-08-14T00:13:11.034Z</time><hdop>3.0</hdop><vdop>7.562</vdop><extensions><gom:speed>0.738</gom:speed></extensions></trkpt>
   <trkpt lat="59.3457328829" lon="34.6860505954"><ele>187.552</ele><time>2026-08-14T00:13:19.389Z</time><hdop>3.0</hdop><vdop>7.0</vdop><extensions><gom:speed>0.902</gom:speed></extensions></trkpt>
   <trkpt lat="59.3456748801" lon="34.6859076839"><ele>187.117</ele><time>2026-08-14T00:13:32.334Z</time><hdop>3.0</hdop><vdop>7.062</vdop><extensions><gom:speed>0.681</gom:speed></extensions></trkpt>
   <trkpt lat="59.3456349823" lon="34.6857466676"><ele>187.395</ele><time>2026-08-14T00:13:50.751Z</time><hdop>3.0</hdop><vdop>7.25</vdop><extensions><gom:speed>0.534</gom:speed></extensions></trkpt>
   <trkpt lat="59.3455951682" lon="34.6855833881"><ele>192.327</ele><time>2026-08-14T00:14:10.874Z</time><hdop>3.0</hdop><vdop>7.5</vdop><extensions><gom:speed>0.326</gom:speed></extensions></trkpt>
   <trkpt lat="59.3456122673" lon="34.6854079548"><ele>191.084</ele><time>2026-08-14T00:14:24.402Z</time><hdop>3.0</hdop><vdop>7.25</vdop><extensions><gom:speed>0.648</gom:speed></extensions></trkpt>
   <trkpt lat="59.3455568629" lon="34.6852643728"><ele>191.597</ele><time>2026-08-14T00:14:40.359Z</time><hdop>3.0</hdop><vdop>7.0</vdop><extensions><gom:speed>0.21</gom:speed></extensions></trkpt>
   <trkpt lat="59.3455207788" lon="34.6851010934"><ele>188.396</ele><time>2026-08-14T00:15:26.370Z</time><hdop>3.0</hdop><vdop>7.687</vdop><extensions><gom:speed>0.065</gom:speed></extensions></trkpt>
   <trkpt lat="59.3455672984" lon="34.6849316951"><ele>184.701</ele><time>2026-08-14T00:15:42.993Z</time><hdop>3.0</hdop><vdop>8.0</vdop><extensions><gom:speed>0.933</gom:speed></extensions></trkpt>
   <trkpt lat="59.3455681785" lon="34.6847463712"><ele>190.176</ele><time>2026-08-14T00:16:10.331Z</time><hdop>3.0</hdop><vdop>7.687</vdop><extensions><gom:speed>0.357</gom:speed></extensions></trkpt>
   <trkpt lat="59.3456048912" lon="34.6845831756"><ele>190.563</ele><time>2026-08-14T00:16:19.351Z</time><hdop>3.0</hdop><vdop>7.375</vdop><extensions><gom:speed>0.715</gom:speed></extensions></trkpt>
   <trkpt lat="59.3456456692" lon="34.6844158728"><ele>191.634</ele><time>2026-08-14T00:16:30.693Z</time><hdop>3.0</hdop><vdop>7.5</vdop><extensions><gom:speed>0.674</gom:speed></extensions></trkpt>
   <trkpt lat="59.3456308751" lon="34.6842305489"><ele>193.17</ele><time>2026-08-14T00:16:44.400Z</time><hdop>3.0</hdop><vdop>7.875</vdop><extensions><gom:speed>0.536</gom:speed></extensions></trkpt>
   <trkpt lat="59.3456806636" lon="34.684078585"><ele>191.923</ele><time>2026-08-14T00:17:05.338Z</time><hdop>3.0</hdop><vdop>9.25</vdop><extensions><gom:speed>0.087</gom:speed></extensions></trkpt>
   <trkpt lat="59.3456729942" lon="34.6838977873"><ele>186.69</ele><time>2026-08-14T00:17:20.693Z</time><hdop>3.0</hdop><vdop>9.25</vdop><extensions><gom:speed>0.732</gom:speed></extensions></trkpt>
   <trkpt lat="59.3456735809" lon="34.6837158162"><ele>186.271</ele><time>2026-08-14T00:17:43.194Z</time><hdop>3.0</hdop><vdop>9.25</vdop><extensions><gom:speed>0.489</gom:speed></extensions></trkpt>
   <trkpt lat="59.3456488962" lon="34.6835459989"><ele>187.725</ele><time>2026-08-14T00:17:58.389Z</time><hdop>3.0</hdop><vdop>8.875</vdop><extensions><gom:speed>0.489</gom:speed></extensions></trkpt>
   <trkpt lat="59.3456552665" lon="34.6833582442"><ele>187.675</ele><time>2026-08-14T00:19:27.140Z</time><hdop>3.0</hdop><vdop>8.562</vdop><extensions><gom:speed>0.836</gom:speed></extensions></trkpt>
   <trkpt lat="59.3457072762" lon="34.6832102198"><ele>187.763</ele><time>2026-08-14T00:19:48.199Z</time><hdop>3.0</hdop><vdop>7.687</vdop><extensions><gom:speed>0.209</gom:speed></extensions></trkpt>
   <trkpt lat="59.345718466" lon="34.6830349542"><ele>188.469</ele><time>2026-08-14T00:20:11.963Z</time><hdop>3.0</hdop><vdop>9.25</vdop><extensions><gom:speed>0.273</gom:speed></extensions></trkpt>
   <trkpt lat="59.3457296978" lon="34.6828581799"><ele>191.374</ele><time>2026-08-14T00:20:19.881Z</time><hdop>3.0</hdop><vdop>8.25</vdop><extensions><gom:speed>0.789</gom:speed></extensions></trkpt>
   <trkpt lat="59.3457672906" lon="34.6826972474"><ele>190.371</ele><time>2026-08-14T00:20:54.421Z</time><hdop>3.0</hdop><vdop>7.875</vdop><extensions><gom:speed>0.616</gom:speed></extensions></trkpt>
   <trkpt lat="59.3457819589" lon="34.6825222332"><ele>187.052</ele><time>2026-08-14T00:21:09.838Z</time><hdop>3.0</hdop><vdop>8.062</vdop><extensions><gom:speed>0.492</gom:speed></extensions></trkpt>
   <trkpt lat="59.3458241618" lon="34.6823641505"><ele>185.002</ele><time>2026-08-14T00:23:24.393Z</time><hdop>3.0</hdop><vdop>7.687</vdop><extensions><gom:speed>0.078</gom:speed></extensions></trkpt>
  </trkseg>
  <trkseg>
   <trkpt lat="59.3460323683" lon="34.6819398586"><ele>163.762</ele><time>2026-08-14T00:28:53.179Z</time><hdop>3.562</hdop><vdop>12.687</vdop><extensions><gom:speed>0.11</gom:speed></extensions></trkpt>
   <trkpt lat="59.3459461604" lon="34.6818204165"><ele>189.706</ele><time>2026-08-14T00:29:03.980Z</time><hdop>3.5</hdop><vdop>16.0</vdop><extensions><gom:speed>0.632</gom:speed></extensions></trkpt>
   <trkpt lat="59.3460339608" lon="34.681711787"><ele>193.607</ele><time>2026-08-14T00:29:14.165Z</time><hdop>3.0</hdop><vdop>12.0</vdop><extensions><gom:speed>0.216</gom:speed></extensions></trkpt>
   <trkpt lat="59.3460626689" lon="34.6815434784"><ele>192.865</ele><time>2026-08-14T00:29:44.316Z</time><hdop>3.125</hdop><vdop>11.562</vdop><extensions><gom:speed>0.155</gom:speed></extensions></trkpt>
   <trkpt lat="59.3460635909" lon="34.6813634351"><ele>193.002</ele><time>2026-08-14T00:29:56.040Z</time><hdop>3.0</hdop><vdop>10.375</vdop><extensions><gom:speed>0.522</gom:speed></extensions></trkpt>
   <trkpt lat="59.3460904968" lon="34.6811950427"><ele>193.706</ele><time>2026-08-14T00:30:18.860Z</time><hdop>3.0</hdop><vdop>9.25</vdop><extensions><gom:speed>0.042</gom:speed></extensions></trkpt>
   <trkpt lat="59.3460467852" lon="34.6810199447"><ele>193.741</ele><time>2026-08-14T00:30:47.039Z</time><hdop>3.0</hdop><vdop>9.25</vdop><extensions><gom:speed>0.184</gom:speed></extensions></trkpt>
   <trkpt lat="59.3460388643" lon="34.6808402367"><ele>192.642</ele><time>2026-08-14T00:30:58.996Z</time><hdop>3.0</hdop><vdop>9.5</vdop><extensions><gom:speed>0.746</gom:speed></extensions></trkpt>
   <trkpt lat="59.3460728948" lon="34.6806690782"><ele>188.87</ele><time>2026-08-14T00:31:10.757Z</time><hdop>3.0</hdop><vdop>9.375</vdop><extensions><gom:speed>0.707</gom:speed></extensions></trkpt>
   <trkpt lat="59.3461099847" lon="34.6805057988"><ele>184.996</ele><time>2026-08-14T00:31:23.439Z</time><hdop>3.0</hdop><vdop>9.25</vdop><extensions><gom:speed>0.723</gom:speed></extensions></trkpt>
   <trkpt lat="59.3461616591" lon="34.6803297788"><ele>183.279</ele><time>2026-08-14T00:31:35.996Z</time><hdop>3.0</hdop><vdop>8.375</vdop><extensions><gom:speed>0.628</gom:speed></extensions></trkpt>
   <trkpt lat="59.346163587" lon="34.6801498193"><ele>186.083</ele><time>2026-08-14T00:32:03.120Z</time><hdop>3.062</hdop><vdop>7.75</vdop><extensions><gom:speed>0.34</gom:speed></extensions></trkpt>
   <trkpt lat="59.346198791" lon="34.6799733803"><ele>191.346</ele><time>2026-08-14T00:32:27.719Z</time><hdop>3.0</hdop><vdop>8.75</vdop><extensions><gom:speed>0.388</gom:speed></extensions></trkpt>
   <trkpt lat="59.3461731843" lon="34.6798037306"><ele>202.543</ele><time>2026-08-14T00:32:48.600Z</time><hdop>3.0</hdop><vdop>9.0</vdop><extensions><gom:speed>0.566</gom:speed></extensions></trkpt>
   <trkpt lat="59.3462072986" lon="34.6796119526"><ele>190.238</ele><time>2026-08-14T00:33:35.520Z</time><hdop>4.125</hdop><vdop>9.062</vdop><extensions><gom:speed>0.101</gom:speed></extensions></trkpt>
   <trkpt lat="59.346215471" lon="34.6794315741"><ele>193.124</ele><time>2026-08-14T00:33:47.083Z</time><hdop>3.0</hdop><vdop>8.875</vdop><extensions><gom:speed>0.622</gom:speed></extensions></trkpt>
   <trkpt lat="59.3462530638" lon="34.6792601641"><ele>191.469</ele><time>2026-08-14T00:34:13.598Z</time><hdop>3.0</hdop><vdop>10.375</vdop><extensions><gom:speed>0.241</gom:speed></extensions></trkpt>
   <trkpt lat="59.3462890641" lon="34.6790986449"><ele>194.521</ele><time>2026-08-14T00:34:42.129Z</time><hdop>3.25</hdop><vdop>11.062</vdop><extensions><gom:speed>0.19</gom:speed></extensions></trkpt>
   <trkpt lat="59.3462997929" lon="34.678907286"><ele>194.258</ele><time>2026-08-14T00:34:43.759Z</time><hdop>3.437</hdop><vdop>10.375</vdop><extensions><gom:speed>0.481</gom:speed></extensions></trkpt>
   <trkpt lat="59.3463326919" lon="34.6787420787"><ele>190.924</ele><time>2026-08-14T00:35:04.080Z</time><hdop>3.0</hdop><vdop>10.0</vdop><extensions><gom:speed>0.182</gom:speed></extensions></trkpt>
   <trkpt lat="59.3463494976" lon="34.678544182"><ele>191.599</ele><time>2026-08-14T00:35:23.976Z</time><hdop>3.187</hdop><vdop>10.187</vdop><extensions><gom:speed>0.622</gom:speed></extensions></trkpt>
   <trkpt lat="59.3463954723" lon="34.6783818245"><ele>192.322</ele><time>2026-08-14T00:35:44.579Z</time><hdop>3.0</hdop><vdop>8.687</vdop><extensions><gom:speed>0.393</gom:speed></extensions></trkpt>
   <trkpt lat="59.346453978" lon="34.6782457862"><ele>189.416</ele><time>2026-08-14T00:36:06.678Z</time><hdop>3.0</hdop><vdop>8.75</vdop><extensions><gom:speed>0.435</gom:speed></extensions></trkpt>
   <trkpt lat="59.3464513796" lon="34.6780648209"><ele>189.18</ele><time>2026-08-14T00:36:55.111Z</time><hdop>3.062</hdop><vdop>9.187</vdop><extensions><gom:speed>0.385</gom:speed></extensions></trkpt>
   <trkpt lat="59.3464010882" lon="34.6779060677"><ele>189.236</ele><time>2026-08-14T00:37:11.694Z</time><hdop>3.0</hdop><vdop>9.562</vdop><extensions><gom:speed>0.538</gom:speed></extensions></trkpt>
   <trkpt lat="59.3464035609" lon="34.677729461"><ele>189.256</ele><time>2026-08-14T00:37:33.044Z</time><hdop>3.0</hdop><vdop>9.25</vdop><extensions><gom:speed>0.546</gom:speed></extensions></trkpt>
   <trkpt lat="59.3464003757" lon="34.6775412873"><ele>190.06</ele><time>2026-08-14T00:37:51.536Z</time><hdop>3.0</hdop><vdop>8.25</vdop><extensions><gom:speed>0.556</gom:speed></extensions></trkpt>
   <trkpt lat="59.3463413671" lon="34.6773776725"><ele>190.753</ele><time>2026-08-14T00:38:04.039Z</time><hdop>3.0</hdop><vdop>9.187</vdop><extensions><gom:speed>0.679</gom:speed></extensions></trkpt>
   <trkpt lat="59.3463298839" lon="34.6771880739"><ele>195.575</ele><time>2026-08-14T00:38:23.520Z</time><hdop>3.0</hdop><vdop>8.562</vdop><extensions><gom:speed>0.511</gom:speed></extensions></trkpt>
   <trkpt lat="59.3463654651" lon="34.677022196"><ele>193.275</ele><time>2026-08-14T00:38:30.897Z</time><hdop>3.0</hdop><vdop>9.5</vdop><extensions><gom:speed>0.673</gom:speed></extensions></trkpt>
   <trkpt lat="59.3463546944" lon="34.6768460922"><ele>192.436</ele><time>2026-08-14T00:38:49.896Z</time><hdop>3.0</hdop><vdop>9.562</vdop><extensions><gom:speed>0.15</gom:speed></extensions></trkpt>
   <trkpt lat="59.3463135811" lon="34.6766805496"><ele>193.084</ele><time>2026-08-14T00:39:05.081Z</time><hdop>3.0</hdop><vdop>9.375</vdop><extensions><gom:speed>0.524</gom:speed></extensions></trkpt>
   <trkpt lat="59.3463453905" lon="34.6765135821"><ele>192.679</ele><time>2026-08-14T00:39:15.135Z</time><hdop>3.0</hdop><vdop>9.5</vdop><extensions><gom:speed>0.745</gom:speed></extensions></trkpt>
   <trkpt lat="59.3463440913" lon="34.6763373945"><ele>189.195</ele><time>2026-08-14T00:39:37.106Z</time><hdop>3.0</hdop><vdop>9.25</vdop><extensions><gom:speed>0.122</gom:speed></extensions></trkpt>
   <trkpt lat="59.3463847854" lon="34.6761581894"><ele>191.703</ele><time>2026-08-14T00:39:57.661Z</time><hdop>3.0</hdop><vdop>9.375</vdop><extensions><gom:speed>0.501</gom:speed></extensions></trkpt>
   <trkpt lat="59.3464390582" lon="34.67600413"><ele>193.166</ele><time>2026-08-14T00:40:07.059Z</time><hdop>3.0</hdop><vdop>8.75</vdop><extensions><gom:speed>0.676</gom:speed></extensions></trkpt>
   <trkpt lat="59.3465309658" lon="34.6759801578"><ele>198.975</ele><time>2026-08-14T00:40:42.119Z</time><hdop>3.187</hdop><vdop>9.062</vdop><extensions><gom:speed>0.517</gom:speed></extensions></trkpt>
   <trkpt lat="59.3464890982" lon="34.6758237515"><ele>191.075</ele><time>2026-08-14T00:42:02.633Z</time><hdop>3.0</hdop><vdop>9.187</vdop><extensions><gom:speed>0.422</gom:speed></extensions></trkpt>
   <trkpt lat="59.3464834823" lon="34.6756425347"><ele>188.0</ele><time>2026-08-14T00:42:18.970Z</time><hdop>3.0</hdop><vdop>8.187</vdop><extensions><gom:speed>0.146</gom:speed></extensions></trkpt>
   <trkpt lat="59.3465235897" lon="34.6754847873"><ele>190.524</ele><time>2026-08-14T00:42:42.611Z</time><hdop>3.0</hdop><vdop>7.875</vdop><extensions><gom:speed>0.129</gom:speed></extensions></trkpt>
   <trkpt lat="59.3465608892" lon="34.6753244415"><ele>190.706</ele><time>2026-08-14T00:42:57.865Z</time><hdop>3.125</hdop><vdop>7.25</vdop><extensions><gom:speed>0.313</gom:speed></extensions></trkpt>
   <trkpt lat="59.3465699836" lon="34.6751487568"><ele>187.228</ele><time>2026-08-14T00:43:18.594Z</time><hdop>3.0</hdop><vdop>8.562</vdop><extensions><gom:speed>0.542</gom:speed></extensions></trkpt>
   <trkpt lat="59.3466300818" lon="34.6750098687"><ele>184.638</ele><time>2026-08-14T00:44:16.115Z</time><hdop>3.0</hdop><vdop>7.875</vdop><extensions><gom:speed>0.402</gom:speed></extensions></trkpt>
   <trkpt lat="59.3466948739" lon="34.6748866547"><ele>189.61</ele><time>2026-08-14T00:44:45.134Z</time><hdop>3.0</hdop><vdop>7.5</vdop><extensions><gom:speed>0.588</gom:speed></extensions></trkpt>
   <trkpt lat="59.3466931975" lon="34.6747099642"><ele>187.807</ele><time>2026-08-14T00:45:21.098Z</time><hdop>3.0</hdop><vdop>9.062</vdop><extensions><gom:speed>0.401</gom:speed></extensions></trkpt>
   <trkpt lat="59.3466670879" lon="34.674527574"><ele>186.999</ele><time>2026-08-14T00:45:46.075Z</time><hdop>3.0</hdop><vdop>8.687</vdop><extensions><gom:speed>0.566</gom:speed></extensions></trkpt>
   <trkpt lat="59.3466915631" lon="34.6743502967"><ele>188.119</ele><time>2026-08-14T00:46:11.033Z</time><hdop>3.0</hdop><vdop>9.187</vdop><extensions><gom:speed>0.489</gom:speed></extensions></trkpt>
   <trkpt lat="59.346701789" lon="34.6741714269"><ele>188.734</ele><time>2026-08-14T00:46:25.392Z</time><hdop>3.0</hdop><vdop>7.375</vdop><extensions><gom:speed>0.812</gom:speed></extensions></trkpt>
   <trkpt lat="59.3466537607" lon="34.6740200497"><ele>187.064</ele><time>2026-08-14T00:46:48.111Z</time><hdop>3.0</hdop><vdop>7.75</vdop><extensions><gom:speed>0.315</gom:speed></extensions></trkpt>
   <trkpt lat="59.3466971789" lon="34.6738648169"><ele>186.825</ele><time>2026-08-14T00:47:03.912Z</time><hdop>3.0</hdop><vdop>8.5</vdop><extensions><gom:speed>0.481</gom:speed></extensions></trkpt>
   <trkpt lat="59.3466460912" lon="34.6737106737"><ele>189.13</ele><time>2026-08-14T00:47:32.611Z</time><hdop>3.0</hdop><vdop>9.187</vdop><extensions><gom:speed>0.692</gom:speed></extensions></trkpt>
   <trkpt lat="59.3466780682" lon="34.673534989"><ele>190.772</ele><time>2026-08-14T00:48:03.151Z</time><hdop>3.0</hdop><vdop>10.0</vdop><extensions><gom:speed>0.485</gom:speed></extensions></trkpt>
   <trkpt lat="59.3466638609" lon="34.673350168"><ele>189.986</ele><time>2026-08-14T00:48:11.066Z</time><hdop>3.0</hdop><vdop>9.562</vdop><extensions><gom:speed>0.836</gom:speed></extensions></trkpt>
   <trkpt lat="59.3466877912" lon="34.6731708791"><ele>192.593</ele><time>2026-08-14T00:48:27.038Z</time><hdop>3.0</hdop><vdop>10.562</vdop><extensions><gom:speed>0.699</gom:speed></extensions></trkpt>
   <trkpt lat="59.3466921917" lon="34.6729838789"><ele>191.123</ele><time>2026-08-14T00:49:16.113Z</time><hdop>3.0</hdop><vdop>10.687</vdop><extensions><gom:speed>0.662</gom:speed></extensions></trkpt>
   <trkpt lat="59.3466947901" lon="34.6728076913"><ele>189.498</ele><time>2026-08-14T00:49:37.085Z</time><hdop>3.0</hdop><vdop>11.25</vdop><extensions><gom:speed>0.444</gom:speed></extensions></trkpt>
   <trkpt lat="59.3467219894" lon="34.6726377901"><ele>189.319</ele><time>2026-08-14T00:49:47.991Z</time><hdop>3.0</hdop><vdop>11.25</vdop><extensions><gom:speed>0.791</gom:speed></extensions></trkpt>
   <trkpt lat="59.3467777709" lon="34.6724914421"><ele>191.226</ele><time>2026-08-14T00:50:21.132Z</time><hdop>3.0</hdop><vdop>10.062</vdop><extensions><gom:speed>0.403</gom:speed></extensions></trkpt>
   <trkpt lat="59.3467450815" lon="34.6723259833"><ele>191.021</ele><time>2026-08-14T00:50:57.094Z</time><hdop>3.0</hdop><vdop>9.5</vdop><extensions><gom:speed>0.741</gom:speed></extensions></trkpt>
   <trkpt lat="59.3467615939" lon="34.6721494604"><ele>193.655</ele><time>2026-08-14T00:51:09.115Z</time><hdop>3.0</hdop><vdop>8.875</vdop><extensions><gom:speed>0.849</gom:speed></extensions></trkpt>
   <trkpt lat="59.3467510746" lon="34.6719709259"><ele>192.094</ele><time>2026-08-14T00:51:20.870Z</time><hdop>3.0</hdop><vdop>9.25</vdop><extensions><gom:speed>0.859</gom:speed></extensions></trkpt>
   <trkpt lat="59.3468273918" lon="34.6718731929"><ele>192.466</ele><time>2026-08-14T00:51:37.097Z</time><hdop>3.0</hdop><vdop>9.5</vdop><extensions><gom:speed>0.656</gom:speed></extensions></trkpt>
   <trkpt lat="59.3468444909" lon="34.6716951613"><ele>190.74</ele><time>2026-08-14T00:52:06.550Z</time><hdop>3.0</hdop><vdop>10.25</vdop><extensions><gom:speed>0.97</gom:speed></extensions></trkpt>
   <trkpt lat="59.3468109633" lon="34.6715284452"><ele>186.832</ele><time>2026-08-14T00:52:43.572Z</time><hdop>3.0</hdop><vdop>10.0</vdop><extensions><gom:speed>0.702</gom:speed></extensions></trkpt>
   <trkpt lat="59.3468354803" lon="34.6713470608"><ele>187.014</ele><time>2026-08-14T00:52:58.039Z</time><hdop>3.0</hdop><vdop>9.562</vdop><extensions><gom:speed>0.68</gom:speed></extensions></trkpt>
   <trkpt lat="59.3468514898" lon="34.6711694483"><ele>185.822</ele><time>2026-08-14T00:53:12.134Z</time><hdop>3.0</hdop><vdop>9.687</vdop><extensions><gom:speed>0.857</gom:speed></extensions></trkpt>
   <trkpt lat="59.3468794853" lon="34.6710007206"><ele>186.89</ele><time>2026-08-14T00:53:24.952Z</time><hdop>3.0</hdop><vdop>9.062</vdop><extensions><gom:speed>0.622</gom:speed></extensions></trkpt>
   <trkpt lat="59.3468938603" lon="34.6708214317"><ele>187.106</ele><time>2026-08-14T00:53:37.651Z</time><hdop>3.0</hdop><vdop>9.0</vdop><extensions><gom:speed>0.967</gom:speed></extensions></trkpt>
   <trkpt lat="59.3468595783" lon="34.6706565596"><ele>186.176</ele><time>2026-08-14T00:53:55.091Z</time><hdop>3.0</hdop><vdop>9.687</vdop><extensions><gom:speed>0.679</gom:speed></extensions></trkpt>
   <trkpt lat="59.3468607937" lon="34.6704688888"><ele>185.99</ele><time>2026-08-14T00:54:10.066Z</time><hdop>3.0</hdop><vdop>10.0</vdop><extensions><gom:speed>0.754</gom:speed></extensions></trkpt>
   <trkpt lat="59.3468039644" lon="34.6703302521"><ele>186.615</ele><time>2026-08-14T00:54:52.892Z</time><hdop>3.0</hdop><vdop>11.187</vdop><extensions><gom:speed>0.798</gom:speed></extensions></trkpt>
   <trkpt lat="59.3468482627" lon="34.6701706607"><ele>185.469</ele><time>2026-08-14T00:55:10.850Z</time><hdop>3.0</hdop><vdop>9.187</vdop><extensions><gom:speed>0.624</gom:speed></extensions></trkpt>
   <trkpt lat="59.3469124681" lon="34.6700146735"><ele>187.088</ele><time>2026-08-14T00:55:24.064Z</time><hdop>3.0</hdop><vdop>10.0</vdop><extensions><gom:speed>0.957</gom:speed></extensions></trkpt>
   <trkpt lat="59.3469566827" lon="34.6698602788"><ele>190.187</ele><time>2026-08-14T00:55:32.312Z</time><hdop>3.0</hdop><vdop>10.25</vdop><extensions><gom:speed>1.022</gom:speed></extensions></trkpt>
   <trkpt lat="59.3470138891" lon="34.6697157748"><ele>196.912</ele><time>2026-08-14T00:55:55.791Z</time><hdop>3.0</hdop><vdop>10.187</vdop><extensions><gom:speed>0.69</gom:speed></extensions></trkpt>
   <trkpt lat="59.3470844648" lon="34.6696011942"><ele>193.634</ele><time>2026-08-14T00:56:10.790Z</time><hdop>3.0</hdop><vdop>10.75</vdop><extensions><gom:speed>0.709</gom:speed></extensions></trkpt>
   <trkpt lat="59.3471514781" lon="34.6694760524"><ele>194.765</ele><time>2026-08-14T00:56:28.112Z</time><hdop>3.0</hdop><vdop>9.562</vdop><extensions><gom:speed>0.864</gom:speed></extensions></trkpt>
   <trkpt lat="59.3471318644" lon="34.6692996971"><ele>191.897</ele><time>2026-08-14T00:56:38.451Z</time><hdop>3.0</hdop><vdop>11.5</vdop><extensions><gom:speed>0.947</gom:speed></extensions></trkpt>
   <trkpt lat="59.347112167" lon="34.6691178937"><ele>188.207</ele><time>2026-08-14T00:56:54.125Z</time><hdop>3.0</hdop><vdop>10.5</vdop><extensions><gom:speed>0.747</gom:speed></extensions></trkpt>
   <trkpt lat="59.3471617878" lon="34.6689587213"><ele>185.974</ele><time>2026-08-14T00:57:04.671Z</time><hdop>3.0</hdop><vdop>10.562</vdop><extensions><gom:speed>0.967</gom:speed></extensions></trkpt>
   <trkpt lat="59.3472132946" lon="34.6688065898"><ele>184.311</ele><time>2026-08-14T00:57:26.492Z</time><hdop>3.0</hdop><vdop>11.187</vdop><extensions><gom:speed>0.455</gom:speed></extensions></trkpt>
   <trkpt lat="59.3472534858" lon="34.6686345931"><ele>189.905</ele><time>2026-08-14T00:57:48.529Z</time><hdop>3.0</hdop><vdop>10.562</vdop><extensions><gom:speed>0.316</gom:speed></extensions></trkpt>
   <trkpt lat="59.3472470737" lon="34.6684461679"><ele>190.47</ele><time>2026-08-14T00:58:00.834Z</time><hdop>3.0</hdop><vdop>9.875</vdop><extensions><gom:speed>0.601</gom:speed></extensions></trkpt>
   <trkpt lat="59.3472999635" lon="34.6682808768"><ele>189.107</ele><time>2026-08-14T00:58:12.950Z</time><hdop>3.0</hdop><vdop>11.562</vdop><extensions><gom:speed>0.667</gom:speed></extensions></trkpt>
   <trkpt lat="59.347316392" lon="34.6681041863"><ele>191.007</ele><time>2026-08-14T00:58:42.115Z</time><hdop>3.0</hdop><vdop>11.375</vdop><extensions><gom:speed>0.612</gom:speed></extensions></trkpt>
   <trkpt lat="59.3473929607" lon="34.6679980714"><ele>186.361</ele><time>2026-08-14T00:59:25.124Z</time><hdop>3.0</hdop><vdop>9.562</vdop><extensions><gom:speed>0.46</gom:speed></extensions></trkpt>
   <trkpt lat="59.3473201639" lon="34.667871337"><ele>189.567</ele><time>2026-08-14T00:59:50.101Z</time><hdop>3.0</hdop><vdop>11.0</vdop><extensions><gom:speed>0.641</gom:speed></extensions></trkpt>
   <trkpt lat="59.3474229679" lon="34.6678858377"><ele>191.586</ele><time>2026-08-14T01:00:15.076Z</time><hdop>3.0</hdop><vdop>9.562</vdop><extensions><gom:speed>0.019</gom:speed></extensions></trkpt>
   <trkpt lat="59.3473732632" lon="34.6677011844"><ele>193.633</ele><time>2026-08-14T01:00:51.039Z</time><hdop>3.0</hdop><vdop>8.5</vdop><extensions><gom:speed>0.502</gom:speed></extensions></trkpt>
   <trkpt lat="59.3474091797" lon="34.6675344683"><ele>193.947</ele><time>2026-08-14T01:01:31.045Z</time><hdop>3.0</hdop><vdop>10.562</vdop><extensions><gom:speed>0.169</gom:speed></extensions></trkpt>
   <trkpt lat="59.3473739757" lon="34.6673711889"><ele>194.568</ele><time>2026-08-14T01:01:57.059Z</time><hdop>3.0</hdop><vdop>11.0</vdop><extensions><gom:speed>0.674</gom:speed></extensions></trkpt>
   <trkpt lat="59.3473448905" lon="34.6672017906"><ele>195.824</ele><time>2026-08-14T01:02:14.058Z</time><hdop>3.0</hdop><vdop>10.5</vdop><extensions><gom:speed>0.819</gom:speed></extensions></trkpt>
   <trkpt lat="59.3472871811" lon="34.6670508325"><ele>193.985</ele><time>2026-08-14T01:02:29.086Z</time><hdop>3.0</hdop><vdop>10.75</vdop><extensions><gom:speed>0.853</gom:speed></extensions></trkpt>
   <trkpt lat="59.3472041583" lon="34.666959386"><ele>193.685</ele><time>2026-08-14T01:03:10.694Z</time><hdop>3.0</hdop><vdop>9.562</vdop><extensions><gom:speed>0.394</gom:speed></extensions></trkpt>
   <trkpt lat="59.3471758694" lon="34.6667755708"><ele>195.535</ele><time>2026-08-14T01:03:25.934Z</time><hdop>3.0</hdop><vdop>10.187</vdop><extensions><gom:speed>0.83</gom:speed></extensions></trkpt>
   <trkpt lat="59.3471452755" lon="34.6666038256"><ele>191.733</ele><time>2026-08-14T01:03:36.036Z</time><hdop>3.0</hdop><vdop>10.875</vdop><extensions><gom:speed>0.779</gom:speed></extensions></trkpt>
   <trkpt lat="59.3470670723" lon="34.6665112894"><ele>188.074</ele><time>2026-08-14T01:04:00.737Z</time><hdop>3.437</hdop><vdop>10.0</vdop><extensions><gom:speed>0.56</gom:speed></extensions></trkpt>
   <trkpt lat="59.3469747876" lon="34.6664728165"><ele>186.531</ele><time>2026-08-14T01:04:15.718Z</time><hdop>3.0</hdop><vdop>11.687</vdop><extensions><gom:speed>0.559</gom:speed></extensions></trkpt>
   <trkpt lat="59.3468858975" lon="34.666416071"><ele>191.237</ele><time>2026-08-14T01:04:28.575Z</time><hdop>3.0</hdop><vdop>9.187</vdop><extensions><gom:speed>0.614</gom:speed></extensions></trkpt>
   <trkpt lat="59.3467903857" lon="34.6664217707"><ele>193.435</ele><time>2026-08-14T01:04:58.778Z</time><hdop>3.0</hdop><vdop>11.5</vdop><extensions><gom:speed>0.315</gom:speed></extensions></trkpt>
   <trkpt lat="59.3467083688" lon="34.6665054221"><ele>190.956</ele><time>2026-08-14T01:05:55.036Z</time><hdop>3.312</hdop><vdop>13.25</vdop><extensions><gom:speed>1.674</gom:speed></extensions></trkpt>
   <trkpt lat="59.3467611748" lon="34.6663559727"><ele>189.698</ele><time>2026-08-14T01:06:08.092Z</time><hdop>3.0</hdop><vdop>11.062</vdop><extensions><gom:speed>0.628</gom:speed></extensions></trkpt>
   <trkpt lat="59.3467620968" lon="34.6665382791"><ele>199.337</ele><time>2026-08-14T01:07:16.086Z</time><hdop>3.0</hdop><vdop>8.375</vdop><extensions><gom:speed>0.34</gom:speed></extensions></trkpt>
   <trkpt lat="59.3467224923" lon="34.6666972838"><ele>195.256</ele><time>2026-08-14T01:07:43.037Z</time><hdop>3.0</hdop><vdop>8.5</vdop><extensions><gom:speed>0.444</gom:speed></extensions></trkpt>
   <trkpt lat="59.3467108833" lon="34.6668736391"><ele>194.226</ele><time>2026-08-14T01:07:53.775Z</time><hdop>3.0</hdop><vdop>8.562</vdop><extensions><gom:speed>0.421</gom:speed></extensions></trkpt>
   <trkpt lat="59.3466842708" lon="34.6670551911"><ele>193.209</ele><time>2026-08-14T01:08:11.095Z</time><hdop>3.0</hdop><vdop>8.875</vdop><extensions><gom:speed>0.59</gom:speed></extensions></trkpt>
   <trkpt lat="59.3466457979" lon="34.667218722"><ele>192.647</ele><time>2026-08-14T01:08:31.477Z</time><hdop>3.0</hdop><vdop>8.75</vdop><extensions><gom:speed>0.565</gom:speed></extensions></trkpt>
   <trkpt lat="59.3466349852" lon="34.6674234919"><ele>197.687</ele><time>2026-08-14T01:09:07.497Z</time><hdop>3.0</hdop><vdop>8.187</vdop><extensions><gom:speed>0.444</gom:speed></extensions></trkpt>
   <trkpt lat="59.3466462589" lon="34.6675995957"><ele>198.743</ele><time>2026-08-14T01:09:21.735Z</time><hdop>3.0</hdop><vdop>9.0</vdop><extensions><gom:speed>0.082</gom:speed></extensions></trkpt>
   <trkpt lat="59.3466332669" lon="34.6677841652"><ele>200.44</ele><time>2026-08-14T01:09:31.295Z</time><hdop>3.0</hdop><vdop>8.562</vdop><extensions><gom:speed>0.749</gom:speed></extensions></trkpt>
   <trkpt lat="59.3466165869" lon="34.6679694891"><ele>200.616</ele><time>2026-08-14T01:09:46.076Z</time><hdop>3.0</hdop><vdop>9.25</vdop><extensions><gom:speed>0.512</gom:speed></extensions></trkpt>
   <trkpt lat="59.3466018767" lon="34.668148778"><ele>196.531</ele><time>2026-08-14T01:09:59.715Z</time><hdop>3.0</hdop><vdop>9.062</vdop><extensions><gom:speed>0.683</gom:speed></extensions></trkpt>
   <trkpt lat="59.3465600929" lon="34.6683064416"><ele>196.859</ele><time>2026-08-14T01:10:17.935Z</time><hdop>3.0</hdop><vdop>9.187</vdop><extensions><gom:speed>0.659</gom:speed></extensions></trkpt>
   <trkpt lat="59.3465077898" lon="34.6684500236"><ele>191.403</ele><time>2026-08-14T01:10:34.069Z</time><hdop>3.0</hdop><vdop>10.187</vdop><extensions><gom:speed>0.171</gom:speed></extensions></trkpt>
   <trkpt lat="59.3465198598" lon="34.6686313242"><ele>190.912</ele><time>2026-08-14T01:10:46.093Z</time><hdop>3.0</hdop><vdop>9.75</vdop><extensions><gom:speed>0.812</gom:speed></extensions></trkpt>
   <trkpt lat="59.3465482744" lon="34.6688022312"><ele>195.055</ele><time>2026-08-14T01:11:22.061Z</time><hdop>3.0</hdop><vdop>9.187</vdop><extensions><gom:speed>0.305</gom:speed></extensions></trkpt>
   <trkpt lat="59.3464949655" lon="34.6689611521"><ele>198.944</ele><time>2026-08-14T01:11:45.456Z</time><hdop>3.0</hdop><vdop>8.875</vdop><extensions><gom:speed>0.357</gom:speed></extensions></trkpt>
   <trkpt lat="59.3464228812" lon="34.6690772414"><ele>201.726</ele><time>2026-08-14T01:11:56.495Z</time><hdop>3.0</hdop><vdop>8.875</vdop><extensions><gom:speed>0.771</gom:speed></extensions></trkpt>
   <trkpt lat="59.3463624895" lon="34.6692137826"><ele>196.638</ele><time>2026-08-14T01:12:16.035Z</time><hdop>3.0</hdop><vdop>9.5</vdop><extensions><gom:speed>0.542</gom:speed></extensions></trkpt>
   <trkpt lat="59.3463624895" lon="34.6693928201"><ele>195.534</ele><time>2026-08-14T01:12:27.056Z</time><hdop>3.0</hdop><vdop>9.187</vdop><extensions><gom:speed>0.418</gom:speed></extensions></trkpt>
   <trkpt lat="59.346322885" lon="34.6695602905"><ele>198.859</ele><time>2026-08-14T01:13:05.097Z</time><hdop>3.75</hdop><vdop>9.5</vdop><extensions><gom:speed>0.57</gom:speed></extensions></trkpt>
   <trkpt lat="59.3463211668" lon="34.6697370649"><ele>195.779</ele><time>2026-08-14T01:13:17.816Z</time><hdop>3.0</hdop><vdop>9.562</vdop><extensions><gom:speed>0.522</gom:speed></extensions></trkpt>
   <trkpt lat="59.3463213763" lon="34.6699144259"><ele>195.728</ele><time>2026-08-14T01:13:34.654Z</time><hdop>3.0</hdop><vdop>10.0</vdop><extensions><gom:speed>0.559</gom:speed></extensions></trkpt>
   <trkpt lat="59.3463584662" lon="34.6700850815"><ele>195.406</ele><time>2026-08-14T01:13:54.835Z</time><hdop>3.0</hdop><vdop>9.062</vdop><extensions><gom:speed>0.27</gom:speed></extensions></trkpt>
   <trkpt lat="59.3464226716" lon="34.670211732"><ele>196.945</ele><time>2026-08-14T01:14:05.117Z</time><hdop>3.0</hdop><vdop>9.062</vdop><extensions><gom:speed>0.463</gom:speed></extensions></trkpt>
   <trkpt lat="59.3463882639" lon="34.6703985646"><ele>193.301</ele><time>2026-08-14T01:14:31.033Z</time><hdop>3.125</hdop><vdop>9.562</vdop><extensions><gom:speed>0.488</gom:speed></extensions></trkpt>
   <trkpt lat="59.3463265731" lon="34.6705328427"><ele>186.242</ele><time>2026-08-14T01:14:49.069Z</time><hdop>3.0</hdop><vdop>9.687</vdop><extensions><gom:speed>0.305</gom:speed></extensions></trkpt>
   <trkpt lat="59.3463001701" lon="34.6707038336"><ele>185.455</ele><time>2026-08-14T01:15:09.797Z</time><hdop>3.0</hdop><vdop>10.062</vdop><extensions><gom:speed>0.509</gom:speed></extensions></trkpt>
   <trkpt lat="59.3463468992" lon="34.6708672807"><ele>190.305</ele><time>2026-08-14T01:15:25.515Z</time><hdop>3.0</hdop><vdop>9.5</vdop><extensions><gom:speed>0.466</gom:speed></extensions></trkpt>
   <trkpt lat="59.3463570832" lon="34.6710448932"><ele>190.297</ele><time>2026-08-14T01:15:35.095Z</time><hdop>3.0</hdop><vdop>9.375</vdop><extensions><gom:speed>0.533</gom:speed></extensions></trkpt>
   <trkpt lat="59.3463554906" lon="34.6712438796"><ele>190.442</ele><time>2026-08-14T01:15:58.436Z</time><hdop>3.062</hdop><vdop>10.75</vdop><extensions><gom:speed>0.28</gom:speed></extensions></trkpt>
   <trkpt lat="59.3462908662" lon="34.6713681832"><ele>188.91</ele><time>2026-08-14T01:16:09.755Z</time><hdop>3.0</hdop><vdop>9.875</vdop><extensions><gom:speed>0.628</gom:speed></extensions></trkpt>
   <trkpt lat="59.346208975" lon="34.6714629825"><ele>186.367</ele><time>2026-08-14T01:16:20.238Z</time><hdop>3.0</hdop><vdop>9.187</vdop><extensions><gom:speed>0.746</gom:speed></extensions></trkpt>
   <trkpt lat="59.3461324901" lon="34.6715686783"><ele>187.88</ele><time>2026-08-14T01:16:29.615Z</time><hdop>3.0</hdop><vdop>9.187</vdop><extensions><gom:speed>0.619</gom:speed></extensions></trkpt>
   <trkpt lat="59.346121887" lon="34.6717444468"><ele>188.724</ele><time>2026-08-14T01:17:00.095Z</time><hdop>3.0</hdop><vdop>11.25</vdop><extensions><gom:speed>0.16</gom:speed></extensions></trkpt>
   <trkpt lat="59.3461123735" lon="34.6719520666"><ele>191.403</ele><time>2026-08-14T01:17:38.394Z</time><hdop>3.0</hdop><vdop>10.687</vdop><extensions><gom:speed>0.126</gom:speed></extensions></trkpt>
   <trkpt lat="59.3461217613" lon="34.672150131"><ele>193.848</ele><time>2026-08-14T01:17:55.795Z</time><hdop>3.0</hdop><vdop>9.375</vdop><extensions><gom:speed>0.592</gom:speed></extensions></trkpt>
   <trkpt lat="59.3460515628" lon="34.6722817268"><ele>195.466</ele><time>2026-08-14T01:18:36.676Z</time><hdop>3.125</hdop><vdop>9.875</vdop><extensions><gom:speed>0.136</gom:speed></extensions></trkpt>
   <trkpt lat="59.3459592781" lon="34.6722961437"><ele>196.251</ele><time>2026-08-14T01:19:25.014Z</time><hdop>3.062</hdop><vdop>10.0</vdop><extensions><gom:speed>0.242</gom:speed></extensions></trkpt>
   <trkpt lat="59.3458754591" lon="34.6723671384"><ele>195.121</ele><time>2026-08-14T01:19:36.634Z</time><hdop>3.0</hdop><vdop>8.562</vdop><extensions><gom:speed>0.585</gom:speed></extensions></trkpt>
   <trkpt lat="59.3458472959" lon="34.6725378778"><ele>191.517</ele><time>2026-08-14T01:19:52.797Z</time><hdop>3.0</hdop><vdop>9.062</vdop><extensions><gom:speed>0.696</gom:speed></extensions></trkpt>
   <trkpt lat="59.3458000638" lon="34.6726897579"><ele>187.654</ele><time>2026-08-14T01:20:12.016Z</time><hdop>3.0</hdop><vdop>8.375</vdop><extensions><gom:speed>0.702</gom:speed></extensions></trkpt>
   <trkpt lat="59.3457973816" lon="34.6728688792"><ele>187.756</ele><time>2026-08-14T01:20:25.036Z</time><hdop>3.0</hdop><vdop>9.25</vdop><extensions><gom:speed>0.834</gom:speed></extensions></trkpt>
   <trkpt lat="59.3457137721" lon="34.6729480881"><ele>186.618</ele><time>2026-08-14T01:20:37.518Z</time><hdop>3.0</hdop><vdop>9.062</vdop><extensions><gom:speed>0.652</gom:speed></extensions></trkpt>
   <trkpt lat="59.3457153647" lon="34.6731253654"><ele>186.041</ele><time>2026-08-14T01:21:15.094Z</time><hdop>3.0</hdop><vdop>8.5</vdop><extensions><gom:speed>0.478</gom:speed></extensions></trkpt>
   <trkpt lat="59.3457033786" lon="34.6733017206"><ele>183.943</ele><time>2026-08-14T01:21:29.118Z</time><hdop>3.0</hdop><vdop>8.562</vdop><extensions><gom:speed>0.658</gom:speed></extensions></trkpt>
   <trkpt lat="59.3457613814" lon="34.6734418661"><ele>185.076</ele><time>2026-08-14T01:21:43.375Z</time><hdop>3.0</hdop><vdop>8.375</vdop><extensions><gom:speed>0.543</gom:speed></extensions></trkpt>
   <trkpt lat="59.3457531671" lon="34.673629453"><ele>188.113</ele><time>2026-08-14T01:22:18.130Z</time><hdop>3.0</hdop><vdop>10.0</vdop><extensions><gom:speed>0.304</gom:speed></extensions></trkpt>
   <trkpt lat="59.3457565618" lon="34.6738162857"><ele>183.809</ele><time>2026-08-14T01:22:39.071Z</time><hdop>3.0</hdop><vdop>9.062</vdop><extensions><gom:speed>0.601</gom:speed></extensions></trkpt>
   <trkpt lat="59.3457146942" lon="34.673978224"><ele>182.721</ele><time>2026-08-14T01:22:48.917Z</time><hdop>3.0</hdop><vdop>7.875</vdop><extensions><gom:speed>0.554</gom:speed></extensions></trkpt>
   <trkpt lat="59.3457368643" lon="34.6741504721"><ele>179.488</ele><time>2026-08-14T01:23:07.978Z</time><hdop>3.0</hdop><vdop>8.25</vdop><extensions><gom:speed>0.603</gom:speed></extensions></trkpt>
   <trkpt lat="59.3457531671" lon="34.6743305992"><ele>179.222</ele><time>2026-08-14T01:23:21.052Z</time><hdop>3.0</hdop><vdop>7.687</vdop><extensions><gom:speed>0.738</gom:speed></extensions></trkpt>
   <trkpt lat="59.345811589" lon="34.6744670566"><ele>182.087</ele><time>2026-08-14T01:23:49.040Z</time><hdop>3.0</hdop><vdop>8.25</vdop><extensions><gom:speed>0.652</gom:speed></extensions></trkpt>
   <trkpt lat="59.3458270955" lon="34.6746417355"><ele>182.951</ele><time>2026-08-14T01:24:05.107Z</time><hdop>3.0</hdop><vdop>8.562</vdop><extensions><gom:speed>0.618</gom:speed></extensions></trkpt>
   <trkpt lat="59.3457820847" lon="34.6748141512"><ele>181.473</ele><time>2026-08-14T01:24:41.075Z</time><hdop>3.0</hdop><vdop>8.187</vdop><extensions><gom:speed>0.146</gom:speed></extensions></trkpt>
   <trkpt lat="59.3457326733" lon="34.6749613375"><ele>183.342</ele><time>2026-08-14T01:25:06.797Z</time><hdop>3.0</hdop><vdop>8.187</vdop><extensions><gom:speed>0.338</gom:speed></extensions></trkpt>
   <trkpt lat="59.3457192623" lon="34.6751376927"><ele>183.526</ele><time>2026-08-14T01:25:39.123Z</time><hdop>3.0</hdop><vdop>8.875</vdop><extensions><gom:speed>0.432</gom:speed></extensions></trkpt>
   <trkpt lat="59.3457124729" lon="34.6753139641"><ele>181.476</ele><time>2026-08-14T01:25:50.112Z</time><hdop>3.0</hdop><vdop>10.25</vdop><extensions><gom:speed>0.529</gom:speed></extensions></trkpt>
   <trkpt lat="59.3456765984" lon="34.6754769921"><ele>178.705</ele><time>2026-08-14T01:26:05.660Z</time><hdop>3.0</hdop><vdop>9.75</vdop><extensions><gom:speed>0.471</gom:speed></extensions></trkpt>
   <trkpt lat="59.3456312942" lon="34.6756364998"><ele>186.042</ele><time>2026-08-14T01:26:40.036Z</time><hdop>3.0</hdop><vdop>10.875</vdop><extensions><gom:speed>0.329</gom:speed></extensions></trkpt>
   <trkpt lat="59.3456284863" lon="34.6758302894"><ele>190.318</ele><time>2026-08-14T01:27:12.654Z</time><hdop>3.25</hdop><vdop>10.062</vdop><extensions><gom:speed>0.849</gom:speed></extensions></trkpt>
   <trkpt lat="59.3456361976" lon="34.6760085724"><ele>193.88</ele><time>2026-08-14T01:27:20.735Z</time><hdop>3.0</hdop><vdop>12.062</vdop><extensions><gom:speed>0.775</gom:speed></extensions></trkpt>
   <trkpt lat="59.3456790711" lon="34.6761725225"><ele>197.968</ele><time>2026-08-14T01:27:32.076Z</time><hdop>3.0</hdop><vdop>12.562</vdop><extensions><gom:speed>0.756</gom:speed></extensions></trkpt>
   <trkpt lat="59.345704091" lon="34.6763484586"><ele>195.134</ele><time>2026-08-14T01:27:41.537Z</time><hdop>3.0</hdop><vdop>11.687</vdop><extensions><gom:speed>0.869</gom:speed></extensions></trkpt>
   <trkpt lat="59.3457101679" lon="34.6765264902"><ele>188.968</ele><time>2026-08-14T01:27:50.159Z</time><hdop>3.0</hdop><vdop>12.062</vdop><extensions><gom:speed>0.878</gom:speed></extensions></trkpt>
   <trkpt lat="59.3456977627" lon="34.6767098863"><ele>184.016</ele><time>2026-08-14T01:27:58.874Z</time><hdop>3.0</hdop><vdop>10.687</vdop><extensions><gom:speed>0.899</gom:speed></extensions></trkpt>
   <trkpt lat="59.3456759698" lon="34.6768812962"><ele>181.916</ele><time>2026-08-14T01:28:09.942Z</time><hdop>3.0</hdop><vdop>11.062</vdop><extensions><gom:speed>0.845</gom:speed></extensions></trkpt>
   <trkpt lat="59.3457602917" lon="34.6769638579"><ele>188.721</ele><time>2026-08-14T01:29:25.087Z</time><hdop>3.062</hdop><vdop>12.187</vdop><extensions><gom:speed>0.153</gom:speed></extensions></trkpt>
   <trkpt lat="59.3456715693" lon="34.6770284824"><ele>190.187</ele><time>2026-08-14T01:31:12.693Z</time><hdop>3.0</hdop><vdop>9.25</vdop><extensions><gom:speed>0.499</gom:speed></extensions></trkpt>
   <trkpt lat="59.3455788654" lon="34.6770058513"><ele>192.17</ele><time>2026-08-14T01:31:32.063Z</time><hdop>3.0</hdop><vdop>8.562</vdop><extensions><gom:speed>0.074</gom:speed></extensions></trkpt>
   <trkpt lat="59.3454928671" lon="34.6770589925"><ele>190.36</ele><time>2026-08-14T01:32:02.875Z</time><hdop>3.0</hdop><vdop>9.875</vdop><extensions><gom:speed>0.619</gom:speed></extensions></trkpt>
   <trkpt lat="59.3454366664" lon="34.6772438973"><ele>190.547</ele><time>2026-08-14T01:32:35.533Z</time><hdop>4.375</hdop><vdop>10.687</vdop><extensions><gom:speed>0.693</gom:speed></extensions></trkpt>
   <trkpt lat="59.3453908593" lon="34.6774053328"><ele>191.775</ele><time>2026-08-14T01:32:44.852Z</time><hdop>3.0</hdop><vdop>9.187</vdop><extensions><gom:speed>0.793</gom:speed></extensions></trkpt>
   <trkpt lat="59.3454168851" lon="34.6776022237"><ele>191.17</ele><time>2026-08-14T01:33:16.535Z</time><hdop>4.687</hdop><vdop>9.062</vdop><extensions><gom:speed>0.566</gom:speed></extensions></trkpt>
   <trkpt lat="59.345396559" lon="34.677789224"><ele>190.732</ele><time>2026-08-14T01:33:27.536Z</time><hdop>3.0</hdop><vdop>8.75</vdop><extensions><gom:speed>0.713</gom:speed></extensions></trkpt>
   <trkpt lat="59.3454105987" lon="34.6779651601"><ele>191.332</ele><time>2026-08-14T01:33:38.103Z</time><hdop>3.0</hdop><vdop>9.25</vdop><extensions><gom:speed>0.646</gom:speed></extensions></trkpt>
   <trkpt lat="59.3453739698" lon="34.6781265956"><ele>186.917</ele><time>2026-08-14T01:33:56.033Z</time><hdop>3.0</hdop><vdop>9.875</vdop><extensions><gom:speed>0.649</gom:speed></extensions></trkpt>
   <trkpt lat="59.3454236745" lon="34.6782985922"><ele>188.021</ele><time>2026-08-14T01:34:21.393Z</time><hdop>3.0</hdop><vdop>9.187</vdop><extensions><gom:speed>0.451</gom:speed></extensions></trkpt>
   <trkpt lat="59.3454308829" lon="34.678485341"><ele>186.438</ele><time>2026-08-14T01:34:32.860Z</time><hdop>3.0</hdop><vdop>9.187</vdop><extensions><gom:speed>0.743</gom:speed></extensions></trkpt>
   <trkpt lat="59.345416969" lon="34.6786696591"><ele>185.761</ele><time>2026-08-14T01:34:42.052Z</time><hdop>3.0</hdop><vdop>10.0</vdop><extensions><gom:speed>1.022</gom:speed></extensions></trkpt>
   <trkpt lat="59.345411395" lon="34.6788553182"><ele>189.254</ele><time>2026-08-14T01:34:56.962Z</time><hdop>3.0</hdop><vdop>9.25</vdop><extensions><gom:speed>0.894</gom:speed></extensions></trkpt>
   <trkpt lat="59.3454207827" lon="34.6790390495"><ele>190.61</ele><time>2026-08-14T01:35:10.582Z</time><hdop>3.0</hdop><vdop>9.5</vdop><extensions><gom:speed>0.625</gom:speed></extensions></trkpt>
   <trkpt lat="59.3453968943" lon="34.6792161592"><ele>189.635</ele><time>2026-08-14T01:35:22.882Z</time><hdop>3.0</hdop><vdop>8.375</vdop><extensions><gom:speed>0.906</gom:speed></extensions></trkpt>
   <trkpt lat="59.3453381791" lon="34.6793608308"><ele>190.461</ele><time>2026-08-14T01:35:30.758Z</time><hdop>3.0</hdop><vdop>9.562</vdop><extensions><gom:speed>0.978</gom:speed></extensions></trkpt>
   <trkpt lat="59.3453212895" lon="34.6795377728"><ele>190.431</ele><time>2026-08-14T01:35:45.660Z</time><hdop>3.0</hdop><vdop>9.25</vdop><extensions><gom:speed>0.954</gom:speed></extensions></trkpt>
   <trkpt lat="59.3453061602" lon="34.6797225937"><ele>193.175</ele><time>2026-08-14T01:35:55.020Z</time><hdop>3.0</hdop><vdop>12.5</vdop><extensions><gom:speed>0.809</gom:speed></extensions></trkpt>
   <trkpt lat="59.3452710819" lon="34.6799027208"><ele>191.174</ele><time>2026-08-14T01:36:18.481Z</time><hdop>4.312</hdop><vdop>9.375</vdop><extensions><gom:speed>0.585</gom:speed></extensions></trkpt>
   <trkpt lat="59.3452528932" lon="34.6801040542"><ele>189.91</ele><time>2026-08-14T01:36:26.443Z</time><hdop>3.25</hdop><vdop>8.875</vdop><extensions><gom:speed>0.899</gom:speed></extensions></trkpt>
   <trkpt lat="59.3452018893" lon="34.6802591194"><ele>187.472</ele><time>2026-08-14T01:36:36.840Z</time><hdop>3.0</hdop><vdop>10.062</vdop><extensions><gom:speed>0.733</gom:speed></extensions></trkpt>
   <trkpt lat="59.345183994" lon="34.6804359775"><ele>187.264</ele><time>2026-08-14T01:37:01.680Z</time><hdop>3.0</hdop><vdop>10.5</vdop><extensions><gom:speed>0.298</gom:speed></extensions></trkpt>
   <trkpt lat="59.3451261588" lon="34.6805808168"><ele>186.329</ele><time>2026-08-14T01:37:13.420Z</time><hdop>3.0</hdop><vdop>10.062</vdop><extensions><gom:speed>0.624</gom:speed></extensions></trkpt>
   <trkpt lat="59.3450840817" lon="34.6807410788"><ele>187.924</ele><time>2026-08-14T01:37:31.721Z</time><hdop>3.0</hdop><vdop>9.187</vdop><extensions><gom:speed>0.649</gom:speed></extensions></trkpt>
   <trkpt lat="59.3451288829" lon="34.680900335"><ele>189.854</ele><time>2026-08-14T01:37:42.961Z</time><hdop>3.0</hdop><vdop>8.375</vdop><extensions><gom:speed>0.756</gom:speed></extensions></trkpt>
   <trkpt lat="59.3451164777" lon="34.6810805459"><ele>190.597</ele><time>2026-08-14T01:37:54.961Z</time><hdop>3.0</hdop><vdop>9.062</vdop><extensions><gom:speed>0.81</gom:speed></extensions></trkpt>
   <trkpt lat="59.3450759931" lon="34.6812395506"><ele>190.303</ele><time>2026-08-14T01:38:03.718Z</time><hdop>3.0</hdop><vdop>8.687</vdop><extensions><gom:speed>0.844</gom:speed></extensions></trkpt>
   <trkpt lat="59.3450327844" lon="34.6814036682"><ele>188.451</ele><time>2026-08-14T01:38:16.961Z</time><hdop>3.0</hdop><vdop>9.187</vdop><extensions><gom:speed>0.788</gom:speed></extensions></trkpt>
   <trkpt lat="59.3450754902" lon="34.681570049"><ele>188.32</ele><time>2026-08-14T01:38:31.099Z</time><hdop>3.0</hdop><vdop>8.875</vdop><extensions><gom:speed>0.747</gom:speed></extensions></trkpt>
   <trkpt lat="59.3451314813" lon="34.6817346696"><ele>189.947</ele><time>2026-08-14T01:38:45.020Z</time><hdop>3.0</hdop><vdop>8.25</vdop><extensions><gom:speed>0.801</gom:speed></extensions></trkpt>
   <trkpt lat="59.3451298888" lon="34.681928543"><ele>187.29</ele><time>2026-08-14T01:39:06.130Z</time><hdop>3.0</hdop><vdop>9.187</vdop><extensions><gom:speed>0.75</gom:speed></extensions></trkpt>
   <trkpt lat="59.3451300983" lon="34.6821112685"><ele>194.588</ele><time>2026-08-14T01:39:18.982Z</time><hdop>3.0</hdop><vdop>8.75</vdop><extensions><gom:speed>0.9</gom:speed></extensions></trkpt>
   <trkpt lat="59.3451145918" lon="34.6822909765"><ele>199.046</ele><time>2026-08-14T01:39:38.523Z</time><hdop>3.0</hdop><vdop>9.25</vdop><extensions><gom:speed>0.69</gom:speed></extensions></trkpt>
   <trkpt lat="59.3450778791" lon="34.6824660745"><ele>199.023</ele><time>2026-08-14T01:39:44.341Z</time><hdop>3.0</hdop><vdop>9.875</vdop><extensions><gom:speed>0.862</gom:speed></extensions></trkpt>
   <trkpt lat="59.3450246959" lon="34.6826110814"><ele>200.583</ele><time>2026-08-14T01:39:54.879Z</time><hdop>3.0</hdop><vdop>9.25</vdop><extensions><gom:speed>0.385</gom:speed></extensions></trkpt>
   <trkpt lat="59.3449668608" lon="34.682747455"><ele>205.946</ele><time>2026-08-14T01:40:18.621Z</time><hdop>3.0</hdop><vdop>10.5</vdop><extensions><gom:speed>0.285</gom:speed></extensions></trkpt>
   <trkpt lat="59.3448729834" lon="34.6828107383"><ele>203.789</ele><time>2026-08-14T01:40:28.109Z</time><hdop>3.0</hdop><vdop>10.25</vdop><extensions><gom:speed>0.747</gom:speed></extensions></trkpt>
   <trkpt lat="59.3448573931" lon="34.6830031868"><ele>193.229</ele><time>2026-08-14T01:40:48.059Z</time><hdop>3.0</hdop><vdop>9.375</vdop><extensions><gom:speed>0.864</gom:speed></extensions></trkpt>
   <trkpt lat="59.3449066787" lon="34.6831520494"><ele>192.043</ele><time>2026-08-14T01:40:58.162Z</time><hdop>3.0</hdop><vdop>10.25</vdop><extensions><gom:speed>0.992</gom:speed></extensions></trkpt>
   <trkpt lat="59.3448947764" lon="34.6833432406"><ele>190.54</ele><time>2026-08-14T01:41:11.118Z</time><hdop>3.0</hdop><vdop>9.25</vdop><extensions><gom:speed>0.957</gom:speed></extensions></trkpt>
   <trkpt lat="59.3448669904" lon="34.6835129742"><ele>190.211</ele><time>2026-08-14T01:41:26.023Z</time><hdop>3.0</hdop><vdop>9.0</vdop><extensions><gom:speed>0.939</gom:speed></extensions></trkpt>
   <trkpt lat="59.3448146873" lon="34.6836679556"><ele>190.018</ele><time>2026-08-14T01:41:44.074Z</time><hdop>3.0</hdop><vdop>12.687</vdop><extensions><gom:speed>1.255</gom:speed></extensions></trkpt>
   <trkpt lat="59.3447642702" lon="34.6838258706"><ele>192.098</ele><time>2026-08-14T01:41:51.120Z</time><hdop>3.0</hdop><vdop>9.875</vdop><extensions><gom:speed>1.407</gom:speed></extensions></trkpt>
   <trkpt lat="59.3447157808" lon="34.6839778345"><ele>190.52</ele><time>2026-08-14T01:42:03.902Z</time><hdop>3.0</hdop><vdop>9.25</vdop><extensions><gom:speed>0.939</gom:speed></extensions></trkpt>
   <trkpt lat="59.3447220673" lon="34.6841615658"><ele>187.622</ele><time>2026-08-14T01:42:16.880Z</time><hdop>3.0</hdop><vdop>8.562</vdop><extensions><gom:speed>0.898</gom:speed></extensions></trkpt>
   <trkpt lat="59.3447199718" lon="34.6843400166"><ele>185.021</ele><time>2026-08-14T01:42:25.901Z</time><hdop>3.0</hdop><vdop>8.875</vdop><extensions><gom:speed>1.058</gom:speed></extensions></trkpt>
   <trkpt lat="59.3447146912" lon="34.6845205628"><ele>185.238</ele><time>2026-08-14T01:42:39.279Z</time><hdop>3.0</hdop><vdop>9.25</vdop><extensions><gom:speed>0.838</gom:speed></extensions></trkpt>
   <trkpt lat="59.3446930659" lon="34.6847024501"><ele>185.896</ele><time>2026-08-14T01:43:07.882Z</time><hdop>3.0</hdop><vdop>7.5</vdop><extensions><gom:speed>0.678</gom:speed></extensions></trkpt>
   <trkpt lat="59.3446728655" lon="34.6848791406"><ele>184.897</ele><time>2026-08-14T01:43:29.056Z</time><hdop>3.0</hdop><vdop>8.062</vdop><extensions><gom:speed>0.666</gom:speed></extensions></trkpt>
   <trkpt lat="59.3446814989" lon="34.6850575913"><ele>185.086</ele><time>2026-08-14T01:43:48.661Z</time><hdop>3.0</hdop><vdop>8.187</vdop><extensions><gom:speed>0.412</gom:speed></extensions></trkpt>
   <trkpt lat="59.3447257972" lon="34.6852174342"><ele>184.416</ele><time>2026-08-14T01:44:12.761Z</time><hdop>3.0</hdop><vdop>8.0</vdop><extensions><gom:speed>0.19</gom:speed></extensions></trkpt>
   <trkpt lat="59.3446865699" lon="34.685385659"><ele>184.424</ele><time>2026-08-14T01:44:26.823Z</time><hdop>3.0</hdop><vdop>7.875</vdop><extensions><gom:speed>0.738</gom:speed></extensions></trkpt>
   <trkpt lat="59.3446868633" lon="34.6855720725"><ele>184.973</ele><time>2026-08-14T01:44:35.820Z</time><hdop>3.0</hdop><vdop>8.25</vdop><extensions><gom:speed>0.913</gom:speed></extensions></trkpt>
   <trkpt lat="59.3446915991" lon="34.685761755"><ele>188.983</ele><time>2026-08-14T01:44:46.041Z</time><hdop>3.0</hdop><vdop>9.375</vdop><extensions><gom:speed>1.039</gom:speed></extensions></trkpt>
   <trkpt lat="59.3446475941" lon="34.685915982"><ele>193.794</ele><time>2026-08-14T01:44:58.039Z</time><hdop>3.0</hdop><vdop>9.375</vdop><extensions><gom:speed>0.965</gom:speed></extensions></trkpt>
   <trkpt lat="59.3445545968" lon="34.6860119548"><ele>195.276</ele><time>2026-08-14T01:45:06.801Z</time><hdop>3.0</hdop><vdop>9.375</vdop><extensions><gom:speed>0.901</gom:speed></extensions></trkpt>
   <trkpt lat="59.3444652877" lon="34.6860418782"><ele>191.764</ele><time>2026-08-14T01:45:19.119Z</time><hdop>3.0</hdop><vdop>9.187</vdop><extensions><gom:speed>0.838</gom:speed></extensions></trkpt>
   <trkpt lat="59.3444682632" lon="34.6862221729"><ele>187.352</ele><time>2026-08-14T01:45:57.000Z</time><hdop>3.0</hdop><vdop>8.75</vdop><extensions><gom:speed>0.377</gom:speed></extensions></trkpt>
   <trkpt lat="59.3444752621" lon="34.6864012942"><ele>187.008</ele><time>2026-08-14T01:46:12.079Z</time><hdop>3.0</hdop><vdop>8.687</vdop><extensions><gom:speed>0.41</gom:speed></extensions></trkpt>
   <trkpt lat="59.3443963884" lon="34.6864920702"><ele>183.455</ele><time>2026-08-14T01:46:42.028Z</time><hdop>3.187</hdop><vdop>12.875</vdop><extensions><gom:speed>1.522</gom:speed></extensions></trkpt>
   <trkpt lat="59.3445060656" lon="34.6864458859"><ele>177.636</ele><time>2026-08-14T01:47:15.019Z</time><hdop>3.687</hdop><vdop>12.062</vdop><extensions><gom:speed>1.281</gom:speed></extensions></trkpt>
   <trkpt lat="59.3444225819" lon="34.6863286231"><ele>182.207</ele><time>2026-08-14T01:47:35.680Z</time><hdop>3.437</hdop><vdop>9.687</vdop><extensions><gom:speed>0.659</gom:speed></extensions></trkpt>
   <trkpt lat="59.3443434986" lon="34.6862407807"><ele>184.322</ele><time>2026-08-14T01:47:42.129Z</time><hdop>3.0</hdop><vdop>9.062</vdop><extensions><gom:speed>0.893</gom:speed></extensions></trkpt>
   <trkpt lat="59.3442653793" lon="34.6863488235"><ele>186.029</ele><time>2026-08-14T01:47:50.018Z</time><hdop>3.0</hdop><vdop>8.687</vdop><extensions><gom:speed>0.924</gom:speed></extensions></trkpt>
   <trkpt lat="59.3441899841" lon="34.6864553575"><ele>182.84</ele><time>2026-08-14T01:47:58.089Z</time><hdop>3.0</hdop><vdop>8.562</vdop><extensions><gom:speed>0.879</gom:speed></extensions></trkpt>
   <trkpt lat="59.344115888" lon="34.6865584549"><ele>181.678</ele><time>2026-08-14T01:48:08.880Z</time><hdop>3.0</hdop><vdop>8.562</vdop><extensions><gom:speed>0.75</gom:speed></extensions></trkpt>
   <trkpt lat="59.3440204601" lon="34.6865770627"><ele>186.612</ele><time>2026-08-14T01:49:04.917Z</time><hdop>3.0</hdop><vdop>8.25</vdop><extensions><gom:speed>0.709</gom:speed></extensions></trkpt>
   <trkpt lat="59.3439291811" lon="34.6865475584"><ele>188.508</ele><time>2026-08-14T01:49:17.456Z</time><hdop>3.0</hdop><vdop>9.375</vdop><extensions><gom:speed>1.085</gom:speed></extensions></trkpt>
   <trkpt lat="59.3440102761" lon="34.6866418548"><ele>180.501</ele><time>2026-08-14T01:49:44.440Z</time><hdop>3.0</hdop><vdop>11.375</vdop><extensions><gom:speed>0.827</gom:speed></extensions></trkpt>
   <trkpt lat="59.3440925863" lon="34.6867187169"><ele>182.247</ele><time>2026-08-14T01:49:53.639Z</time><hdop>3.125</hdop><vdop>12.375</vdop><extensions><gom:speed>0.905</gom:speed></extensions></trkpt>
   <trkpt lat="59.3440411634" lon="34.6868809905"><ele>181.659</ele><time>2026-08-14T01:49:56.126Z</time><hdop>3.312</hdop><vdop>12.5</vdop><extensions><gom:speed>0.794</gom:speed></extensions></trkpt>
   <trkpt lat="59.3441272874" lon="34.6868238259"><ele>186.563</ele><time>2026-08-14T01:50:03.678Z</time><hdop>3.0</hdop><vdop>9.0</vdop><extensions><gom:speed>0.903</gom:speed></extensions></trkpt>
   <trkpt lat="59.344220578" lon="34.6868503966"><ele>183.771</ele><time>2026-08-14T01:50:12.798Z</time><hdop>3.0</hdop><vdop>9.25</vdop><extensions><gom:speed>0.815</gom:speed></extensions></trkpt>
   <trkpt lat="59.3443026787" lon="34.6869227324"><ele>181.584</ele><time>2026-08-14T01:50:22.021Z</time><hdop>3.0</hdop><vdop>8.75</vdop><extensions><gom:speed>1.0</gom:speed></extensions></trkpt>
   <trkpt lat="59.3443583765" lon="34.6870659791"><ele>184.695</ele><time>2026-08-14T01:50:34.056Z</time><hdop>3.0</hdop><vdop>9.062</vdop><extensions><gom:speed>0.697</gom:speed></extensions></trkpt>
   <trkpt lat="59.3444453806" lon="34.6871382311"><ele>182.912</ele><time>2026-08-14T01:51:10.078Z</time><hdop>3.0</hdop><vdop>9.0</vdop><extensions><gom:speed>0.585</gom:speed></extensions></trkpt>
   <trkpt lat="59.3445338935" lon="34.6872204576"><ele>184.352</ele><time>2026-08-14T01:51:24.897Z</time><hdop>3.0</hdop><vdop>9.0</vdop><extensions><gom:speed>0.737</gom:speed></extensions></trkpt>
   <trkpt lat="59.3446141922" lon="34.6873320207"><ele>184.733</ele><time>2026-08-14T01:51:44.880Z</time><hdop>3.0</hdop><vdop>9.875</vdop><extensions><gom:speed>0.723</gom:speed></extensions></trkpt>
   <trkpt lat="59.3446826723" lon="34.6874674723"><ele>183.358</ele><time>2026-08-14T01:51:53.858Z</time><hdop>3.0</hdop><vdop>11.062</vdop><extensions><gom:speed>1.139</gom:speed></extensions></trkpt>
   <trkpt lat="59.344771772" lon="34.6875058614"><ele>184.586</ele><time>2026-08-14T01:52:06.020Z</time><hdop>3.0</hdop><vdop>9.5</vdop><extensions><gom:speed>0.746</gom:speed></extensions></trkpt>
   <trkpt lat="59.3448641824" lon="34.6875064481"><ele>184.118</ele><time>2026-08-14T01:52:16.133Z</time><hdop>3.0</hdop><vdop>9.875</vdop><extensions><gom:speed>0.831</gom:speed></extensions></trkpt>
   <trkpt lat="59.3449613706" lon="34.6874774467"><ele>185.226</ele><time>2026-08-14T01:52:25.799Z</time><hdop>3.0</hdop><vdop>9.25</vdop><extensions><gom:speed>0.918</gom:speed></extensions></trkpt>
   <trkpt lat="59.3450541583" lon="34.6874424942"><ele>184.383</ele><time>2026-08-14T01:52:34.882Z</time><hdop>3.0</hdop><vdop>9.062</vdop><extensions><gom:speed>1.024</gom:speed></extensions></trkpt>
   <trkpt lat="59.3451474908" lon="34.6874642871"><ele>181.795</ele><time>2026-08-14T01:52:46.658Z</time><hdop>3.0</hdop><vdop>8.875</vdop><extensions><gom:speed>0.842</gom:speed></extensions></trkpt>
   <trkpt lat="59.3452363808" lon="34.6874358725"><ele>180.312</ele><time>2026-08-14T01:52:55.239Z</time><hdop>3.0</hdop><vdop>9.062</vdop><extensions><gom:speed>0.918</gom:speed></extensions></trkpt>
   <trkpt lat="59.3453286656" lon="34.6874205336"><ele>178.96</ele><time>2026-08-14T01:53:04.115Z</time><hdop>3.0</hdop><vdop>9.562</vdop><extensions><gom:speed>0.977</gom:speed></extensions></trkpt>
   <trkpt lat="59.3454151668" lon="34.6874787878"><ele>180.455</ele><time>2026-08-14T01:53:17.601Z</time><hdop>3.0</hdop><vdop>9.562</vdop><extensions><gom:speed>0.754</gom:speed></extensions></trkpt>
   <trkpt lat="59.3455014585" lon="34.6874217909"><ele>185.615</ele><time>2026-08-14T01:53:31.520Z</time><hdop>3.0</hdop><vdop>9.375</vdop><extensions><gom:speed>0.733</gom:speed></extensions></trkpt>
   <trkpt lat="59.3455933661" lon="34.687436543"><ele>186.771</ele><time>2026-08-14T01:53:40.978Z</time><hdop>3.0</hdop><vdop>10.0</vdop><extensions><gom:speed>0.834</gom:speed></extensions></trkpt>
   <trkpt lat="59.3456913925" lon="34.6873978187"><ele>188.516</ele><time>2026-08-14T01:53:50.130Z</time><hdop>3.0</hdop><vdop>9.562</vdop><extensions><gom:speed>1.007</gom:speed></extensions></trkpt>
   <trkpt lat="59.3457826714" lon="34.687414331"><ele>189.155</ele><time>2026-08-14T01:53:57.799Z</time><hdop>3.0</hdop><vdop>9.875</vdop><extensions><gom:speed>0.933</gom:speed></extensions></trkpt>
   <trkpt lat="59.3458689631" lon="34.6874720823"><ele>192.393</ele><time>2026-08-14T01:54:12.018Z</time><hdop>3.0</hdop><vdop>10.375</vdop><extensions><gom:speed>0.691</gom:speed></extensions></trkpt>
   <trkpt lat="59.3459653969" lon="34.6874877565"><ele>193.082</ele><time>2026-08-14T01:54:24.059Z</time><hdop>3.0</hdop><vdop>9.75</vdop><extensions><gom:speed>0.716</gom:speed></extensions></trkpt>
   <trkpt lat="59.3460574721" lon="34.6874721661"><ele>191.653</ele><time>2026-08-14T01:54:32.599Z</time><hdop>3.0</hdop><vdop>10.375</vdop><extensions><gom:speed>0.719</gom:speed></extensions></trkpt>
   <trkpt lat="59.3461465717" lon="34.6874148339"><ele>190.598</ele><time>2026-08-14T01:54:41.798Z</time><hdop>3.0</hdop><vdop>11.0</vdop><extensions><gom:speed>0.858</gom:speed></extensions></trkpt>
   <trkpt lat="59.3462243977" lon="34.6873206213"><ele>189.31</ele><time>2026-08-14T01:55:02.048Z</time><hdop>3.0</hdop><vdop>10.875</vdop><extensions><gom:speed>0.541</gom:speed></extensions></trkpt>
   <trkpt lat="59.346280766" lon="34.6871745248"><ele>192.53</ele><time>2026-08-14T01:55:13.380Z</time><hdop>3.0</hdop><vdop>10.375</vdop><extensions><gom:speed>0.735</gom:speed></extensions></trkpt>
   <trkpt lat="59.3463760682" lon="34.6871466968"><ele>194.102</ele><time>2026-08-14T01:55:26.597Z</time><hdop>3.0</hdop><vdop>9.687</vdop><extensions><gom:speed>0.894</gom:speed></extensions></trkpt>
   <trkpt lat="59.3464599711" lon="34.6870730199"><ele>192.383</ele><time>2026-08-14T01:55:37.459Z</time><hdop>3.0</hdop><vdop>9.875</vdop><extensions><gom:speed>0.83</gom:speed></extensions></trkpt>
   <trkpt lat="59.3465499927" lon="34.6870754507"><ele>189.982</ele><time>2026-08-14T01:55:50.130Z</time><hdop>3.0</hdop><vdop>8.75</vdop><extensions><gom:speed>0.753</gom:speed></extensions></trkpt>
   <trkpt lat="59.3466412716" lon="34.6870764565"><ele>189.279</ele><time>2026-08-14T01:55:57.639Z</time><hdop>3.0</hdop><vdop>9.25</vdop><extensions><gom:speed>0.905</gom:speed></extensions></trkpt>
   <trkpt lat="59.3467345622" lon="34.6870974951"><ele>188.054</ele><time>2026-08-14T01:56:09.302Z</time><hdop>3.0</hdop><vdop>9.687</vdop><extensions><gom:speed>0.853</gom:speed></extensions></trkpt>
   <trkpt lat="59.3468288586" lon="34.6871041168"><ele>188.403</ele><time>2026-08-14T01:56:25.052Z</time><hdop>3.0</hdop><vdop>9.5</vdop><extensions><gom:speed>0.649</gom:speed></extensions></trkpt>
   <trkpt lat="59.3469182935" lon="34.6871424221"><ele>187.258</ele><time>2026-08-14T01:56:32.439Z</time><hdop>3.0</hdop><vdop>10.687</vdop><extensions><gom:speed>0.849</gom:speed></extensions></trkpt>
   <trkpt lat="59.3470125899" lon="34.6871222217"><ele>186.072</ele><time>2026-08-14T01:56:41.115Z</time><hdop>3.0</hdop><vdop>10.062</vdop><extensions><gom:speed>0.921</gom:speed></extensions></trkpt>
   <trkpt lat="59.3470952774" lon="34.687210986"><ele>183.852</ele><time>2026-08-14T01:56:49.819Z</time><hdop>3.0</hdop><vdop>10.0</vdop><extensions><gom:speed>0.692</gom:speed></extensions></trkpt>
   <trkpt lat="59.3471735644" lon="34.6873086352"><ele>183.969</ele><time>2026-08-14T01:57:02.759Z</time><hdop>3.0</hdop><vdop>10.187</vdop><extensions><gom:speed>0.75</gom:speed></extensions></trkpt>
   <trkpt lat="59.3472639632" lon="34.6873600163"><ele>182.962</ele><time>2026-08-14T01:57:13.338Z</time><hdop>3.0</hdop><vdop>11.687</vdop><extensions><gom:speed>0.872</gom:speed></extensions></trkpt>
   <trkpt lat="59.3473522666" lon="34.6874015905"><ele>183.186</ele><time>2026-08-14T01:57:25.457Z</time><hdop>3.0</hdop><vdop>10.5</vdop><extensions><gom:speed>0.643</gom:speed></extensions></trkpt>
   <trkpt lat="59.3474433779" lon="34.6874653768"><ele>184.213</ele><time>2026-08-14T01:57:36.417Z</time><hdop>3.0</hdop><vdop>9.875</vdop><extensions><gom:speed>0.91</gom:speed></extensions></trkpt>
   <trkpt lat="59.3475327709" lon="34.6875175961"><ele>185.014</ele><time>2026-08-14T01:57:45.980Z</time><hdop>3.0</hdop><vdop>9.062</vdop><extensions><gom:speed>0.918</gom:speed></extensions></trkpt>
   <trkpt lat="59.3476129857" lon="34.6876240462"><ele>185.926</ele><time>2026-08-14T01:57:58.857Z</time><hdop>3.0</hdop><vdop>9.062</vdop><extensions><gom:speed>0.885</gom:speed></extensions></trkpt>
   <trkpt lat="59.3477072821" lon="34.6876314223"><ele>186.697</ele><time>2026-08-14T01:58:09.677Z</time><hdop>3.0</hdop><vdop>9.375</vdop><extensions><gom:speed>0.991</gom:speed></extensions></trkpt>
   <trkpt lat="59.3477988963" lon="34.6876240462"><ele>185.158</ele><time>2026-08-14T01:58:17.839Z</time><hdop>3.0</hdop><vdop>9.0</vdop><extensions><gom:speed>1.104</gom:speed></extensions></trkpt>
   <trkpt lat="59.3478913906" lon="34.68765288"><ele>186.653</ele><time>2026-08-14T01:58:28.061Z</time><hdop>3.0</hdop><vdop>9.187</vdop><extensions><gom:speed>0.859</gom:speed></extensions></trkpt>
   <trkpt lat="59.3479818732" lon="34.687704764"><ele>185.907</ele><time>2026-08-14T01:58:54.401Z</time><hdop>3.0</hdop><vdop>9.5</vdop><extensions><gom:speed>0.825</gom:speed></extensions></trkpt>
   <trkpt lat="59.3480715596" lon="34.6877704781"><ele>185.889</ele><time>2026-08-14T01:59:08.056Z</time><hdop>3.0</hdop><vdop>8.875</vdop><extensions><gom:speed>0.798</gom:speed></extensions></trkpt>
   <trkpt lat="59.3481543728" lon="34.6878410537"><ele>186.531</ele><time>2026-08-14T01:59:18.418Z</time><hdop>3.0</hdop><vdop>9.375</vdop><extensions><gom:speed>0.864</gom:speed></extensions></trkpt>
   <trkpt lat="59.3482407902" lon="34.6879144792"><ele>187.857</ele><time>2026-08-14T01:59:27.027Z</time><hdop>3.0</hdop><vdop>9.0</vdop><extensions><gom:speed>0.85</gom:speed></extensions></trkpt>
   <trkpt lat="59.3483284649" lon="34.6879903354"><ele>189.449</ele><time>2026-08-14T01:59:33.938Z</time><hdop>3.0</hdop><vdop>9.875</vdop><extensions><gom:speed>1.192</gom:speed></extensions></trkpt>
   <trkpt lat="59.3484118649" lon="34.6880604919"><ele>189.715</ele><time>2026-08-14T01:59:45.257Z</time><hdop>3.0</hdop><vdop>10.187</vdop><extensions><gom:speed>0.771</gom:speed></extensions></trkpt>
   <trkpt lat="59.3485007969" lon="34.6881220989"><ele>184.861</ele><time>2026-08-14T01:59:56.940Z</time><hdop>3.0</hdop><vdop>12.25</vdop><extensions><gom:speed>1.061</gom:speed></extensions></trkpt>
   <trkpt lat="59.3485920758" lon="34.6881287206"><ele>180.622</ele><time>2026-08-14T02:00:05.569Z</time><hdop>3.0</hdop><vdop>10.687</vdop><extensions><gom:speed>0.777</gom:speed></extensions></trkpt>
   <trkpt lat="59.3486797924" lon="34.688175324"><ele>182.377</ele><time>2026-08-14T02:00:12.098Z</time><hdop>3.0</hdop><vdop>9.75</vdop><extensions><gom:speed>0.949</gom:speed></extensions></trkpt>
   <trkpt lat="59.3487714904" lon="34.6882181555"><ele>185.585</ele><time>2026-08-14T02:00:19.040Z</time><hdop>3.0</hdop><vdop>9.187</vdop><extensions><gom:speed>1.069</gom:speed></extensions></trkpt>
   <trkpt lat="59.3488662897" lon="34.6882048283"><ele>184.65</ele><time>2026-08-14T02:00:27.859Z</time><hdop>3.0</hdop><vdop>10.5</vdop><extensions><gom:speed>0.875</gom:speed></extensions></trkpt>
   <trkpt lat="59.3489485581" lon="34.6882799301"><ele>184.968</ele><time>2026-08-14T02:00:36.818Z</time><hdop>3.0</hdop><vdop>10.25</vdop><extensions><gom:speed>1.099</gom:speed></extensions></trkpt>
   <trkpt lat="59.3490150685" lon="34.6884121966"><ele>183.452</ele><time>2026-08-14T02:00:47.581Z</time><hdop>3.0</hdop><vdop>8.187</vdop><extensions><gom:speed>1.144</gom:speed></extensions></trkpt>
   <trkpt lat="59.3490498953" lon="34.6885876298"><ele>184.187</ele><time>2026-08-14T02:00:56.898Z</time><hdop>3.0</hdop><vdop>8.25</vdop><extensions><gom:speed>1.295</gom:speed></extensions></trkpt>
   <trkpt lat="59.3491396655" lon="34.6885707822"><ele>184.569</ele><time>2026-08-14T02:01:52.697Z</time><hdop>3.062</hdop><vdop>10.25</vdop><extensions><gom:speed>1.037</gom:speed></extensions></trkpt>
   <trkpt lat="59.3492356802" lon="34.6885666751"><ele>183.284</ele><time>2026-08-14T02:02:01.478Z</time><hdop>3.437</hdop><vdop>9.687</vdop><extensions><gom:speed>1.373</gom:speed></extensions></trkpt>
   <trkpt lat="59.3491891607" lon="34.6887620572"><ele>182.308</ele><time>2026-08-14T02:02:03.084Z</time><hdop>3.75</hdop><vdop>10.187</vdop><extensions><gom:speed>1.124</gom:speed></extensions></trkpt>
   <trkpt lat="59.3492583952" lon="34.6888748776"><ele>180.403</ele><time>2026-08-14T02:02:14.120Z</time><hdop>3.0</hdop><vdop>11.375</vdop><extensions><gom:speed>0.945</gom:speed></extensions></trkpt>
   <trkpt lat="59.3493110754" lon="34.6890306972"><ele>175.232</ele><time>2026-08-14T02:02:25.120Z</time><hdop>3.0</hdop><vdop>11.062</vdop><extensions><gom:speed>0.958</gom:speed></extensions></trkpt>
   <trkpt lat="59.3493471595" lon="34.6891977485"><ele>172.271</ele><time>2026-08-14T02:02:35.106Z</time><hdop>3.0</hdop><vdop>11.875</vdop><extensions><gom:speed>1.016</gom:speed></extensions></trkpt>
   <trkpt lat="59.3493619955" lon="34.6893773727"><ele>173.734</ele><time>2026-08-14T02:02:43.321Z</time><hdop>3.0</hdop><vdop>10.375</vdop><extensions><gom:speed>0.915</gom:speed></extensions></trkpt>
   <trkpt lat="59.3493859677" lon="34.6895556558"><ele>173.454</ele><time>2026-08-14T02:02:53.058Z</time><hdop>3.0</hdop><vdop>10.5</vdop><extensions><gom:speed>0.944</gom:speed></extensions></trkpt>
   <trkpt lat="59.3494250693" lon="34.689717678"><ele>174.054</ele><time>2026-08-14T02:03:00.241Z</time><hdop>3.0</hdop><vdop>10.5</vdop><extensions><gom:speed>1.085</gom:speed></extensions></trkpt>
   <trkpt lat="59.3494484967" lon="34.6898960449"><ele>174.995</ele><time>2026-08-14T02:03:07.882Z</time><hdop>3.0</hdop><vdop>9.25</vdop><extensions><gom:speed>1.243</gom:speed></extensions></trkpt>
   <trkpt lat="59.3494441801" lon="34.6900773455"><ele>176.575</ele><time>2026-08-14T02:03:16.039Z</time><hdop>3.0</hdop><vdop>10.0</vdop><extensions><gom:speed>1.185</gom:speed></extensions></trkpt>
   <trkpt lat="59.3494996683" lon="34.6902162336"><ele>176.649</ele><time>2026-08-14T02:03:22.800Z</time><hdop>3.0</hdop><vdop>9.25</vdop><extensions><gom:speed>1.248</gom:speed></extensions></trkpt>
   <trkpt lat="59.3495675617" lon="34.6903486677"><ele>177.422</ele><time>2026-08-14T02:03:30.600Z</time><hdop>3.0</hdop><vdop>9.0</vdop><extensions><gom:speed>1.171</gom:speed></extensions></trkpt>
   <trkpt lat="59.3495975689" lon="34.6905214187"><ele>178.46</ele><time>2026-08-14T02:03:39.560Z</time><hdop>3.0</hdop><vdop>9.0</vdop><extensions><gom:speed>1.323</gom:speed></extensions></trkpt>
   <trkpt lat="59.3496404842" lon="34.6906820998"><ele>178.136</ele><time>2026-08-14T02:03:47.558Z</time><hdop>3.0</hdop><vdop>8.875</vdop><extensions><gom:speed>1.264</gom:speed></extensions></trkpt>
   <trkpt lat="59.3496668872" lon="34.6908684295"><ele>175.924</ele><time>2026-08-14T02:03:57.860Z</time><hdop>3.0</hdop><vdop>9.5</vdop><extensions><gom:speed>1.07</gom:speed></extensions></trkpt>
   <trkpt lat="59.3496853693" lon="34.6910435274"><ele>175.939</ele><time>2026-08-14T02:04:05.641Z</time><hdop>3.0</hdop><vdop>9.687</vdop><extensions><gom:speed>1.233</gom:speed></extensions></trkpt>
   <trkpt lat="59.3496888897" lon="34.6912208885"><ele>177.87</ele><time>2026-08-14T02:04:15.108Z</time><hdop>3.0</hdop><vdop>9.562</vdop><extensions><gom:speed>1.053</gom:speed></extensions></trkpt>
   <trkpt lat="59.3497014626" lon="34.6914233953"><ele>177.787</ele><time>2026-08-14T02:04:23.088Z</time><hdop>3.0</hdop><vdop>9.75</vdop><extensions><gom:speed>1.58</gom:speed></extensions></trkpt>
   <trkpt lat="59.3497281589" lon="34.6915958949"><ele>178.124</ele><time>2026-08-14T02:04:32.000Z</time><hdop>3.0</hdop><vdop>9.687</vdop><extensions><gom:speed>1.296</gom:speed></extensions></trkpt>
   <trkpt lat="59.3497498681" lon="34.6917719986"><ele>174.407</ele><time>2026-08-14T02:04:42.053Z</time><hdop>3.0</hdop><vdop>10.062</vdop><extensions><gom:speed>1.105</gom:speed></extensions></trkpt>
   <trkpt lat="59.3497550648" lon="34.6919562329"><ele>175.386</ele><time>2026-08-14T02:04:50.560Z</time><hdop>3.0</hdop><vdop>9.0</vdop><extensions><gom:speed>1.295</gom:speed></extensions></trkpt>
   <trkpt lat="59.3497731698" lon="34.6921334263"><ele>178.171</ele><time>2026-08-14T02:04:59.048Z</time><hdop>3.0</hdop><vdop>9.5</vdop><extensions><gom:speed>1.191</gom:speed></extensions></trkpt>
   <trkpt lat="59.3497484851" lon="34.6923061773"><ele>179.051</ele><time>2026-08-14T02:05:05.661Z</time><hdop>3.0</hdop><vdop>10.375</vdop><extensions><gom:speed>1.176</gom:speed></extensions></trkpt>
   <trkpt lat="59.3497639916" lon="34.6924942672"><ele>178.382</ele><time>2026-08-14T02:05:15.040Z</time><hdop>3.0</hdop><vdop>9.062</vdop><extensions><gom:speed>1.201</gom:speed></extensions></trkpt>
   <trkpt lat="59.3497653746" lon="34.6926735562"><ele>177.881</ele><time>2026-08-14T02:05:23.739Z</time><hdop>3.0</hdop><vdop>9.062</vdop><extensions><gom:speed>1.202</gom:speed></extensions></trkpt>
   <trkpt lat="59.3497625667" lon="34.6928555273"><ele>175.979</ele><time>2026-08-14T02:05:31.068Z</time><hdop>3.0</hdop><vdop>10.375</vdop><extensions><gom:speed>1.312</gom:speed></extensions></trkpt>
   <trkpt lat="59.3497945855" lon="34.693023333"><ele>175.953</ele><time>2026-08-14T02:05:39.698Z</time><hdop>3.0</hdop><vdop>10.687</vdop><extensions><gom:speed>1.291</gom:speed></extensions></trkpt>
   <trkpt lat="59.3497909813" lon="34.6932059746"><ele>173.968</ele><time>2026-08-14T02:05:48.239Z</time><hdop>3.0</hdop><vdop>11.062</vdop><extensions><gom:speed>1.232</gom:speed></extensions></trkpt>
   <trkpt lat="59.3498246766" lon="34.6933695894"><ele>173.831</ele><time>2026-08-14T02:05:56.920Z</time><hdop>3.0</hdop><vdop>10.187</vdop><extensions><gom:speed>1.23</gom:speed></extensions></trkpt>
   <trkpt lat="59.3498489841" lon="34.6935441844"><ele>174.192</ele><time>2026-08-14T02:06:05.101Z</time><hdop>3.0</hdop><vdop>9.187</vdop><extensions><gom:speed>1.142</gom:speed></extensions></trkpt>
   <trkpt lat="59.3498493613" lon="34.6937366329"><ele>172.328</ele><time>2026-08-14T02:06:12.884Z</time><hdop>3.0</hdop><vdop>8.687</vdop><extensions><gom:speed>1.169</gom:speed></extensions></trkpt>
   <trkpt lat="59.3498506605" lon="34.6939150837"><ele>171.628</ele><time>2026-08-14T02:06:22.055Z</time><hdop>3.0</hdop><vdop>8.562</vdop><extensions><gom:speed>1.182</gom:speed></extensions></trkpt>
   <trkpt lat="59.3498838947" lon="34.6940807939"><ele>175.338</ele><time>2026-08-14T02:06:28.984Z</time><hdop>3.0</hdop><vdop>8.375</vdop><extensions><gom:speed>1.264</gom:speed></extensions></trkpt>
   <trkpt lat="59.3499159974" lon="34.6942694705"><ele>172.607</ele><time>2026-08-14T02:06:36.945Z</time><hdop>3.0</hdop><vdop>8.187</vdop><extensions><gom:speed>1.263</gom:speed></extensions></trkpt>
   <trkpt lat="59.3498923604" lon="34.6944480889"><ele>171.928</ele><time>2026-08-14T02:06:46.026Z</time><hdop>3.0</hdop><vdop>8.0</vdop><extensions><gom:speed>1.126</gom:speed></extensions></trkpt>
   <trkpt lat="59.349901371" lon="34.6946345862"><ele>172.893</ele><time>2026-08-14T02:06:56.978Z</time><hdop>3.0</hdop><vdop>7.875</vdop><extensions><gom:speed>0.976</gom:speed></extensions></trkpt>
   <trkpt lat="59.3499071964" lon="34.6948157191"><ele>173.393</ele><time>2026-08-14T02:07:04.684Z</time><hdop>3.0</hdop><vdop>8.5</vdop><extensions><gom:speed>1.161</gom:speed></extensions></trkpt>
   <trkpt lat="59.3499419813" lon="34.6950013783"><ele>176.963</ele><time>2026-08-14T02:07:14.077Z</time><hdop>3.0</hdop><vdop>8.375</vdop><extensions><gom:speed>1.193</gom:speed></extensions></trkpt>
   <trkpt lat="59.3499468847" lon="34.6951813378"><ele>177.95</ele><time>2026-08-14T02:07:22.645Z</time><hdop>3.0</hdop><vdop>7.187</vdop><extensions><gom:speed>1.078</gom:speed></extensions></trkpt>
   <trkpt lat="59.3499557695" lon="34.6953731995"><ele>176.71</ele><time>2026-08-14T02:07:32.107Z</time><hdop>3.0</hdop><vdop>6.875</vdop><extensions><gom:speed>1.102</gom:speed></extensions></trkpt>
   <trkpt lat="59.3499616788" lon="34.6955632173"><ele>175.46</ele><time>2026-08-14T02:07:41.123Z</time><hdop>3.0</hdop><vdop>7.062</vdop><extensions><gom:speed>1.111</gom:speed></extensions></trkpt>
   <trkpt lat="59.3499538836" lon="34.6957473677"><ele>175.504</ele><time>2026-08-14T02:07:50.035Z</time><hdop>3.0</hdop><vdop>7.187</vdop><extensions><gom:speed>1.146</gom:speed></extensions></trkpt>
   <trkpt lat="59.3499697673" lon="34.6959225495"><ele>176.901</ele><time>2026-08-14T02:07:56.464Z</time><hdop>3.0</hdop><vdop>7.25</vdop><extensions><gom:speed>1.377</gom:speed></extensions></trkpt>
   <trkpt lat="59.3499815858" lon="34.6961077895"><ele>177.098</ele><time>2026-08-14T02:08:04.863Z</time><hdop>3.25</hdop><vdop>6.687</vdop><extensions><gom:speed>1.417</gom:speed></extensions></trkpt>
   <trkpt lat="59.3500201844" lon="34.6962678839"><ele>175.245</ele><time>2026-08-14T02:08:13.039Z</time><hdop>3.0</hdop><vdop>7.062</vdop><extensions><gom:speed>1.154</gom:speed></extensions></trkpt>
   <trkpt lat="59.350064399" lon="34.6964277268"><ele>176.522</ele><time>2026-08-14T02:08:22.823Z</time><hdop>3.0</hdop><vdop>7.5</vdop><extensions><gom:speed>1.141</gom:speed></extensions></trkpt>
   <trkpt lat="59.3501039616" lon="34.6965871506"><ele>178.063</ele><time>2026-08-14T02:08:31.282Z</time><hdop>3.0</hdop><vdop>7.687</vdop><extensions><gom:speed>1.172</gom:speed></extensions></trkpt>
   <trkpt lat="59.3501489724" lon="34.6967440598"><ele>177.22</ele><time>2026-08-14T02:08:40.543Z</time><hdop>3.0</hdop><vdop>7.375</vdop><extensions><gom:speed>1.124</gom:speed></extensions></trkpt>
   <trkpt lat="59.3501950729" lon="34.6968958561"><ele>176.621</ele><time>2026-08-14T02:08:50.033Z</time><hdop>3.0</hdop><vdop>7.375</vdop><extensions><gom:speed>1.035</gom:speed></extensions></trkpt>
   <trkpt lat="59.35022047" lon="34.6970854547"><ele>176.831</ele><time>2026-08-14T02:08:57.005Z</time><hdop>3.0</hdop><vdop>7.187</vdop><extensions><gom:speed>1.107</gom:speed></extensions></trkpt>
   <trkpt lat="59.3502490942" lon="34.6972678449"><ele>176.817</ele><time>2026-08-14T02:09:06.095Z</time><hdop>3.0</hdop><vdop>9.187</vdop><extensions><gom:speed>1.16</gom:speed></extensions></trkpt>
   <trkpt lat="59.3502874833" lon="34.6974386681"><ele>177.377</ele><time>2026-08-14T02:09:15.111Z</time><hdop>3.0</hdop><vdop>8.375</vdop><extensions><gom:speed>1.231</gom:speed></extensions></trkpt>
   <trkpt lat="59.3503190831" lon="34.6976111677"><ele>178.944</ele><time>2026-08-14T02:09:26.095Z</time><hdop>3.0</hdop><vdop>8.5</vdop><extensions><gom:speed>0.892</gom:speed></extensions></trkpt>
   <trkpt lat="59.3503463662" lon="34.6977835834"><ele>179.853</ele><time>2026-08-14T02:09:35.661Z</time><hdop>3.0</hdop><vdop>8.375</vdop><extensions><gom:speed>1.059</gom:speed></extensions></trkpt>
   <trkpt lat="59.350394185" lon="34.6979356311"><ele>177.73</ele><time>2026-08-14T02:09:44.564Z</time><hdop>3.0</hdop><vdop>10.25</vdop><extensions><gom:speed>1.034</gom:speed></extensions></trkpt>
   <trkpt lat="59.3504035727" lon="34.6981231343"><ele>176.041</ele><time>2026-08-14T02:09:54.822Z</time><hdop>3.0</hdop><vdop>11.0</vdop><extensions><gom:speed>0.942</gom:speed></extensions></trkpt>
   <trkpt lat="59.3504262877" lon="34.6983007468"><ele>175.707</ele><time>2026-08-14T02:10:03.090Z</time><hdop>3.0</hdop><vdop>9.75</vdop><extensions><gom:speed>0.944</gom:speed></extensions></trkpt>
   <trkpt lat="59.3504502599" lon="34.6984758448"><ele>175.113</ele><time>2026-08-14T02:10:11.427Z</time><hdop>3.0</hdop><vdop>10.375</vdop><extensions><gom:speed>0.922</gom:speed></extensions></trkpt>
   <trkpt lat="59.3504713823" lon="34.6986557204"><ele>173.229</ele><time>2026-08-14T02:10:21.125Z</time><hdop>3.0</hdop><vdop>10.0</vdop><extensions><gom:speed>0.998</gom:speed></extensions></trkpt>
   <trkpt lat="59.3505021858" lon="34.698837021"><ele>173.178</ele><time>2026-08-14T02:10:30.484Z</time><hdop>3.0</hdop><vdop>10.187</vdop><extensions><gom:speed>0.888</gom:speed></extensions></trkpt>
   <trkpt lat="59.3505202907" lon="34.6990113646"><ele>172.272</ele><time>2026-08-14T02:10:41.949Z</time><hdop>3.0</hdop><vdop>8.25</vdop><extensions><gom:speed>0.761</gom:speed></extensions></trkpt>
   <trkpt lat="59.3505624936" lon="34.6991798409"><ele>174.728</ele><time>2026-08-14T02:10:50.083Z</time><hdop>3.0</hdop><vdop>7.375</vdop><extensions><gom:speed>1.042</gom:speed></extensions></trkpt>
  </trkseg>
 </trk>
</gpx>